Provisional Data: West Creek near Weber City, PA


Please select a monitoring station.
Please select start date.
Please select start date.

Toggle Unit: C/F Toggle Unit: C/F
Sample Time Temperature (C) Temperature (F) Specific Conductivity (mS/cm) pH   Turbidity (NTU+) DO (mg/L)
5/4/2021 12:00:00 AM 12.13 53.834 0.06 6.8 28.46 10.39
5/4/2021 12:15:00 AM 12.11 53.798 0.06 6.79 56.36 10.39
5/4/2021 12:30:00 AM 12.09 53.762 0.06 6.79 30.4 10.4
5/4/2021 12:45:00 AM 12.07 53.726 0.06 6.81 30.45 10.4
5/4/2021 1:00:00 AM 12.04 53.672 0.06 6.81 34.84 10.41
5/4/2021 1:15:00 AM 12.02 53.636 0.06 6.81 45.81 10.41
5/4/2021 1:30:00 AM 12 53.6 0.06 6.8 26.57 10.41
5/4/2021 1:45:00 AM 11.98 53.564 0.06 6.79 28.56 10.42
5/4/2021 2:00:00 AM 11.96 53.528 0.06 6.79 27.79 10.42
5/4/2021 2:15:00 AM 11.94 53.492 0.06 6.78 41.56 10.42
5/4/2021 2:30:00 AM 11.92 53.456 0.06 6.78 43.18 10.43
5/4/2021 2:45:00 AM 11.91 53.438 0.06 6.77 40.6 10.43
5/4/2021 3:00:00 AM 11.89 53.402 0.06 6.77 34.64 10.43
5/4/2021 3:15:00 AM 11.88 53.384 0.06 6.77 28.19 10.43
5/4/2021 3:30:00 AM 11.86 53.348 0.06 6.77 46.76 10.43
5/4/2021 3:45:00 AM 11.85 53.33 0.06 6.76 51.61 10.43
5/4/2021 4:00:00 AM 11.83 53.294 0.06 6.76 32.77 10.44
5/4/2021 4:15:00 AM 11.81 53.258 0.06 6.76 33.24 10.44
5/4/2021 4:30:00 AM 11.8 53.24 0.06 6.76 48.38 10.45
5/4/2021 4:45:00 AM 11.78 53.204 0.06 6.76 46.31 10.45
5/4/2021 5:00:00 AM 11.77 53.186 0.06 6.75 31.91 10.46
5/4/2021 5:15:00 AM 11.75 53.15 0.06 6.75 39.9 10.46
5/4/2021 5:30:00 AM 11.73 53.114 0.06 6.76 27.48 10.47
5/4/2021 5:45:00 AM 11.72 53.096 0.06 6.75 34.18 10.47
5/4/2021 6:00:00 AM 11.71 53.078 0.06 6.76 33.86 10.48
5/4/2021 6:15:00 AM 11.7 53.06 0.06 6.76 26.83 10.48
5/4/2021 6:30:00 AM 11.69 53.042 0.06 6.76 34.37 10.49
5/4/2021 6:45:00 AM 11.68 53.024 0.06 6.76 33.17 10.51
5/4/2021 7:00:00 AM 11.67 53.006 0.06 6.77 29.39 10.52
5/4/2021 7:15:00 AM 11.66 52.988 0.06 6.78 46.94 10.55
5/4/2021 7:30:00 AM 11.66 52.988 0.06 6.79 30.5 10.58
5/4/2021 7:45:00 AM 11.67 53.006 0.06 6.81 29.68 10.62
5/4/2021 8:00:00 AM 11.67 53.006 0.06 6.8 51.16 10.62
5/4/2021 8:15:00 AM 11.67 53.006 0.06 6.81 33.2 10.64
5/4/2021 8:30:00 AM 11.69 53.042 0.06 6.83 50.14 10.67
5/4/2021 8:45:00 AM 11.73 53.114 0.06 6.84 53.75 10.72
5/4/2021 9:00:00 AM 11.77 53.186 0.06 6.86 30.67 10.75
5/4/2021 9:15:00 AM 11.83 53.294 0.06 6.88 48.99 10.79
5/4/2021 9:30:00 AM 11.95 53.51 0.06 6.91 45.05 10.83
5/4/2021 9:45:00 AM 12.02 53.636 0.06 6.92 28.4 10.86
5/4/2021 10:00:00 AM 12.13 53.834 0.06 6.94 34.38 10.88
5/4/2021 10:15:00 AM 12.2 53.96 0.06 6.96 47.01 10.87
5/4/2021 10:30:00 AM 12.27 54.086 0.06 6.96 35.5 10.86
5/4/2021 10:45:00 AM 12.4 54.32 0.06 6.97 48.1 10.87
5/4/2021 11:00:00 AM 12.54 54.572 0.06 6.98 41.75 10.87
5/4/2021 11:15:00 AM 12.6 54.68 0.06 6.99 27.72 10.86
5/4/2021 11:30:00 AM 12.66 54.788 0.06 7 38.68 10.84
5/4/2021 11:45:00 AM 12.8 55.04 0.06 7 33.61 10.84
5/4/2021 12:00:00 PM 12.91 55.238 0.06 7.02 32.3 10.82
5/4/2021 12:15:00 PM 12.94 55.292 0.06 7.02 46.9 10.81
5/4/2021 12:30:00 PM 12.99 55.382 0.06 7.03 42.6 10.79
5/4/2021 12:45:00 PM 13.04 55.472 0.06 7.03 46.09 10.76
5/4/2021 1:00:00 PM 13.1 55.58 0.06 7.02 26.7 10.74
5/4/2021 1:15:00 PM 13.16 55.688 0.06 7.03 29.56 10.73
5/4/2021 1:30:00 PM 13.22 55.796 0.06 7.04 41.19 10.73
5/4/2021 1:45:00 PM 13.29 55.922 0.06 7.04 29.07 10.72
5/4/2021 2:00:00 PM 13.36 56.048 0.06 7.05 47.59 10.69
5/4/2021 2:15:00 PM 13.38 56.084 0.06 7.03 50.79 10.63
5/4/2021 2:30:00 PM 13.41 56.138 0.06 7.02 25.36 10.61
5/4/2021 2:45:00 PM 13.42 56.156 0.06 7.01 38.48 10.57
5/4/2021 3:00:00 PM 13.43 56.174 0.061 7 36.1 10.53
5/4/2021 3:15:00 PM 13.44 56.192 0.061 6.99 42.94 10.5
5/4/2021 3:30:00 PM 13.49 56.282 0.061 6.98 45.84 10.5
5/4/2021 3:45:00 PM 13.5 56.3 0.061 6.98 36.36 10.47
5/4/2021 4:00:00 PM 13.5 56.3 0.061 6.96 35.01 10.42
5/4/2021 4:15:00 PM 13.5 56.3 0.061 6.97 38.14 10.4
5/4/2021 4:30:00 PM 13.5 56.3 0.061 6.96 58.06 10.38
5/4/2021 4:45:00 PM 13.52 56.336 0.061 6.97 28.17 10.39
5/4/2021 5:00:00 PM 13.52 56.336 0.061 6.96 33 10.39
5/4/2021 5:15:00 PM 13.52 56.336 0.061 6.97 52.21 10.41
5/4/2021 5:30:00 PM 13.53 56.354 0.061 6.97 45.58 10.41
5/4/2021 5:45:00 PM 13.52 56.336 0.062 6.97 33.32 10.39
5/4/2021 6:00:00 PM 13.51 56.318 0.062 6.97 52.12 10.39
5/4/2021 6:15:00 PM 13.53 56.354 0.062 6.97 47.51 10.4
5/4/2021 6:30:00 PM 13.55 56.39 0.062 6.97 36.89 10.41
5/4/2021 6:45:00 PM 13.53 56.354 0.062 6.97 32.8 10.4
5/4/2021 7:00:00 PM 13.52 56.336 0.062 6.97 39.32 10.36
5/4/2021 7:15:00 PM 13.51 56.318 0.062 6.97 44.89 10.33
5/4/2021 7:30:00 PM 13.49 56.282 0.062 6.95 42.48 10.3
5/4/2021 7:45:00 PM 13.45 56.21 0.062 6.93 34.02 10.26
5/4/2021 8:00:00 PM 13.43 56.174 0.062 6.92 46.02 10.23
5/4/2021 8:15:00 PM 13.4 56.12 0.063 6.9 26.82 10.21
5/4/2021 8:30:00 PM 13.37 56.066 0.063 6.9 59.43 10.19
5/4/2021 8:45:00 PM 13.34 56.012 0.063 6.88 37.65 10.17
5/4/2021 9:00:00 PM 13.3 55.94 0.063 6.86 45.52 10.16
5/4/2021 9:15:00 PM 13.26 55.868 0.063 6.85 33.98 10.15
5/4/2021 9:30:00 PM 13.22 55.796 0.063 6.86 45.8 10.15
5/4/2021 9:45:00 PM 13.19 55.742 0.063 6.83 39.8 10.15
5/4/2021 10:00:00 PM 13.15 55.67 0.063 6.85 37.92 10.15
5/4/2021 10:15:00 PM 13.12 55.616 0.063 6.78 45.16 10.16
5/4/2021 10:30:00 PM 13.1 55.58 0.063 6.81 38.52 10.16
5/4/2021 10:45:00 PM 13.07 55.526 0.063 6.79 38.54 10.17
5/4/2021 11:00:00 PM 13.06 55.508 0.063 6.8 41.14 10.16
5/4/2021 11:15:00 PM 13.03 55.454 0.063 6.78 47.35 10.16
5/4/2021 11:30:00 PM 13 55.4 0.063 6.78 39.12 10.16
5/4/2021 11:45:00 PM 12.98 55.364 0.063 6.8 59.77 10.16
5/5/2021 12:00:00 AM 12.95 55.31 0.063 6.77 35.99 10.16
5/5/2021 12:15:00 AM 12.92 55.256 0.063 6.74 39.53 10.17
5/5/2021 12:30:00 AM 12.9 55.22 0.063 6.76 35.01 10.17
5/5/2021 12:45:00 AM 12.87 55.166 0.063 6.78 38.02 10.18
5/5/2021 1:00:00 AM 12.85 55.13 0.063 6.79 61.23 10.19
5/5/2021 1:15:00 AM 12.83 55.094 0.063 6.77 38.19 10.2
5/5/2021 1:30:00 AM 12.81 55.058 0.062 6.78 46.42 10.2
5/5/2021 1:45:00 AM 12.78 55.004 0.062 6.81 40.27 10.21
5/5/2021 2:00:00 AM 12.75 54.95 0.061 6.82 41.93 10.21
5/5/2021 2:15:00 AM 12.73 54.914 0.061 6.84 43.68 10.22
5/5/2021 2:30:00 AM 12.71 54.878 0.061 6.83 41.71 10.22
5/5/2021 2:45:00 AM 12.7 54.86 0.061 6.82 44.65 10.22
5/5/2021 3:00:00 AM 12.69 54.842 0.061 6.84 48.02 10.23
5/5/2021 3:15:00 AM 12.68 54.824 0.061 6.82 44.56 10.23
5/5/2021 3:30:00 AM 12.66 54.788 0.062 6.82 47.17 10.23
5/5/2021 3:45:00 AM 12.65 54.77 0.062 6.8 44.61 10.24
5/5/2021 4:00:00 AM 12.63 54.734 0.063 6.78 46.71 10.25
5/5/2021 4:15:00 AM 12.62 54.716 0.064 6.8 41.32 10.25
5/5/2021 4:30:00 AM 12.6 54.68 0.064 6.8 47.13 10.25
5/5/2021 4:45:00 AM 12.59 54.662 0.065 6.8 45.77 10.26
5/5/2021 5:00:00 AM 12.57 54.626 0.066 6.79 39.84 10.27
5/5/2021 5:15:00 AM 12.56 54.608 0.067 6.81 57.83 10.27
5/5/2021 5:30:00 AM 12.54 54.572 0.068 6.84 343.77 10.27
5/5/2021 5:45:00 AM 12.52 54.536 0.069 6.81 33.46 10.28
5/5/2021 6:00:00 AM 12.5 54.5 0.069 6.8 23.18 10.29
5/5/2021 6:15:00 AM 12.48 54.464 0.07 6.84 20.09 10.3
5/5/2021 6:30:00 AM 12.46 54.428 0.07 6.84 23.69 10.3
5/5/2021 6:45:00 AM 12.44 54.392 0.071 6.86 24.32 10.31
5/5/2021 7:00:00 AM 12.42 54.356 0.072 6.87 22.87 10.33
5/5/2021 7:15:00 AM 12.4 54.32 0.072 6.86 24.83 10.34
5/5/2021 7:30:00 AM 12.38 54.284 0.073 6.86 23.77 10.35
5/5/2021 7:45:00 AM 12.36 54.248 0.073 6.89 24.9 10.37
5/5/2021 8:00:00 AM 12.34 54.212 0.073 6.89 25.58 10.37
5/5/2021 8:15:00 AM 12.32 54.176 0.073 6.89 23.98 10.38
5/5/2021 8:30:00 AM 12.3 54.14 0.074 6.9 25.29 10.4
5/5/2021 8:45:00 AM 12.29 54.122 0.074 6.91 24.38 10.43
5/5/2021 9:00:00 AM 12.28 54.104 0.074 6.92 24.03 10.44
5/5/2021 9:15:00 AM 12.27 54.086 0.073 6.91 24.17 10.46
5/5/2021 9:30:00 AM 12.26 54.068 0.073 6.94 23.48 10.49
5/5/2021 9:45:00 AM 12.26 54.068 0.073 6.9 24.01 10.52
5/5/2021 10:00:00 AM 12.27 54.086 0.073 6.89 23.64 10.56
5/5/2021 10:15:00 AM 12.28 54.104 0.073 6.9 22.51 10.58
5/5/2021 10:30:00 AM 12.27 54.086 0.073 6.91 21.64 10.6
5/5/2021 10:45:00 AM 12.26 54.068 0.073 6.92 20.51 10.6
5/5/2021 11:00:00 AM 12.23 54.014 0.073 6.93 21.78 10.6
5/5/2021 11:15:00 AM 12.2 53.96 0.073 6.94 21.77 10.62
5/5/2021 11:30:00 AM 12.2 53.96 0.073 6.96 20.98 10.66
5/5/2021 11:45:00 AM 12.23 54.014 0.073 6.98 20.91 10.71
5/5/2021 12:00:00 PM 12.27 54.086 0.073 6.99 21.09 10.74
5/5/2021 12:15:00 PM 12.33 54.194 0.074 7.03 21.29 10.78
5/5/2021 12:30:00 PM 12.33 54.194 0.074 6.97 21.35 10.79
5/5/2021 12:45:00 PM 12.33 54.194 0.074 6.98 21.66 10.8
5/5/2021 1:00:00 PM 12.36 54.248 0.074 7 22.09 10.81
5/5/2021 1:15:00 PM 12.4 54.32 0.074 7 21.21 10.82
5/5/2021 1:30:00 PM 12.46 54.428 0.074 7.01 22.45 10.84
5/5/2021 1:45:00 PM 12.48 54.464 0.074 7.02 22.67 10.85
5/5/2021 2:00:00 PM 12.46 54.428 0.074 7.03 21.57 10.85
5/5/2021 2:15:00 PM 12.43 54.374 0.074 7.03 22.13 10.85
5/5/2021 2:30:00 PM 12.41 54.338 0.074 7.04 21.45 10.84
5/5/2021 2:45:00 PM 12.42 54.356 0.074 7.05 21.67 10.86
5/5/2021 3:00:00 PM 12.47 54.446 0.074 7.05 22.3 10.88
5/5/2021 3:15:00 PM 12.61 54.698 0.074 7.05 21.94 10.88
5/5/2021 3:30:00 PM 12.83 55.094 0.074 7.07 21.63 10.89
5/5/2021 3:45:00 PM 12.93 55.274 0.074 7.08 22.66 10.87
5/5/2021 4:00:00 PM 12.89 55.202 0.074 7.08 19.52 10.86
5/5/2021 4:15:00 PM 12.88 55.184 0.074 7.1 22.14 10.85
5/5/2021 4:30:00 PM 12.83 55.094 0.074 7.09 21.69 10.84
5/5/2021 4:45:00 PM 12.82 55.076 0.074 7.06 21.71 10.83
5/5/2021 5:00:00 PM 12.85 55.13 0.074 7.07 22.27 10.81
5/5/2021 5:15:00 PM 12.84 55.112 0.074 7.09 21.81 10.81
5/5/2021 5:30:00 PM 12.82 55.076 0.074 7.1 18.06 10.78
5/5/2021 5:45:00 PM 12.81 55.058 0.073 7.07 18.05 10.77
5/5/2021 6:00:00 PM 12.75 54.95 0.073 7.07 18.52 10.75
5/5/2021 6:15:00 PM 12.68 54.824 0.073 7.06 22.27 10.75
5/5/2021 6:30:00 PM 12.61 54.698 0.073 7.03 17.81 10.73
5/5/2021 6:45:00 PM 12.55 54.59 0.073 7.01 18.03 10.7
5/5/2021 7:00:00 PM 12.51 54.518 0.073 7 17.68 10.67
5/5/2021 7:15:00 PM 12.45 54.41 0.073 7 18.49 10.64
5/5/2021 7:30:00 PM 12.38 54.284 0.065 7 17.76 10.61
5/5/2021 7:45:00 PM 12.31 54.158 0.072 7.04 18.96 10.6
5/5/2021 8:00:00 PM 12.26 54.068 0.072 6.99 18.7 10.58
5/5/2021 8:15:00 PM 12.21 53.978 0.072 6.97 18.03 10.57
5/5/2021 8:30:00 PM 12.14 53.852 0.072 6.95 19.63 10.57
5/5/2021 8:45:00 PM 12.06 53.708 0.072 6.93 19.27 10.57
5/5/2021 9:00:00 PM 11.98 53.564 0.072 6.93 18.94 10.57
5/5/2021 9:15:00 PM 11.87 53.366 0.072 6.93 19.79 10.59
5/5/2021 9:30:00 PM 11.77 53.186 0.072 6.92 19.58 10.61
5/5/2021 9:45:00 PM 11.69 53.042 0.072 6.91 19.89 10.62
5/5/2021 10:00:00 PM 11.6 52.88 0.072 6.9 19.45 10.64
5/5/2021 10:15:00 PM 11.53 52.754 0.072 6.89 19.18 10.65
5/5/2021 10:30:00 PM 11.47 52.646 0.071 6.9 18.88 10.67
5/5/2021 10:45:00 PM 11.41 52.538 0.071 6.89 19.44 10.68
5/5/2021 11:00:00 PM 11.35 52.43 0.071 6.89 17.93 10.69
5/5/2021 11:15:00 PM 11.29 52.322 0.071 6.89 19.31 10.7
5/5/2021 11:30:00 PM 11.24 52.232 0.071 6.89 19.24 10.71
5/5/2021 11:45:00 PM 11.18 52.124 0.071 6.89 19.88 10.73
5/6/2021 12:00:00 AM 11.12 52.016 0.071 6.88 20.19 10.74
5/6/2021 12:15:00 AM 11.07 51.926 0.071 6.92 19.79 10.76
5/6/2021 12:30:00 AM 11.02 51.836 0.071 6.9 19.58 10.76
5/6/2021 12:45:00 AM 10.96 51.728 0.071 6.9 18.89 10.78
5/6/2021 1:00:00 AM 10.9 51.62 0.071 6.91 18.95 10.8
5/6/2021 1:15:00 AM 10.84 51.512 0.071 6.9 19 10.81
5/6/2021 1:30:00 AM 10.79 51.422 0.071 6.86 19.42 10.82
5/6/2021 1:45:00 AM 10.74 51.332 0.071 6.89 18.02 10.85
5/6/2021 2:00:00 AM 10.69 51.242 0.071 6.89 18.56 10.86
5/6/2021 2:15:00 AM 10.65 51.17 0.071 6.89 18.51 10.87
5/6/2021 2:30:00 AM 10.6 51.08 0.071 6.91 18.56 10.89
5/6/2021 2:45:00 AM 10.55 50.99 0.071 6.93 20.75 10.9
5/6/2021 3:00:00 AM 10.49 50.882 0.07 6.89 20.19 10.91
5/6/2021 3:15:00 AM 10.44 50.792 0.07 6.89 19.66 10.93
5/6/2021 3:30:00 AM 10.38 50.684 0.07 6.89 25.43 10.95
5/6/2021 3:45:00 AM 10.33 50.594 0.07 6.89 20.21 10.96
5/6/2021 4:00:00 AM 10.28 50.504 0.07 6.9 20.45 10.98
5/6/2021 4:15:00 AM 10.22 50.396 0.07 6.88 19.98 10.99
5/6/2021 4:30:00 AM 10.16 50.288 0.07 6.89 21.65 11.01
5/6/2021 4:45:00 AM 10.1 50.18 0.07 6.9 19.96 11.03
5/6/2021 5:00:00 AM 10.04 50.072 0.07 6.9 19.93 11.05
5/6/2021 5:15:00 AM 9.97 49.946 0.07 6.91 22.08 11.07
5/6/2021 5:30:00 AM 9.91 49.838 0.07 6.9 18.15 11.09
5/6/2021 5:45:00 AM 9.85 49.73 0.07 6.93 20.14 11.11
5/6/2021 6:00:00 AM 9.77 49.586 0.07 6.93 19.75 11.13
5/6/2021 6:15:00 AM 9.71 49.478 0.07 6.92 21.32 11.15
5/6/2021 6:30:00 AM 9.64 49.352 0.069 6.9 21.35 11.18
5/6/2021 6:45:00 AM 9.58 49.244 0.069 6.91 22.05 11.21
5/6/2021 7:00:00 AM 9.51 49.118 0.069 6.92 21.68 11.25
5/6/2021 7:15:00 AM 9.47 49.046 0.069 6.92 19.66 11.28
5/6/2021 7:30:00 AM 9.43 48.974 0.069 6.94 30.93 11.32
5/6/2021 7:45:00 AM 9.4 48.92 0.069 6.96 19.69 11.36
5/6/2021 8:00:00 AM 9.37 48.866 0.069 6.95 19.97 11.39
5/6/2021 8:15:00 AM 9.37 48.866 0.069 6.96 18.78 11.43
5/6/2021 8:30:00 AM 9.36 48.848 0.068 6.96 22.03 11.46
5/6/2021 8:45:00 AM 9.38 48.884 0.068 6.95 20.25 11.49
5/6/2021 9:00:00 AM 9.4 48.92 0.068 6.96 19.52 11.51
5/6/2021 9:15:00 AM 9.48 49.064 0.068 6.97 25.71 11.55
5/6/2021 9:30:00 AM 9.52 49.136 0.068 6.97 21.49 11.57
5/6/2021 9:45:00 AM 9.62 49.316 0.068 6.98 18.99 11.58
5/6/2021 10:00:00 AM 9.58 49.244 0.068 6.98 19.13 11.59
5/6/2021 10:15:00 AM 9.52 49.136 0.067 6.96 19.84 11.59
5/6/2021 10:30:00 AM 9.52 49.136 0.067 6.97 20.89 11.61
5/6/2021 10:45:00 AM 9.61 49.298 0.067 6.98 22.1 11.62
5/6/2021 11:00:00 AM 9.84 49.712 0.067 6.99 20.73 11.62
5/6/2021 11:15:00 AM 10.18 50.324 0.067 7.02 20.76 11.6
5/6/2021 11:30:00 AM 10.33 50.594 0.067 7.02 17.97 11.57
5/6/2021 11:45:00 AM 10.44 50.792 0.067 7.01 21.36 11.55
5/6/2021 12:00:00 PM 10.58 51.044 0.066 7.01 25.73 11.53
5/6/2021 12:15:00 PM 10.78 51.404 0.066 7.03 21.62 11.49
5/6/2021 12:30:00 PM 10.98 51.764 0.066 7.03 21.38 11.45
5/6/2021 12:45:00 PM 11.03 51.854 0.066 7.02 24.86 11.42
5/6/2021 1:00:00 PM 11.17 52.106 0.066 7.05 22.22 11.42
5/6/2021 1:15:00 PM 11.16 52.088 0.066 7.04 18.44 11.41
5/6/2021 1:30:00 PM 11.12 52.016 0.066 7.04 22.15 11.4
5/6/2021 1:45:00 PM 11.16 52.088 0.066 7.04 22.43 11.4
5/6/2021 2:00:00 PM 11.24 52.232 0.066 7.04 23.55 11.37
5/6/2021 2:15:00 PM 11.35 52.43 0.065 7.05 21.87 11.32
5/6/2021 2:30:00 PM 11.5 52.7 0.065 7.05 22.36 11.27
5/6/2021 2:45:00 PM 11.64 52.952 0.065 7.08 22.99 11.24
5/6/2021 3:00:00 PM 11.74 53.132 0.065 7.07 23.76 11.21
5/6/2021 3:15:00 PM 11.82 53.276 0.065 7.05 23.35 11.19
5/6/2021 3:30:00 PM 11.86 53.348 0.065 7.06 22.13 11.17
5/6/2021 3:45:00 PM 11.92 53.456 0.065 7.07 21.39 11.15
5/6/2021 4:00:00 PM 11.97 53.546 0.065 7.06 23.42 11.15
5/6/2021 4:15:00 PM 11.99 53.582 0.065 7.07 23.19 11.13
5/6/2021 4:30:00 PM 12.07 53.726 0.064 7.05 24.29 11.12
5/6/2021 4:45:00 PM 12.12 53.816 0.064 7.06 23.46 11.1
5/6/2021 5:00:00 PM 12.14 53.852 0.064 7.05 26.6 11.09
5/6/2021 5:15:00 PM 12.17 53.906 0.064 7.05 26.57 11.04
5/6/2021 5:30:00 PM 12.17 53.906 0.064 7.05 23.79 11.02
5/6/2021 5:45:00 PM 12.22 53.996 0.064 7.05 23.93 11
5/6/2021 6:00:00 PM 12.23 54.014 0.064 7.04 25.53 10.97
5/6/2021 6:15:00 PM 12.22 53.996 0.064 7.03 27.56 10.97
5/6/2021 6:30:00 PM 12.22 53.996 0.064 7.02 26.06 10.93
5/6/2021 6:45:00 PM 12.18 53.924 0.064 7.03 21.61 10.91
5/6/2021 7:00:00 PM 12.11 53.798 0.064 7.02 24.55 10.89
5/6/2021 7:15:00 PM 12.06 53.708 0.064 6.99 24.29 10.86
5/6/2021 7:30:00 PM 11.97 53.546 0.064 7 27.94 10.84
5/6/2021 7:45:00 PM 11.88 53.384 0.064 6.97 26.42 10.81
5/6/2021 8:00:00 PM 11.77 53.186 0.064 6.96 24.37 10.79
5/6/2021 8:15:00 PM 11.68 53.024 0.064 6.95 28.11 10.77
5/6/2021 8:30:00 PM 11.58 52.844 0.064 6.94 26.32 10.77
5/6/2021 8:45:00 PM 11.49 52.682 0.064 6.93 39.28 10.76
5/6/2021 9:00:00 PM 11.39 52.502 0.064 6.92 25.54 10.76
5/6/2021 9:15:00 PM 11.3 52.34 0.064 6.9 28.05 10.76
5/6/2021 9:30:00 PM 11.21 52.178 0.064 6.9 22.27 10.77
5/6/2021 9:45:00 PM 11.11 51.998 0.064 6.89 26.21 10.77
5/6/2021 10:00:00 PM 11.02 51.836 0.064 6.9 17.59 10.8
5/6/2021 10:15:00 PM 10.93 51.674 0.064 6.91 20.63 10.8
5/6/2021 10:30:00 PM 10.83 51.494 0.064 6.9 18.43 10.82
5/6/2021 10:45:00 PM 10.74 51.332 0.064 6.88 22.1 10.84
5/6/2021 11:00:00 PM 10.65 51.17 0.064 6.9 17.91 10.86
5/6/2021 11:15:00 PM 10.56 51.008 0.064 6.89 20.15 10.88
5/6/2021 11:30:00 PM 10.47 50.846 0.064 6.89 19.77 10.9
5/6/2021 11:45:00 PM 10.39 50.702 0.064 6.87 21.45 10.92
5/7/2021 12:00:00 AM 10.3 50.54 0.064 6.87 21.15 10.93
5/7/2021 12:15:00 AM 10.22 50.396 0.064 6.87 22.02 10.96
5/7/2021 12:30:00 AM 10.13 50.234 0.063 6.87 20.61 10.98
5/7/2021 12:45:00 AM 10.04 50.072 0.063 6.87 21.67 11.01
5/7/2021 1:00:00 AM 9.96 49.928 0.063 6.88 28.75 11.03
5/7/2021 1:15:00 AM 9.88 49.784 0.063 6.87 21.47 11.05
5/7/2021 1:30:00 AM 9.79 49.622 0.063 6.87 21.95 11.07
5/7/2021 1:45:00 AM 9.72 49.496 0.063 6.87 18.29 11.09
5/7/2021 2:00:00 AM 9.64 49.352 0.063 6.87 23.72 11.11
5/7/2021 2:15:00 AM 9.57 49.226 0.063 6.85 20.32 11.13
5/7/2021 2:30:00 AM 9.5 49.1 0.063 6.86 23.36 11.16
5/7/2021 2:45:00 AM 9.43 48.974 0.063 6.86 22.57 11.18
5/7/2021 3:00:00 AM 9.36 48.848 0.063 6.86 27.29 11.2
5/7/2021 3:15:00 AM 9.29 48.722 0.063 6.86 29.69 11.21
5/7/2021 3:30:00 AM 9.21 48.578 0.063 6.85 22.97 11.23
5/7/2021 3:45:00 AM 9.13 48.434 0.063 6.85 25.54 11.25
5/7/2021 4:00:00 AM 9.05 48.29 0.063 6.86 20.11 11.27
5/7/2021 4:15:00 AM 8.98 48.164 0.063 6.85 19.74 11.3
5/7/2021 4:30:00 AM 8.89 48.002 0.063 6.86 20.59 11.32
5/7/2021 4:45:00 AM 8.81 47.858 0.063 6.85 31.71 11.34
5/7/2021 5:00:00 AM 8.73 47.714 0.063 6.85 29.32 11.36
5/7/2021 5:15:00 AM 8.65 47.57 0.063 6.85 22.72 11.38
5/7/2021 5:30:00 AM 8.57 47.426 0.063 6.85 24.77 11.4
5/7/2021 5:45:00 AM 8.49 47.282 0.063 6.85 27.11 11.43
5/7/2021 6:00:00 AM 8.41 47.138 0.063 6.85 23.1 11.45
5/7/2021 6:15:00 AM 8.35 47.03 0.063 6.85 20.09 11.48
5/7/2021 6:30:00 AM 8.29 46.922 0.063 6.85 26 11.5
5/7/2021 6:45:00 AM 8.24 46.832 0.062 6.85 25.26 11.54
5/7/2021 7:00:00 AM 8.19 46.742 0.062 6.86 23.17 11.57
5/7/2021 7:15:00 AM 8.15 46.67 0.062 6.86 20.55 11.61
5/7/2021 7:30:00 AM 8.13 46.634 0.062 6.87 25.52 11.65
5/7/2021 7:45:00 AM 8.11 46.598 0.062 6.87 31.64 11.69
5/7/2021 8:00:00 AM 8.09 46.562 0.062 6.88 23.7 11.73
5/7/2021 8:15:00 AM 8.09 46.562 0.062 6.89 26.38 11.76
5/7/2021 8:30:00 AM 8.09 46.562 0.062 6.9 26.11 11.8
5/7/2021 8:45:00 AM 8.14 46.652 0.062 6.9 21.82 11.83
5/7/2021 9:00:00 AM 8.18 46.724 0.062 6.91 26.75 11.86
5/7/2021 9:15:00 AM 8.24 46.832 0.062 6.91 25.62 11.88
5/7/2021 9:30:00 AM 8.35 47.03 0.062 6.92 26.93 11.89
5/7/2021 9:45:00 AM 8.43 47.174 0.062 6.93 26.73 11.9
5/7/2021 10:00:00 AM 8.49 47.282 0.061 6.93 19.8 11.89
5/7/2021 10:15:00 AM 8.57 47.426 0.061 6.95 21.91 11.89
5/7/2021 10:30:00 AM 8.61 47.498 0.061 6.95 22.97 11.88
5/7/2021 10:45:00 AM 8.64 47.552 0.061 6.96 18.87 11.88
5/7/2021 11:00:00 AM 8.68 47.624 0.061 6.95 26.86 11.88
5/7/2021 11:15:00 AM 8.73 47.714 0.061 6.95 28.3 11.87
5/7/2021 11:30:00 AM 8.79 47.822 0.061 6.98 20.76 11.86
5/7/2021 11:45:00 AM 8.83 47.894 0.061 6.98 27.1 11.85
5/7/2021 12:00:00 PM 8.9 48.02 0.061 6.97 25.66 11.84
5/7/2021 12:15:00 PM 9.03 48.254 0.061 6.98 27.29 11.83
5/7/2021 12:30:00 PM 9.12 48.416 0.061 6.98 29.09 11.81
5/7/2021 12:45:00 PM 9.18 48.524 0.061 6.99 18.92 11.79
5/7/2021 1:00:00 PM 9.23 48.614 0.061 6.99 19.95 11.77
5/7/2021 1:15:00 PM 9.28 48.704 0.061 6.99 21.87 11.74
5/7/2021 1:30:00 PM 9.29 48.722 0.061 6.99 18.93 11.71
5/7/2021 1:45:00 PM 9.3 48.74 0.061 6.99 26.33 11.69
5/7/2021 2:00:00 PM 9.29 48.722 0.061 6.98 23.66 11.66
5/7/2021 2:15:00 PM 9.3 48.74 0.061 6.98 19.19 11.65
5/7/2021 2:30:00 PM 9.29 48.722 0.06 6.98 24.28 11.63
5/7/2021 2:45:00 PM 9.27 48.686 0.06 6.98 22.96 11.62
5/7/2021 3:00:00 PM 9.26 48.668 0.06 6.97 22.33 11.61
5/7/2021 3:15:00 PM 9.28 48.704 0.06 6.97 25.21 11.62
5/7/2021 3:30:00 PM 9.28 48.704 0.06 6.97 22.18 11.62
5/7/2021 3:45:00 PM 9.29 48.722 0.06 6.97 26.16 11.62
5/7/2021 4:00:00 PM 9.29 48.722 0.06 6.97 21.92 11.62
5/7/2021 4:15:00 PM 9.27 48.686 0.06 6.97 23.7 11.59
5/7/2021 4:30:00 PM 9.25 48.65 0.06 6.96 37.46 11.58
5/7/2021 4:45:00 PM 9.21 48.578 0.059 6.95 37.89 11.55
5/7/2021 5:00:00 PM 9.18 48.524 0.059 6.94 25.89 11.53
5/7/2021 5:15:00 PM 9.16 48.488 0.059 6.94 28.25 11.54
5/7/2021 5:30:00 PM 9.16 48.488 0.059 6.94 21.03 11.55
5/7/2021 5:45:00 PM 9.15 48.47 0.059 6.94 24.99 11.56
5/7/2021 6:00:00 PM 9.14 48.452 0.059 6.94 30.83 11.56
5/7/2021 6:15:00 PM 9.14 48.452 0.059 6.94 25.98 11.57
5/7/2021 6:30:00 PM 9.13 48.434 0.059 6.95 24.9 11.55
5/7/2021 6:45:00 PM 9.11 48.398 0.06 6.93 24.01 11.53
5/7/2021 7:00:00 PM 9.1 48.38 0.059 6.93 31.98 11.53
5/7/2021 7:15:00 PM 9.09 48.362 0.059 6.93 27.23 11.52
5/7/2021 7:30:00 PM 9.07 48.326 0.06 6.92 33.06 11.51
5/7/2021 7:45:00 PM 9.05 48.29 0.06 6.92 41.02 11.48
5/7/2021 8:00:00 PM 9.03 48.254 0.06 6.91 20.17 11.46
5/7/2021 8:15:00 PM 9.01 48.218 0.06 6.91 26.04 11.44
5/7/2021 8:30:00 PM 8.99 48.182 0.06 6.9 31.19 11.43
5/7/2021 8:45:00 PM 8.97 48.146 0.06 6.89 25.77 11.42
5/7/2021 9:00:00 PM 8.94 48.092 0.06 6.88 24.39 11.41
5/7/2021 9:15:00 PM 8.92 48.056 0.06 6.88 23.4 11.41
5/7/2021 9:30:00 PM 8.9 48.02 0.06 6.88 24.92 11.4
5/7/2021 9:45:00 PM 8.87 47.966 0.06 6.88 23.37 11.4
5/7/2021 10:00:00 PM 8.85 47.93 0.06 6.87 25.7 11.39
5/7/2021 10:15:00 PM 8.83 47.894 0.06 6.87 34.78 11.4
5/7/2021 10:30:00 PM 8.8 47.84 0.06 6.87 23.96 11.4
5/7/2021 10:45:00 PM 8.78 47.804 0.06 6.86 31.62 11.4
5/7/2021 11:00:00 PM 8.76 47.768 0.06 6.87 30.31 11.41
5/7/2021 11:15:00 PM 8.73 47.714 0.06 6.87 27.66 11.4
5/7/2021 11:30:00 PM 8.69 47.642 0.06 6.87 25.85 11.41
5/7/2021 11:45:00 PM 8.67 47.606 0.06 6.86 23.56 11.42
5/8/2021 12:00:00 AM 8.64 47.552 0.06 6.87 23.25 11.42
5/8/2021 12:15:00 AM 8.6 47.48 0.06 6.86 24.88 11.42
5/8/2021 12:30:00 AM 8.56 47.408 0.06 6.85 25.64 11.43
5/8/2021 12:45:00 AM 8.51 47.318 0.06 6.86 25.74 11.45
5/8/2021 1:00:00 AM 8.47 47.246 0.06 6.86 20.98 11.46
5/8/2021 1:15:00 AM 8.43 47.174 0.06 6.86 25.66 11.47
5/8/2021 1:30:00 AM 8.39 47.102 0.06 6.85 24.48 11.47
5/8/2021 1:45:00 AM 8.34 47.012 0.06 6.85 23.85 11.49
5/8/2021 2:00:00 AM 8.31 46.958 0.06 6.86 22.07 11.5
5/8/2021 2:15:00 AM 8.27 46.886 0.06 6.86 24.55 11.51
5/8/2021 2:30:00 AM 8.24 46.832 0.06 6.86 24.36 11.52
5/8/2021 2:45:00 AM 8.21 46.778 0.06 6.86 35.91 11.52
5/8/2021 3:00:00 AM 8.18 46.724 0.06 6.85 25.56 11.53
5/8/2021 3:15:00 AM 8.15 46.67 0.06 6.85 29.7 11.54
5/8/2021 3:30:00 AM 8.12 46.616 0.06 6.85 24.92 11.55
5/8/2021 3:45:00 AM 8.1 46.58 0.06 6.85 24.32 11.56
5/8/2021 4:00:00 AM 8.08 46.544 0.06 6.85 26.21 11.56
5/8/2021 4:15:00 AM 8.05 46.49 0.06 6.85 25.03 11.57
5/8/2021 4:30:00 AM 8.02 46.436 0.06 6.85 22.78 11.57
5/8/2021 4:45:00 AM 7.99 46.382 0.06 6.85 24.62 11.59
5/8/2021 5:00:00 AM 7.95 46.31 0.06 6.85 24.15 11.6
5/8/2021 5:15:00 AM 7.92 46.256 0.06 6.84 23.81 11.6
5/8/2021 5:30:00 AM 7.89 46.202 0.06 6.85 27.17 11.62
5/8/2021 5:45:00 AM 7.86 46.148 0.06 6.85 37.64 11.63
5/8/2021 6:00:00 AM 7.83 46.094 0.06 6.85 25.8 11.64
5/8/2021 6:15:00 AM 7.79 46.022 0.06 6.84 25.66 11.65
5/8/2021 6:30:00 AM 7.77 45.986 0.061 6.85 28.37 11.67
5/8/2021 6:45:00 AM 7.74 45.932 0.061 6.85 26.1 11.69
5/8/2021 7:00:00 AM 7.71 45.878 0.061 6.85 39.46 11.72
5/8/2021 7:15:00 AM 7.69 45.842 0.061 6.85 26.03 11.74
5/8/2021 7:30:00 AM 7.67 45.806 0.061 6.86 26.32 11.77
5/8/2021 7:45:00 AM 7.66 45.788 0.061 6.87 27.21 11.8
5/8/2021 8:00:00 AM 7.66 45.788 0.061 6.88 23.99 11.84
5/8/2021 8:15:00 AM 7.67 45.806 0.061 6.88 26.76 11.87
5/8/2021 8:30:00 AM 7.69 45.842 0.061 6.89 42.23 11.9
5/8/2021 8:45:00 AM 7.74 45.932 0.061 6.89 24.24 11.93
5/8/2021 9:00:00 AM 7.79 46.022 0.061 6.91 33.49 11.96
5/8/2021 9:15:00 AM 7.83 46.094 0.061 6.92 40.01 11.97
5/8/2021 9:30:00 AM 7.88 46.184 0.061 6.93 25.92 11.99
5/8/2021 9:45:00 AM 7.97 46.346 0.061 6.93 26.86 12
5/8/2021 10:00:00 AM 8.03 46.454 0.061 6.94 23.59 12
5/8/2021 10:15:00 AM 8.12 46.616 0.062 6.95 33.55 12.01
5/8/2021 10:30:00 AM 8.12 46.616 0.062 6.95 38.54 11.99
5/8/2021 10:45:00 AM 8.13 46.634 0.062 6.95 26.73 11.98
5/8/2021 11:00:00 AM 8.13 46.634 0.062 6.95 41.74 11.96
5/8/2021 11:15:00 AM 8.11 46.598 0.062 6.95 35.03 11.94
5/8/2021 11:30:00 AM 8.16 46.688 0.062 6.95 29.22 11.95
5/8/2021 11:45:00 AM 8.18 46.724 0.062 6.96 24.78 11.95
5/8/2021 12:00:00 PM 8.28 46.904 0.062 6.97 25.11 11.96
5/8/2021 12:15:00 PM 8.37 47.066 0.062 6.97 34.79 11.96
5/8/2021 12:30:00 PM 8.43 47.174 0.062 6.97 25.9 11.96
5/8/2021 12:45:00 PM 8.6 47.48 0.062 6.97 25.55 11.94
5/8/2021 1:00:00 PM 8.58 47.444 0.062 6.97 23.06 11.91
5/8/2021 1:15:00 PM 8.69 47.642 0.062 6.97 25.06 11.89
5/8/2021 1:30:00 PM 8.89 48.002 0.062 6.98 29.05 11.86
5/8/2021 1:45:00 PM 8.77 47.786 0.062 6.97 32.88 11.82
5/8/2021 2:00:00 PM 8.79 47.822 0.062 6.97 38.59 11.81
5/8/2021 2:15:00 PM 8.63 47.534 0.062 6.96 33.61 11.78
5/8/2021 2:30:00 PM 8.71 47.678 0.062 6.95 40.98 11.76
5/8/2021 2:45:00 PM 8.88 47.984 0.062 6.96 38.01 11.76
5/8/2021 3:00:00 PM 9.03 48.254 0.062 6.96 29.4 11.75
5/8/2021 3:15:00 PM 9.26 48.668 0.062 6.96 24.44 11.75
5/8/2021 3:30:00 PM 9.52 49.136 0.062 6.97 40.71 11.71
5/8/2021 3:45:00 PM 9.53 49.154 0.062 6.97 24.89 11.65
5/8/2021 4:00:00 PM 9.71 49.478 0.062 6.97 41.87 11.61
5/8/2021 4:15:00 PM 9.86 49.748 0.062 6.97 37.5 11.56
5/8/2021 4:30:00 PM 9.96 49.928 0.062 6.98 29.5 11.53
5/8/2021 4:45:00 PM 10.06 50.108 0.062 6.98 36.93 11.51
5/8/2021 5:00:00 PM 10.16 50.288 0.062 6.98 37.39 11.5
5/8/2021 5:15:00 PM 10.21 50.378 0.062 6.98 45.08 11.5
5/8/2021 5:30:00 PM 10.27 50.486 0.062 6.98 33.68 11.47
5/8/2021 5:45:00 PM 10.31 50.558 0.062 6.98 30.33 11.45
5/8/2021 6:00:00 PM 10.37 50.666 0.062 6.98 36.06 11.43
5/8/2021 6:15:00 PM 10.38 50.684 0.062 6.98 37.84 11.41
5/8/2021 6:30:00 PM 10.3 50.54 0.062 6.97 45.53 11.39
5/8/2021 6:45:00 PM 10.22 50.396 0.062 6.97 26.49 11.37
5/8/2021 7:00:00 PM 10.15 50.27 0.062 6.96 41.48 11.36
5/8/2021 7:15:00 PM 10.06 50.108 0.062 6.95 42.22 11.36
5/8/2021 7:30:00 PM 9.98 49.964 0.062 6.94 36.3 11.35
5/8/2021 7:45:00 PM 9.89 49.802 0.062 6.94 41.78 11.35
5/8/2021 8:00:00 PM 9.79 49.622 0.062 6.93 40.66 11.34
5/8/2021 8:15:00 PM 9.7 49.46 0.062 6.93 41.32 11.32
5/8/2021 8:30:00 PM 9.62 49.316 0.062 6.91 33.86 11.32
5/8/2021 8:45:00 PM 9.54 49.172 0.062 6.91 36.35 11.31
5/8/2021 9:00:00 PM 9.47 49.046 0.062 6.9 34.19 11.31
5/8/2021 9:15:00 PM 9.4 48.92 0.062 6.89 39.4 11.31
5/8/2021 9:30:00 PM 9.32 48.776 0.062 6.88 47.89 11.32
5/8/2021 9:45:00 PM 9.24 48.632 0.062 6.88 31.6 11.32
5/8/2021 10:00:00 PM 9.16 48.488 0.062 6.87 46.61 11.34
5/8/2021 10:15:00 PM 9.09 48.362 0.062 6.86 40.99 11.34
5/8/2021 10:30:00 PM 9.03 48.254 0.062 6.87 43.85 11.36
5/8/2021 10:45:00 PM 8.96 48.128 0.062 6.86 43.24 11.37
5/8/2021 11:00:00 PM 8.89 48.002 0.062 6.85 38.58 11.4
5/8/2021 11:15:00 PM 8.82 47.876 0.062 6.85 43.6 11.41
5/8/2021 11:30:00 PM 8.75 47.75 0.062 6.85 38.05 11.43
5/8/2021 11:45:00 PM 8.68 47.624 0.062 6.85 37.05 11.44
5/9/2021 12:00:00 AM 8.61 47.498 0.062 6.85 49.83 11.46
5/9/2021 12:15:00 AM 8.54 47.372 0.062 6.85 44.93 11.48
5/9/2021 12:30:00 AM 8.47 47.246 0.062 6.85 41.09 11.5
5/9/2021 12:45:00 AM 8.4 47.12 0.062 6.84 33.68 11.52
5/9/2021 1:00:00 AM 8.34 47.012 0.062 6.84 45.3 11.53
5/9/2021 1:15:00 AM 8.27 46.886 0.062 6.85 39.63 11.55
5/9/2021 1:30:00 AM 8.2 46.76 0.063 6.84 33.35 11.57
5/9/2021 1:45:00 AM 8.13 46.634 0.063 6.84 47.71 11.59
5/9/2021 2:00:00 AM 8.07 46.526 0.063 6.83 44.31 11.61
5/9/2021 2:15:00 AM 8.01 46.418 0.063 6.84 34.4 11.62
5/9/2021 2:30:00 AM 7.95 46.31 0.063 6.84 45.16 11.64
5/9/2021 2:45:00 AM 7.88 46.184 0.063 6.84 33.41 11.66
5/9/2021 3:00:00 AM 7.82 46.076 0.063 6.84 36.99 11.68
5/9/2021 3:15:00 AM 7.76 45.968 0.063 6.84 37.19 11.7
5/9/2021 3:30:00 AM 7.69 45.842 0.063 6.84 21.56 11.72
5/9/2021 3:45:00 AM 7.63 45.734 0.063 6.84 47.1 11.74
5/9/2021 4:00:00 AM 7.57 45.626 0.063 6.85 31.48 11.77
5/9/2021 4:15:00 AM 7.51 45.518 0.063 6.85 41.76 11.79
5/9/2021 4:30:00 AM 7.46 45.428 0.063 6.84 35.8 11.8
5/9/2021 4:45:00 AM 7.41 45.338 0.063 6.84 34.2 11.82
5/9/2021 5:00:00 AM 7.35 45.23 0.063 6.84 35.13 11.84
5/9/2021 5:15:00 AM 7.3 45.14 0.063 6.84 32.82 11.87
5/9/2021 5:30:00 AM 7.25 45.05 0.063 6.84 31.08 11.88
5/9/2021 5:45:00 AM 7.2 44.96 0.063 6.84 36.73 11.9
5/9/2021 6:00:00 AM 7.15 44.87 0.063 6.84 35.99 11.92
5/9/2021 6:15:00 AM 7.1 44.78 0.063 6.84 31.25 11.94
5/9/2021 6:30:00 AM 7.06 44.708 0.063 6.84 43.59 11.97
5/9/2021 6:45:00 AM 7.03 44.654 0.063 6.85 36.78 12
5/9/2021 7:00:00 AM 6.99 44.582 0.063 6.85 38.74 12.03
5/9/2021 7:15:00 AM 6.97 44.546 0.063 6.86 42.62 12.07
5/9/2021 7:30:00 AM 6.96 44.528 0.063 6.87 43.49 12.11
5/9/2021 7:45:00 AM 6.94 44.492 0.063 6.88 38.86 12.14
5/9/2021 8:00:00 AM 6.95 44.51 0.063 6.88 35.21 12.18
5/9/2021 8:15:00 AM 6.96 44.528 0.063 6.89 42.64 12.22
5/9/2021 8:30:00 AM 7 44.6 0.063 6.9 37.56 12.24
5/9/2021 8:45:00 AM 7.02 44.636 0.063 6.91 28.87 12.26
5/9/2021 9:00:00 AM 7.06 44.708 0.063 6.92 40.63 12.28
5/9/2021 9:15:00 AM 7.11 44.798 0.063 6.92 37.46 12.29
5/9/2021 9:30:00 AM 7.16 44.888 0.063 6.93 29.35 12.29
5/9/2021 9:45:00 AM 7.19 44.942 0.063 6.93 25.48 12.29
5/9/2021 10:00:00 AM 7.24 45.032 0.063 6.94 32.75 12.29
5/9/2021 10:15:00 AM 7.28 45.104 0.063 6.94 42.45 12.28
5/9/2021 10:30:00 AM 7.31 45.158 0.063 6.94 42.18 12.27
5/9/2021 10:45:00 AM 7.35 45.23 0.063 6.94 25.27 12.27
5/9/2021 11:00:00 AM 7.39 45.302 0.063 6.95 37 12.25
5/9/2021 11:15:00 AM 7.43 45.374 0.063 6.95 38.59 12.25
5/9/2021 11:30:00 AM 7.46 45.428 0.063 6.96 32.81 12.23
5/9/2021 11:45:00 AM 7.48 45.464 0.063 6.95 47.1 12.22
5/9/2021 12:00:00 PM 7.49 45.482 0.063 6.96 35.3 12.21
5/9/2021 12:15:00 PM 7.49 45.482 0.062 6.96 39.83 12.19
5/9/2021 12:30:00 PM 7.5 45.5 0.062 6.95 33.05 12.19
5/9/2021 12:45:00 PM 7.48 45.464 0.062 6.96 26.38 12.17
5/9/2021 1:00:00 PM 7.47 45.446 0.062 6.95 39.67 12.16
5/9/2021 1:15:00 PM 7.44 45.392 0.062 6.94 28.24 12.14
5/9/2021 1:30:00 PM 7.42 45.356 0.062 6.94 43.59 12.14
5/9/2021 1:45:00 PM 7.39 45.302 0.062 6.95 34.1 12.14
5/9/2021 2:00:00 PM 7.33 45.194 0.062 6.94 32.37 12.14
5/9/2021 2:15:00 PM 7.3 45.14 0.062 6.94 33.21 12.13
5/9/2021 2:30:00 PM 7.24 45.032 0.062 6.94 31.87 12.13
5/9/2021 2:45:00 PM 7.15 44.87 0.062 6.93 36.23 12.12
5/9/2021 3:00:00 PM 6.98 44.564 0.062 6.93 52.89 12.11
5/9/2021 3:15:00 PM 6.83 44.294 0.062 6.93 27.15 12.11
5/9/2021 3:30:00 PM 6.67 44.006 0.062 6.92 32.27 12.12
5/9/2021 3:45:00 PM 6.54 43.772 0.062 6.92 30.79 12.15
5/9/2021 4:00:00 PM 6.46 43.628 0.062 6.91 47.81 12.17
5/9/2021 4:15:00 PM 6.38 43.484 0.062 6.91 41.22 12.19
5/9/2021 4:30:00 PM 6.34 43.412 0.062 6.9 41.67 12.21
5/9/2021 4:45:00 PM 6.32 43.376 0.062 6.9 28.27 12.22
5/9/2021 5:00:00 PM 6.3 43.34 0.062 6.9 30.54 12.22
5/9/2021 5:15:00 PM 6.27 43.286 0.062 6.89 43.69 12.22
5/9/2021 5:30:00 PM 6.25 43.25 0.062 6.89 29.47 12.23
5/9/2021 5:45:00 PM 6.23 43.214 0.062 6.88 32.66 12.22
5/9/2021 6:00:00 PM 6.22 43.196 0.062 6.88 32.65 12.21
5/9/2021 6:15:00 PM 6.21 43.178 0.062 6.86 33.84 12.21
5/9/2021 6:30:00 PM 6.2 43.16 0.062 6.87 35.2 12.2
5/9/2021 6:45:00 PM 6.19 43.142 0.062 6.85 34.08 12.18
5/9/2021 7:00:00 PM 6.19 43.142 0.062 6.86 36.11 12.16
5/9/2021 7:15:00 PM 6.18 43.124 0.063 6.82 36.01 12.15
5/9/2021 7:30:00 PM 6.17 43.106 0.063 6.81 36.56 12.14
5/9/2021 7:45:00 PM 6.16 43.088 0.063 6.81 37.15 12.13
5/9/2021 8:00:00 PM 6.15 43.07 0.063 6.8 44.28 12.12
5/9/2021 8:15:00 PM 6.13 43.034 0.063 6.81 63.55 12.12
5/9/2021 8:30:00 PM 6.12 43.016 0.063 6.79 57.45 12.12
5/9/2021 8:45:00 PM 6.11 42.998 0.064 6.79 61.44 12.11
5/9/2021 9:00:00 PM 6.11 42.998 0.064 6.76 54.3 12.1
5/9/2021 9:15:00 PM 6.1 42.98 0.065 6.74 60.43 12.09
5/9/2021 9:30:00 PM 6.09 42.962 0.066 6.73 54.38 12.09
5/9/2021 9:45:00 PM 6.08 42.944 0.066 6.74 65.64 12.09
5/9/2021 10:00:00 PM 6.07 42.926 0.066 6.73 71.22 12.09
5/9/2021 10:15:00 PM 6.04 42.872 0.065 6.78 98.57 12.07
5/9/2021 10:30:00 PM 6.02 42.836 0.065 6.77 109.24 12.08
5/9/2021 10:45:00 PM 5.99 42.782 0.064 6.83 101.29 12.09
5/9/2021 11:00:00 PM 5.96 42.728 0.062 6.76 112.56 12.11
5/9/2021 11:15:00 PM 5.94 42.692 0.061 6.71 121.51 12.11
5/9/2021 11:30:00 PM 5.95 42.71 0.061 6.68 135.81 12.11
5/9/2021 11:45:00 PM 5.95 42.71 0.062 6.44 150.34 12.11
5/10/2021 12:00:00 AM 5.96 42.728 0.063 6.43 136.96 12.09
5/10/2021 12:15:00 AM 5.97 42.746 0.066 6.43 166.62 12.09
5/10/2021 12:30:00 AM 5.98 42.764 0.067 6.42 153.34 12.08
5/10/2021 12:45:00 AM 5.99 42.782 0.068 6.53 160.19 12.09
5/10/2021 1:00:00 AM 6.01 42.818 0.069 6.64 166.79 12.09
5/10/2021 1:15:00 AM 6.02 42.836 0.068 6.56 138.47 12.09
5/10/2021 1:30:00 AM 6.04 42.872 0.068 6.46 171.26 12.09
5/10/2021 1:45:00 AM 6.06 42.908 0.068 6.49 146.77 12.1
5/10/2021 2:00:00 AM 6.08 42.944 0.068 6.56 145.72 12.1
5/10/2021 2:15:00 AM 6.1 42.98 0.068 6.63 131.66 12.1
5/10/2021 2:30:00 AM 6.12 43.016 0.068 6.66 121.64 12.1
5/10/2021 2:45:00 AM 6.14 43.052 0.068 6.71 110.61 12.1
5/10/2021 3:00:00 AM 6.16 43.088 0.068 6.72 109.29 12.09
5/10/2021 3:15:00 AM 6.18 43.124 0.067 6.78 103.73 12.09
5/10/2021 3:30:00 AM 6.19 43.142 0.067 6.74 92.71 12.09
5/10/2021 3:45:00 AM 6.21 43.178 0.067 6.73 90.75 12.09
5/10/2021 4:00:00 AM 6.22 43.196 0.066 6.72 82.57 12.09
5/10/2021 4:15:00 AM 6.24 43.232 0.066 6.72 80.8 12.09
5/10/2021 4:30:00 AM 6.25 43.25 0.065 6.73 72.71 12.09
5/10/2021 4:45:00 AM 6.27 43.286 0.065 6.72 72.92 12.09
5/10/2021 5:00:00 AM 6.29 43.322 0.064 6.73 60.99 12.09
5/10/2021 5:15:00 AM 6.31 43.358 0.064 6.73 58.21 12.09
5/10/2021 5:30:00 AM 6.32 43.376 0.064 6.72 63.68 12.08
5/10/2021 5:45:00 AM 6.34 43.412 0.064 6.72 61.16 12.08
5/10/2021 6:00:00 AM 6.35 43.43 0.063 6.73 59.89 12.08
5/10/2021 6:15:00 AM 6.37 43.466 0.063 6.72 56.65 12.08
5/10/2021 6:30:00 AM 6.38 43.484 0.063 6.72 54.61 12.07
5/10/2021 6:45:00 AM 6.39 43.502 0.063 6.71 55.07 12.07
5/10/2021 7:00:00 AM 6.4 43.52 0.062 6.72 57.04 12.08
5/10/2021 7:15:00 AM 6.41 43.538 0.062 6.72 51.86 12.08
5/10/2021 7:30:00 AM 6.44 43.592 0.062 6.71 52.93 12.08
5/10/2021 7:45:00 AM 6.45 43.61 0.061 6.72 46.08 12.08
5/10/2021 8:00:00 AM 6.48 43.664 0.061 6.72 49.71 12.08
5/10/2021 8:15:00 AM 6.52 43.736 0.061 6.72 48.25 12.09
5/10/2021 8:30:00 AM 6.58 43.844 0.061 6.74 47.96 12.09
5/10/2021 8:45:00 AM 6.63 43.934 0.061 6.73 49.5 12.09
5/10/2021 9:00:00 AM 6.67 44.006 0.06 6.72 45.61 12.09
5/10/2021 9:15:00 AM 6.74 44.132 0.06 6.73 40.71 12.09
5/10/2021 9:30:00 AM 6.83 44.294 0.06 6.72 46.53 12.09
5/10/2021 9:45:00 AM 6.9 44.42 0.06 6.72 44.6 12.09
5/10/2021 10:00:00 AM 6.98 44.564 0.059 6.72 40.38 12.09
5/10/2021 10:15:00 AM 7.08 44.744 0.059 6.73 39.33 12.09
5/10/2021 10:30:00 AM 7.18 44.924 0.059 6.73 44.74 12.07
5/10/2021 10:45:00 AM 7.3 45.14 0.058 6.72 37.88 12.06
5/10/2021 11:00:00 AM 7.37 45.266 0.058 6.74 38.8 12.05
5/10/2021 11:15:00 AM 7.49 45.482 0.058 6.72 36.36 12.03
5/10/2021 11:30:00 AM 7.54 45.572 0.057 6.72 36.16 12.01
5/10/2021 11:45:00 AM 7.59 45.662 0.057 6.72 41.07 11.99
5/10/2021 12:00:00 PM 7.66 45.788 0.057 6.72 34.28 11.99
5/10/2021 12:15:00 PM 7.82 46.076 0.057 6.72 32.89 11.97
5/10/2021 12:30:00 PM 7.9 46.22 0.056 6.72 30.15 11.95
5/10/2021 12:45:00 PM 8.05 46.49 0.056 6.72 30.26 11.93
5/10/2021 1:00:00 PM 8.1 46.58 0.056 6.73 33.04 11.91
5/10/2021 1:15:00 PM 8.22 46.796 0.056 6.73 42.63 11.88
5/10/2021 1:30:00 PM 8.36 47.048 0.056 6.73 31.41 11.86
5/10/2021 1:45:00 PM 8.39 47.102 0.056 6.72 31.09 11.84
5/10/2021 2:00:00 PM 8.51 47.318 0.055 6.71 29.16 11.83
5/10/2021 2:15:00 PM 8.71 47.678 0.055 6.72 30.77 11.81
5/10/2021 2:30:00 PM 8.77 47.786 0.055 6.72 28.69 11.77
5/10/2021 2:45:00 PM 8.82 47.876 0.055 6.72 29.93 11.75
5/10/2021 3:00:00 PM 8.91 48.038 0.055 6.72 30.91 11.72
5/10/2021 3:15:00 PM 9.01 48.218 0.055 6.73 30.45 11.7
5/10/2021 3:30:00 PM 9.01 48.218 0.054 6.73 26.74 11.69
5/10/2021 3:45:00 PM 9.02 48.236 0.054 6.72 26.09 11.68
5/10/2021 4:00:00 PM 9.12 48.416 0.054 6.73 30.06 11.67
5/10/2021 4:15:00 PM 9.2 48.56 0.054 6.72 27.71 11.65
5/10/2021 4:30:00 PM 9.27 48.686 0.054 6.72 29.76 11.64
5/10/2021 4:45:00 PM 9.32 48.776 0.054 6.73 26.49 11.62
5/10/2021 5:00:00 PM 9.31 48.758 0.054 6.72 29.43 11.6
5/10/2021 5:15:00 PM 9.33 48.794 0.054 6.71 25.84 11.59
5/10/2021 5:30:00 PM 9.35 48.83 0.053 6.72 26.34 11.57
5/10/2021 5:45:00 PM 9.38 48.884 0.053 6.72 28.41 11.56
5/10/2021 6:00:00 PM 9.39 48.902 0.053 6.72 28.73 11.55
5/10/2021 6:15:00 PM 9.37 48.866 0.053 6.72 28.37 11.53
5/10/2021 6:30:00 PM 9.35 48.83 0.053 6.72 29.63 11.52
5/10/2021 6:45:00 PM 9.34 48.812 0.053 6.71 31.09 11.5
5/10/2021 7:00:00 PM 9.33 48.794 0.053 6.71 30 11.48
5/10/2021 7:15:00 PM 9.3 48.74 0.053 6.7 27.97 11.47
5/10/2021 7:30:00 PM 9.27 48.686 0.053 6.71 27.83 11.45
5/10/2021 7:45:00 PM 9.22 48.596 0.053 6.69 29.31 11.44
5/10/2021 8:00:00 PM 9.18 48.524 0.053 6.68 27.45 11.44
5/10/2021 8:15:00 PM 9.13 48.434 0.053 6.69 31.33 11.43
5/10/2021 8:30:00 PM 9.09 48.362 0.053 6.68 27.67 11.43
5/10/2021 8:45:00 PM 9.04 48.272 0.053 6.67 27.89 11.43
5/10/2021 9:00:00 PM 8.99 48.182 0.052 6.66 26.59 11.43
5/10/2021 9:15:00 PM 8.94 48.092 0.052 6.66 27.78 11.44
5/10/2021 9:30:00 PM 8.89 48.002 0.052 6.66 26.93 11.45
5/10/2021 9:45:00 PM 8.83 47.894 0.052 6.65 25.26 11.46
5/10/2021 10:00:00 PM 8.78 47.804 0.052 6.65 27.74 11.46
5/10/2021 10:15:00 PM 8.73 47.714 0.052 6.61 26.16 11.48
5/10/2021 10:30:00 PM 8.69 47.642 0.052 6.64 29.84 11.48
5/10/2021 10:45:00 PM 8.64 47.552 0.052 6.64 29.41 11.49
5/10/2021 11:00:00 PM 8.6 47.48 0.052 6.64 27.19 11.5
5/10/2021 11:15:00 PM 8.55 47.39 0.052 6.62 26.98 11.5
5/10/2021 11:30:00 PM 8.5 47.3 0.052 6.64 25.08 11.52
5/10/2021 11:45:00 PM 8.46 47.228 0.052 6.64 24.31 11.53
5/11/2021 12:00:00 AM 8.41 47.138 0.052 6.64 24.65 11.54
5/11/2021 12:15:00 AM 8.37 47.066 0.052 6.64 26.58 11.55
5/11/2021 12:30:00 AM 8.32 46.976 0.052 6.63 27.23 11.56
5/11/2021 12:45:00 AM 8.27 46.886 0.052 6.63 28.44 11.58
5/11/2021 1:00:00 AM 8.22 46.796 0.052 6.63 26.66 11.6
5/11/2021 1:15:00 AM 8.17 46.706 0.051 6.63 27.7 11.61
5/11/2021 1:30:00 AM 8.12 46.616 0.051 6.63 25.94 11.62
5/11/2021 1:45:00 AM 8.07 46.526 0.051 6.64 26.29 11.64
5/11/2021 2:00:00 AM 8.02 46.436 0.051 6.63 23.71 11.66
5/11/2021 2:15:00 AM 7.97 46.346 0.051 6.63 24.57 11.68
5/11/2021 2:30:00 AM 7.93 46.274 0.051 6.63 24.18 11.69
5/11/2021 2:45:00 AM 7.9 46.22 0.051 6.63 25.06 11.7
5/11/2021 3:00:00 AM 7.86 46.148 0.051 6.62 25.19 11.71
5/11/2021 3:15:00 AM 7.82 46.076 0.051 6.63 22.06 11.72
5/11/2021 3:30:00 AM 7.78 46.004 0.051 6.61 23.83 11.74
5/11/2021 3:45:00 AM 7.74 45.932 0.051 6.63 24.38 11.75
5/11/2021 4:00:00 AM 7.69 45.842 0.051 6.63 24.78 11.76
5/11/2021 4:15:00 AM 7.64 45.752 0.051 6.63 25.96 11.78
5/11/2021 4:30:00 AM 7.59 45.662 0.051 6.63 24.59 11.79
5/11/2021 4:45:00 AM 7.54 45.572 0.051 6.59 23.67 11.81
5/11/2021 5:00:00 AM 7.49 45.482 0.051 6.66 21.32 11.82
5/11/2021 5:15:00 AM 7.45 45.41 0.051 6.64 21.24 11.83
5/11/2021 5:30:00 AM 7.4 45.32 0.051 6.63 17.92 11.85
5/11/2021 5:45:00 AM 7.36 45.248 0.051 6.64 20.07 11.86
5/11/2021 6:00:00 AM 7.32 45.176 0.051 6.65 20.23 11.88
5/11/2021 6:15:00 AM 7.28 45.104 0.051 6.64 24.06 11.89
5/11/2021 6:30:00 AM 7.24 45.032 0.051 6.65 21.15 11.91
5/11/2021 6:45:00 AM 7.2 44.96 0.051 6.64 21.36 11.94
5/11/2021 7:00:00 AM 7.18 44.924 0.051 6.65 20.78 11.96
5/11/2021 7:15:00 AM 7.16 44.888 0.051 6.64 21.4 11.98
5/11/2021 7:30:00 AM 7.14 44.852 0.051 6.63 20.64 12
5/11/2021 7:45:00 AM 7.14 44.852 0.051 6.65 19.22 12.02
5/11/2021 8:00:00 AM 7.14 44.852 0.051 6.66 21.09 12.04
5/11/2021 8:15:00 AM 7.15 44.87 0.051 6.66 22.94 12.06
5/11/2021 8:30:00 AM 7.17 44.906 0.051 6.66 19.51 12.05
5/11/2021 8:45:00 AM 7.19 44.942 0.051 6.66 21.48 12.08
5/11/2021 9:00:00 AM 7.23 45.014 0.051 6.67 20.43 12.09
5/11/2021 9:15:00 AM 7.28 45.104 0.051 6.67 20.68 12.1
5/11/2021 9:30:00 AM 7.35 45.23 0.05 6.68 20.08 12.11
5/11/2021 9:45:00 AM 7.42 45.356 0.05 6.68 19.58 12.11
5/11/2021 10:00:00 AM 7.51 45.518 0.05 6.63 16.39 12.11
5/11/2021 10:15:00 AM 7.53 45.554 0.05 6.66 15.98 12.1
5/11/2021 10:30:00 AM 7.56 45.608 0.05 6.65 15.58 12.09
5/11/2021 10:45:00 AM 7.63 45.734 0.05 6.64 15.66 12.08
5/11/2021 11:00:00 AM 7.71 45.878 0.05 6.64 14.5 12.07
5/11/2021 11:15:00 AM 7.84 46.112 0.05 6.64 15.39 12.06
5/11/2021 11:30:00 AM 7.94 46.292 0.05 6.64 14.71 12.05
5/11/2021 11:45:00 AM 8.08 46.544 0.05 6.64 15.04 12.03
5/11/2021 12:00:00 PM 8.09 46.562 0.05 6.65 14.83 12.01
5/11/2021 12:15:00 PM 8.24 46.832 0.05 6.65 14.15 11.99
5/11/2021 12:30:00 PM 8.41 47.138 0.05 6.65 14.44 11.96
5/11/2021 12:45:00 PM 8.59 47.462 0.05 6.64 14.02 11.93
5/11/2021 1:00:00 PM 8.81 47.858 0.05 6.65 14.14 11.89
5/11/2021 1:15:00 PM 8.9 48.02 0.05 6.65 14.25 11.87
5/11/2021 1:30:00 PM 9.09 48.362 0.05 6.66 13.76 11.84
5/11/2021 1:45:00 PM 9.15 48.47 0.05 6.68 14.04 11.8
5/11/2021 2:00:00 PM 9.3 48.74 0.05 6.67 14.17 11.78
5/11/2021 2:15:00 PM 9.31 48.758 0.05 6.67 13.69 11.74
5/11/2021 2:30:00 PM 9.5 49.1 0.05 6.67 13.76 11.71
5/11/2021 2:45:00 PM 9.63 49.334 0.05 6.68 13.43 11.68
5/11/2021 3:00:00 PM 9.74 49.532 0.05 6.69 13.49 11.65
5/11/2021 3:15:00 PM 9.85 49.73 0.05 6.68 14.03 11.62
5/11/2021 3:30:00 PM 9.83 49.694 0.05 6.69 14.14 11.6
5/11/2021 3:45:00 PM 9.84 49.712 0.05 6.69 13.59 11.57
5/11/2021 4:00:00 PM 9.89 49.802 0.05 6.69 13.92 11.55
5/11/2021 4:15:00 PM 10 50 0.05 6.69 14.08 11.53
5/11/2021 4:30:00 PM 10.06 50.108 0.05 6.69 14.17 11.51
5/11/2021 4:45:00 PM 10.14 50.252 0.05 6.69 14.47 11.49
5/11/2021 5:00:00 PM 10.13 50.234 0.05 6.69 14.12 11.48
5/11/2021 5:15:00 PM 10.11 50.198 0.05 6.68 14.38 11.47
5/11/2021 5:30:00 PM 10.12 50.216 0.05 6.69 14.5 11.46
5/11/2021 5:45:00 PM 10.13 50.234 0.05 6.7 14.3 11.45
5/11/2021 6:00:00 PM 10.06 50.108 0.05 6.7 14.17 11.43
5/11/2021 6:15:00 PM 9.97 49.946 0.05 6.7 14.28 11.42
5/11/2021 6:30:00 PM 9.9 49.82 0.05 6.69 14.2 11.41
5/11/2021 6:45:00 PM 9.85 49.73 0.05 6.7 14.09 11.41
5/11/2021 7:00:00 PM 9.79 49.622 0.05 6.69 14.15 11.4
5/11/2021 7:15:00 PM 9.75 49.55 0.05 6.69 14.3 11.4
5/11/2021 7:30:00 PM 9.71 49.478 0.05 6.67 13.97 11.39
5/11/2021 7:45:00 PM 9.68 49.424 0.05 6.73 14.73 11.38
5/11/2021 8:00:00 PM 9.63 49.334 0.05 6.71 15.12 11.37
5/11/2021 8:15:00 PM 9.57 49.226 0.05 6.7 14.78 11.36
5/11/2021 8:30:00 PM 9.51 49.118 0.05 6.69 15.23 11.35
5/11/2021 8:45:00 PM 9.47 49.046 0.05 6.68 15.25 11.35
5/11/2021 9:00:00 PM 9.42 48.956 0.05 6.66 15.37 11.36
5/11/2021 9:15:00 PM 9.36 48.848 0.05 6.66 15.9 11.36
5/11/2021 9:30:00 PM 9.31 48.758 0.05 6.65 17.87 11.37
5/11/2021 9:45:00 PM 9.24 48.632 0.05 6.65 16.27 11.38
5/11/2021 10:00:00 PM 9.17 48.506 0.05 6.65 15.63 11.39
5/11/2021 10:15:00 PM 9.1 48.38 0.05 6.64 16.29 11.4
5/11/2021 10:30:00 PM 9.03 48.254 0.05 6.64 15.82 11.42
5/11/2021 10:45:00 PM 8.96 48.128 0.05 6.64 14.94 11.44
5/11/2021 11:00:00 PM 8.88 47.984 0.051 6.64 15.27 11.45
5/11/2021 11:15:00 PM 8.8 47.84 0.051 6.63 15.91 11.48
5/11/2021 11:30:00 PM 8.72 47.696 0.051 6.64 17.41 11.5
5/11/2021 11:45:00 PM 8.64 47.552 0.051 6.63 16.57 11.52
5/12/2021 12:00:00 AM 8.55 47.39 0.051 6.63 16.83 11.54
5/12/2021 12:15:00 AM 8.47 47.246 0.051 6.63 16.64 11.57
5/12/2021 12:30:00 AM 8.39 47.102 0.051 6.63 17.98 11.59
5/12/2021 12:45:00 AM 8.32 46.976 0.051 6.63 16.36 11.62
5/12/2021 1:00:00 AM 8.24 46.832 0.051 6.63 16.86 11.64
5/12/2021 1:15:00 AM 8.15 46.67 0.051 6.64 16.29 11.66
5/12/2021 1:30:00 AM 8.07 46.526 0.051 6.62 16.41 11.68
5/12/2021 1:45:00 AM 7.99 46.382 0.051 6.62 18.48 11.71
5/12/2021 2:00:00 AM 7.91 46.238 0.051 6.64 15.71 11.73
5/12/2021 2:15:00 AM 7.83 46.094 0.051 6.63 15.76 11.75
5/12/2021 2:30:00 AM 7.76 45.968 0.051 6.64 15.86 11.77
5/12/2021 2:45:00 AM 7.7 45.86 0.051 6.68 15.39 11.8
5/12/2021 3:00:00 AM 7.64 45.752 0.051 6.68 15.27 11.82
5/12/2021 3:15:00 AM 7.58 45.644 0.051 6.66 15.61 11.84
5/12/2021 3:30:00 AM 7.53 45.554 0.051 6.67 16.58 11.86
5/12/2021 3:45:00 AM 7.48 45.464 0.051 6.65 15.23 11.87
5/12/2021 4:00:00 AM 7.43 45.374 0.051 6.65 16 11.89
5/12/2021 4:15:00 AM 7.38 45.284 0.051 6.66 15.74 11.91
5/12/2021 4:30:00 AM 7.32 45.176 0.051 6.65 15.6 11.93
5/12/2021 4:45:00 AM 7.26 45.068 0.051 6.66 15.39 11.94
5/12/2021 5:00:00 AM 7.2 44.96 0.051 6.67 15.58 11.96
5/12/2021 5:15:00 AM 7.14 44.852 0.051 6.61 14.1 11.98
5/12/2021 5:30:00 AM 7.08 44.744 0.051 6.61 14.92 11.99
5/12/2021 5:45:00 AM 7.03 44.654 0.051 6.61 14.65 12.01
5/12/2021 6:00:00 AM 6.97 44.546 0.051 6.61 14.42 12.03
5/12/2021 6:15:00 AM 6.91 44.438 0.051 6.61 15.09 12.06
5/12/2021 6:30:00 AM 6.86 44.348 0.051 6.62 14.75 12.08
5/12/2021 6:45:00 AM 6.81 44.258 0.051 6.62 14.76 12.11
5/12/2021 7:00:00 AM 6.77 44.186 0.051 6.62 15.21 12.14
5/12/2021 7:15:00 AM 6.75 44.15 0.051 6.63 15.14 12.17
5/12/2021 7:30:00 AM 6.72 44.096 0.051 6.65 16.29 12.2
5/12/2021 7:45:00 AM 6.71 44.078 0.051 6.64 15.46 12.22
5/12/2021 8:00:00 AM 6.7 44.06 0.051 6.66 15.14 12.24
5/12/2021 8:15:00 AM 6.71 44.078 0.051 6.66 15.94 12.28
5/12/2021 8:30:00 AM 6.73 44.114 0.051 6.67 14.89 12.29
5/12/2021 8:45:00 AM 6.78 44.204 0.051 6.67 15.96 12.31
5/12/2021 9:00:00 AM 6.8 44.24 0.051 6.63 11.37 12.33
5/12/2021 9:15:00 AM 6.84 44.312 0.051 6.64 11.31 12.34
5/12/2021 9:30:00 AM 6.91 44.438 0.051 6.64 11.4 12.35
5/12/2021 9:45:00 AM 7.01 44.618 0.051 6.62 11.28 12.34
5/12/2021 10:00:00 AM 7.11 44.798 0.051 6.62 11.39 12.34
5/12/2021 10:15:00 AM 7.23 45.014 0.051 6.61 11.37 12.33
5/12/2021 10:30:00 AM 7.35 45.23 0.051 6.61 11.35 12.31
5/12/2021 10:45:00 AM 7.48 45.464 0.051 6.6 11.57 12.3
5/12/2021 11:00:00 AM 7.62 45.716 0.051 6.6 11.38 12.29
5/12/2021 11:15:00 AM 7.79 46.022 0.051 6.61 11.25 12.26
5/12/2021 11:30:00 AM 7.96 46.328 0.051 6.62 11.29 12.22
5/12/2021 11:45:00 AM 8.16 46.688 0.051 6.62 11.41 12.19
5/12/2021 12:00:00 PM 8.32 46.976 0.051 6.62 11.25 12.15
5/12/2021 12:15:00 PM 8.51 47.318 0.052 6.63 11.28 12.1
5/12/2021 12:30:00 PM 8.72 47.696 0.052 6.63 10.96 12.06
5/12/2021 12:45:00 PM 8.72 47.696 0.052 6.63 11.2 12.01
5/12/2021 1:00:00 PM 8.84 47.912 0.052 6.65 11.04 11.98
5/12/2021 1:15:00 PM 9.03 48.254 0.052 6.65 11.41 11.93
5/12/2021 1:30:00 PM 9.09 48.362 0.052 6.65 11.51 11.9
5/12/2021 1:45:00 PM 9.26 48.668 0.052 6.65 11.13 11.86
5/12/2021 2:00:00 PM 9.3 48.74 0.052 6.66 11.24 11.83
5/12/2021 2:15:00 PM 9.37 48.866 0.052 6.66 12.08 11.81
5/12/2021 2:30:00 PM 9.44 48.992 0.052 6.67 11.4 11.79
5/12/2021 2:45:00 PM 9.5 49.1 0.052 6.67 11.37 11.77
5/12/2021 3:00:00 PM 9.58 49.244 0.052 6.68 11.2 11.75
5/12/2021 3:15:00 PM 9.77 49.586 0.052 6.69 11.07 11.72
5/12/2021 3:30:00 PM 9.9 49.82 0.052 6.69 11.14 11.69
5/12/2021 3:45:00 PM 10.05 50.09 0.052 6.69 11.22 11.65
5/12/2021 4:00:00 PM 10.13 50.234 0.052 6.69 11.09 11.62
5/12/2021 4:15:00 PM 10.39 50.702 0.052 6.69 11.19 11.58
5/12/2021 4:30:00 PM 10.5 50.9 0.052 6.69 11.32 11.54
5/12/2021 4:45:00 PM 10.41 50.738 0.052 6.68 11.43 11.51
5/12/2021 5:00:00 PM 10.41 50.738 0.052 6.68 11.59 11.49
5/12/2021 5:15:00 PM 10.51 50.918 0.052 6.68 11.61 11.47
5/12/2021 5:30:00 PM 10.49 50.882 0.052 6.68 11.69 11.43
5/12/2021 5:45:00 PM 10.49 50.882 0.052 6.69 12.62 11.41
5/12/2021 6:00:00 PM 10.45 50.81 0.052 6.69 10.95 11.4
5/12/2021 6:15:00 PM 10.38 50.684 0.052 6.69 10.96 11.39
5/12/2021 6:30:00 PM 10.3 50.54 0.052 6.69 11.21 11.39
5/12/2021 6:45:00 PM 10.21 50.378 0.052 6.69 11.04 11.38
5/12/2021 7:00:00 PM 10.14 50.252 0.052 6.68 11.25 11.39
5/12/2021 7:15:00 PM 10.07 50.126 0.052 6.68 11.42 11.39
5/12/2021 7:30:00 PM 10 50 0.052 6.68 11.52 11.39
5/12/2021 7:45:00 PM 9.93 49.874 0.052 6.68 11.27 11.38
5/12/2021 8:00:00 PM 9.88 49.784 0.052 6.66 11.15 11.36
5/12/2021 8:15:00 PM 9.83 49.694 0.052 6.65 11.12 11.35
5/12/2021 8:30:00 PM 9.79 49.622 0.052 6.64 10.82 11.34
5/12/2021 8:45:00 PM 9.76 49.568 0.052 6.65 10.95 11.33
5/12/2021 9:00:00 PM 9.73 49.514 0.053 6.64 11.07 11.33
5/12/2021 9:15:00 PM 9.7 49.46 0.053 6.64 11.19 11.32
5/12/2021 9:30:00 PM 9.67 49.406 0.053 6.64 12.69 11.31
5/12/2021 9:45:00 PM 9.64 49.352 0.053 6.63 11.25 11.31
5/12/2021 10:00:00 PM 9.62 49.316 0.053 6.63 12.48 11.31
5/12/2021 10:15:00 PM 9.59 49.262 0.053 6.63 13.07 11.31
5/12/2021 10:30:00 PM 9.56 49.208 0.053 6.62 13.29 11.31
5/12/2021 10:45:00 PM 9.53 49.154 0.053 6.63 14.06 11.31
5/12/2021 11:00:00 PM 9.48 49.064 0.053 6.63 12.81 11.32
5/12/2021 11:15:00 PM 9.43 48.974 0.053 6.63 12.89 11.33
5/12/2021 11:30:00 PM 9.36 48.848 0.053 6.62 12.27 11.35
5/12/2021 11:45:00 PM 9.29 48.722 0.053 6.62 12.91 11.37
5/13/2021 12:00:00 AM 9.2 48.56 0.053 6.62 14.04 11.39
5/13/2021 12:15:00 AM 9.12 48.416 0.053 6.62 13.14 11.41
5/13/2021 12:30:00 AM 9.03 48.254 0.053 6.63 12.49 11.43
5/13/2021 12:45:00 AM 8.94 48.092 0.053 6.63 12.82 11.46
5/13/2021 1:00:00 AM 8.85 47.93 0.053 6.63 12.99 11.49
5/13/2021 1:15:00 AM 8.76 47.768 0.054 6.63 12.85 11.52
5/13/2021 1:30:00 AM 8.67 47.606 0.054 6.63 13.06 11.54
5/13/2021 1:45:00 AM 8.59 47.462 0.054 6.63 13.13 11.56
5/13/2021 2:00:00 AM 8.5 47.3 0.054 6.63 12.83 11.59
5/13/2021 2:15:00 AM 8.41 47.138 0.054 6.62 13 11.61
5/13/2021 2:30:00 AM 8.33 46.994 0.054 6.63 12.61 11.64
5/13/2021 2:45:00 AM 8.24 46.832 0.054 6.62 12.24 11.66
5/13/2021 3:00:00 AM 8.16 46.688 0.054 6.63 13.54 11.69
5/13/2021 3:15:00 AM 8.07 46.526 0.054 6.63 12.15 11.71
5/13/2021 3:30:00 AM 7.99 46.382 0.054 6.63 12.48 11.74
5/13/2021 3:45:00 AM 7.9 46.22 0.054 6.63 12.54 11.76
5/13/2021 4:00:00 AM 7.82 46.076 0.054 6.63 12.45 11.79
5/13/2021 4:15:00 AM 7.74 45.932 0.054 6.63 12.45 11.81
5/13/2021 4:30:00 AM 7.66 45.788 0.054 6.62 12.04 11.83
5/13/2021 4:45:00 AM 7.58 45.644 0.054 6.62 12.12 11.86
5/13/2021 5:00:00 AM 7.51 45.518 0.054 6.63 13.04 11.89
5/13/2021 5:15:00 AM 7.43 45.374 0.054 6.63 12.84 11.91
5/13/2021 5:30:00 AM 7.36 45.248 0.054 6.63 13.12 11.93
5/13/2021 5:45:00 AM 7.29 45.122 0.054 6.63 11.73 11.95
5/13/2021 6:00:00 AM 7.22 44.996 0.054 6.64 11.83 11.97
5/13/2021 6:15:00 AM 7.15 44.87 0.054 6.64 12.07 12
5/13/2021 6:30:00 AM 7.09 44.762 0.054 6.64 12.43 12.03
5/13/2021 6:45:00 AM 7.03 44.654 0.054 6.64 12.22 12.06
5/13/2021 7:00:00 AM 6.98 44.564 0.054 6.64 12.51 12.09
5/13/2021 7:15:00 AM 6.94 44.492 0.055 6.65 12.42 12.12
5/13/2021 7:30:00 AM 6.91 44.438 0.055 6.65 13.19 12.15
5/13/2021 7:45:00 AM 6.9 44.42 0.055 6.66 12.64 12.18
5/13/2021 8:00:00 AM 6.89 44.402 0.055 6.67 12.48 12.21
5/13/2021 8:15:00 AM 6.9 44.42 0.055 6.67 12.17 12.24
5/13/2021 8:30:00 AM 6.91 44.438 0.055 6.67 12.35 12.25
5/13/2021 8:45:00 AM 6.94 44.492 0.055 6.67 11.97 12.28
5/13/2021 9:00:00 AM 6.99 44.582 0.055 6.76 13.36 12.29
5/13/2021 9:15:00 AM 7.05 44.69 0.055 6.75 13.38 12.3
5/13/2021 9:30:00 AM 7.13 44.834 0.055 6.73 12.66 12.3
5/13/2021 9:45:00 AM 7.22 44.996 0.055 6.73 13.06 12.3
5/13/2021 10:00:00 AM 7.33 45.194 0.055 6.75 13.39 12.3
5/13/2021 10:15:00 AM 7.45 45.41 0.055 6.77 13.9 12.3
5/13/2021 10:30:00 AM 7.59 45.662 0.055 6.77 13.85 12.28
5/13/2021 10:45:00 AM 7.69 45.842 0.055 6.77 14.13 12.26
5/13/2021 11:00:00 AM 7.88 46.184 0.055 6.77 12.21 12.24
5/13/2021 11:15:00 AM 7.9 46.22 0.055 6.77 11.77 12.21
5/13/2021 11:30:00 AM 7.93 46.274 0.055 6.76 11.55 12.19
5/13/2021 11:45:00 AM 7.96 46.328 0.055 6.77 12.16 12.18
5/13/2021 12:00:00 PM 8.09 46.562 0.055 6.76 13.45 12.15
5/13/2021 12:15:00 PM 8.37 47.066 0.055 6.7 10.02 12.12
5/13/2021 12:30:00 PM 8.52 47.336 0.055 6.69 10.28 12.08
5/13/2021 12:45:00 PM 8.76 47.768 0.055 6.69 9.9 12.02
5/13/2021 1:00:00 PM 8.92 48.056 0.055 6.68 9.73 11.97
5/13/2021 1:15:00 PM 9.05 48.29 0.055 6.68 9.76 11.93
5/13/2021 1:30:00 PM 9.18 48.524 0.055 6.68 9.88 11.88
5/13/2021 1:45:00 PM 9.23 48.614 0.055 6.69 9.14 11.86
5/13/2021 2:00:00 PM 9.35 48.83 0.055 6.69 9.19 11.83
5/13/2021 2:15:00 PM 9.38 48.884 0.055 6.68 9.47 11.79
5/13/2021 2:30:00 PM 9.37 48.866 0.055 6.77 28.35 11.78
5/13/2021 2:45:00 PM 9.44 48.992 0.055 6.79 9.3 11.76
5/13/2021 3:00:00 PM 9.55 49.19 0.056 6.73 11.38 11.74
5/13/2021 3:15:00 PM 9.55 49.19 0.056 6.73 9.87 11.71
5/13/2021 3:30:00 PM 9.69 49.442 0.056 6.74 11.49 11.69
5/13/2021 3:45:00 PM 9.74 49.532 0.056 6.74 9.7 11.65
5/13/2021 4:00:00 PM 9.81 49.658 0.056 6.74 9.72 11.63
5/13/2021 4:15:00 PM 9.86 49.748 0.056 6.75 9.46 11.62
5/13/2021 4:30:00 PM 9.92 49.856 0.056 6.75 10.1 11.61
5/13/2021 4:45:00 PM 10.01 50.018 0.056 6.75 11.01 11.6
5/13/2021 5:00:00 PM 9.95 49.91 0.056 6.75 11.51 11.59
5/13/2021 5:15:00 PM 9.97 49.946 0.056 6.74 9.84 11.59
5/13/2021 5:30:00 PM 10.05 50.09 0.056 6.74 9.91 11.58
5/13/2021 5:45:00 PM 10.08 50.144 0.056 6.74 10.01 11.57
5/13/2021 6:00:00 PM 10.1 50.18 0.056 6.75 10.08 11.56
5/13/2021 6:15:00 PM 10.07 50.126 0.056 6.76 9.68 11.53
5/13/2021 6:30:00 PM 10.05 50.09 0.056 6.75 10.16 11.5
5/13/2021 6:45:00 PM 10.04 50.072 0.056 6.75 9.63 11.48
5/13/2021 7:00:00 PM 10 50 0.056 6.74 11.48 11.45
5/13/2021 7:15:00 PM 9.98 49.964 0.056 6.73 9.7 11.44
5/13/2021 7:30:00 PM 9.97 49.946 0.056 6.73 9.76 11.41
5/13/2021 7:45:00 PM 9.95 49.91 0.056 6.72 10.23 11.39
5/13/2021 8:00:00 PM 9.93 49.874 0.056 6.71 10.1 11.37
5/13/2021 8:15:00 PM 9.9 49.82 0.056 6.7 9.63 11.36
5/13/2021 8:30:00 PM 9.86 49.748 0.056 6.7 10.44 11.34
5/13/2021 8:45:00 PM 9.82 49.676 0.056 6.68 9.81 11.33
5/13/2021 9:00:00 PM 9.77 49.586 0.056 6.68 10.44 11.32
5/13/2021 9:15:00 PM 9.72 49.496 0.056 6.68 11.1 11.32
5/13/2021 9:30:00 PM 9.66 49.388 0.056 6.66 10.3 11.33
5/13/2021 9:45:00 PM 9.6 49.28 0.057 6.66 10.12 11.33
5/13/2021 10:00:00 PM 9.53 49.154 0.057 6.65 10 11.34
5/13/2021 10:15:00 PM 9.47 49.046 0.057 6.66 10.76 11.35
5/13/2021 10:30:00 PM 9.41 48.938 0.057 6.66 10.97 11.37
5/13/2021 10:45:00 PM 9.35 48.83 0.057 6.66 10.4 11.38
5/13/2021 11:00:00 PM 9.29 48.722 0.057 6.66 10.7 11.39
5/13/2021 11:15:00 PM 9.24 48.632 0.057 6.66 10.8 11.4
5/13/2021 11:30:00 PM 9.18 48.524 0.057 6.65 10.24 11.41
5/13/2021 11:45:00 PM 9.13 48.434 0.057 6.65 10.35 11.42
5/14/2021 12:00:00 AM 9.08 48.344 0.057 6.66 12.35 11.44
5/14/2021 12:15:00 AM 9.03 48.254 0.057 6.64 11.81 11.45
5/14/2021 12:30:00 AM 8.97 48.146 0.057 6.66 12 11.46
5/14/2021 12:45:00 AM 8.92 48.056 0.057 6.65 10.54 11.48
5/14/2021 1:00:00 AM 8.86 47.948 0.057 6.65 11.47 11.49
5/14/2021 1:15:00 AM 8.81 47.858 0.057 6.65 11.42 11.5
5/14/2021 1:30:00 AM 8.76 47.768 0.057 6.65 10.32 11.51
5/14/2021 1:45:00 AM 8.71 47.678 0.058 6.62 9.71 11.53
5/14/2021 2:00:00 AM 8.66 47.588 0.058 6.65 11.88 11.54
5/14/2021 2:15:00 AM 8.61 47.498 0.058 6.65 11.82 11.54
5/14/2021 2:30:00 AM 8.56 47.408 0.058 6.64 11.28 11.57
5/14/2021 2:45:00 AM 8.5 47.3 0.058 6.64 11.06 11.57
5/14/2021 3:00:00 AM 8.44 47.192 0.058 6.65 10.92 11.6
5/14/2021 3:15:00 AM 8.38 47.084 0.058 6.65 10.66 11.6
5/14/2021 3:30:00 AM 8.32 46.976 0.058 6.65 10.55 11.63
5/14/2021 3:45:00 AM 8.26 46.868 0.058 6.66 11.36 11.63
5/14/2021 4:00:00 AM 8.2 46.76 0.058 6.66 12.37 11.67
5/14/2021 4:15:00 AM 8.13 46.634 0.058 6.66 11.95 11.69
5/14/2021 4:30:00 AM 8.07 46.526 0.058 6.66 10.81 11.71
5/14/2021 4:45:00 AM 8 46.4 0.058 6.67 10.12 11.72
5/14/2021 5:00:00 AM 7.94 46.292 0.058 6.66 10.27 11.73
5/14/2021 5:15:00 AM 7.87 46.166 0.058 6.66 10.19 11.75
5/14/2021 5:30:00 AM 7.8 46.04 0.058 6.67 10.11 11.79
5/14/2021 5:45:00 AM 7.73 45.914 0.058 6.67 10.97 11.81
5/14/2021 6:00:00 AM 7.67 45.806 0.058 6.67 9.95 11.82
5/14/2021 6:15:00 AM 7.6 45.68 0.058 6.67 9.84 11.86
5/14/2021 6:30:00 AM 7.54 45.572 0.058 6.67 10.67 11.89
5/14/2021 6:45:00 AM 7.49 45.482 0.058 6.68 11.84 11.92
5/14/2021 7:00:00 AM 7.45 45.41 0.058 6.68 10.15 11.95
5/14/2021 7:15:00 AM 7.41 45.338 0.058 6.69 10.01 11.99
5/14/2021 7:30:00 AM 7.39 45.302 0.058 6.7 9.96 12.02
5/14/2021 7:45:00 AM 7.39 45.302 0.058 6.7 10.36 12.05
5/14/2021 8:00:00 AM 7.39 45.302 0.058 6.71 9.61 12.08
5/14/2021 8:15:00 AM 7.41 45.338 0.058 6.72 10.47 12.1
5/14/2021 8:30:00 AM 7.45 45.41 0.059 6.72 10.26 12.12
5/14/2021 8:45:00 AM 7.49 45.482 0.059 6.71 11.09 12.14
5/14/2021 9:00:00 AM 7.55 45.59 0.059 6.72 9.6 12.15
5/14/2021 9:15:00 AM 7.63 45.734 0.059 6.72 11.2 12.16
5/14/2021 9:30:00 AM 7.72 45.896 0.059 6.73 9.67 12.16
5/14/2021 9:45:00 AM 7.83 46.094 0.059 6.74 10.38 12.16
5/14/2021 10:00:00 AM 7.95 46.31 0.059 6.75 9.83 12.15
5/14/2021 10:15:00 AM 8.09 46.562 0.059 6.75 9.85 12.14
5/14/2021 10:30:00 AM 8.25 46.85 0.059 6.76 10.9 12.13
5/14/2021 10:45:00 AM 8.4 47.12 0.059 6.76 9.78 12.1
5/14/2021 11:00:00 AM 8.6 47.48 0.059 6.76 10.04 12.08
5/14/2021 11:15:00 AM 8.79 47.822 0.059 6.76 10.13 12.04
5/14/2021 11:30:00 AM 8.99 48.182 0.059 6.76 9.85 12.01
5/14/2021 11:45:00 AM 9.21 48.578 0.059 6.77 10.11 11.96
5/14/2021 12:00:00 PM 9.44 48.992 0.059 6.78 9.18 11.92
5/14/2021 12:15:00 PM 9.68 49.424 0.059 6.79 11.21 11.88
5/14/2021 12:30:00 PM 9.94 49.892 0.059 6.79 10.48 11.82
5/14/2021 12:45:00 PM 10.21 50.378 0.059 6.79 10.26 11.75
5/14/2021 1:00:00 PM 10.5 50.9 0.059 6.79 10.04 11.69
5/14/2021 1:15:00 PM 10.77 51.386 0.059 6.8 9.16 11.63
5/14/2021 1:30:00 PM 10.94 51.692 0.059 6.8 9.95 11.57
5/14/2021 1:45:00 PM 10.99 51.782 0.059 6.8 9.06 11.52
5/14/2021 2:00:00 PM 11.06 51.908 0.059 6.81 9.07 11.46
5/14/2021 2:15:00 PM 11.33 52.394 0.059 6.81 9.59 11.41
5/14/2021 2:30:00 PM 11.52 52.736 0.059 6.81 10 11.34
5/14/2021 2:45:00 PM 11.67 53.006 0.059 6.82 10.02 11.28
5/14/2021 3:00:00 PM 11.84 53.312 0.059 6.82 9.15 11.22
5/14/2021 3:15:00 PM 11.96 53.528 0.059 6.82 9.64 11.18
5/14/2021 3:30:00 PM 12.09 53.762 0.059 6.83 10.14 11.17
5/14/2021 3:45:00 PM 12.07 53.726 0.059 6.83 9.74 11.16
5/14/2021 4:00:00 PM 12.15 53.87 0.059 6.82 10.58 11.16
5/14/2021 4:15:00 PM 12.18 53.924 0.059 6.83 10.67 11.13
5/14/2021 4:30:00 PM 12.01 53.618 0.059 6.82 9.67 11.13
5/14/2021 4:45:00 PM 12.03 53.654 0.059 6.82 10.09 11.13
5/14/2021 5:00:00 PM 11.96 53.528 0.059 6.82 9.57 11.1
5/14/2021 5:15:00 PM 11.96 53.528 0.059 6.82 11.13 11.08
5/14/2021 5:30:00 PM 12.01 53.618 0.06 6.81 9.48 11.06
5/14/2021 5:45:00 PM 12.06 53.708 0.059 6.82 11.72 11.03
5/14/2021 6:00:00 PM 12.01 53.618 0.06 6.81 10.83 11.01
5/14/2021 6:15:00 PM 11.96 53.528 0.06 6.8 10.44 10.98
5/14/2021 6:30:00 PM 11.89 53.402 0.06 6.79 11.41 10.96
5/14/2021 6:45:00 PM 11.86 53.348 0.06 6.78 12.07 10.93
5/14/2021 7:00:00 PM 11.84 53.312 0.06 6.78 11.97 10.92
5/14/2021 7:15:00 PM 11.84 53.312 0.06 6.78 10.55 10.89
5/14/2021 7:30:00 PM 11.86 53.348 0.06 6.78 10.06 10.87
5/14/2021 7:45:00 PM 11.87 53.366 0.06 6.76 9.87 10.84
5/14/2021 8:00:00 PM 11.89 53.402 0.06 6.76 10.3 10.82
5/14/2021 8:15:00 PM 11.9 53.42 0.06 6.75 9.32 10.79
5/14/2021 8:30:00 PM 11.89 53.402 0.06 6.74 9.32 10.77
5/14/2021 8:45:00 PM 11.85 53.33 0.06 6.73 9.37 10.76
5/14/2021 9:00:00 PM 11.8 53.24 0.06 6.71 9.76 10.76
5/14/2021 9:15:00 PM 11.73 53.114 0.061 6.7 10.24 10.76
5/14/2021 9:30:00 PM 11.66 52.988 0.061 6.67 10.62 10.77
5/14/2021 9:45:00 PM 11.6 52.88 0.061 6.64 13.66 10.77
5/14/2021 10:00:00 PM 11.54 52.772 0.061 6.64 10.17 10.78
5/14/2021 10:15:00 PM 11.47 52.646 0.061 6.77 12.23 10.79
5/14/2021 10:30:00 PM 11.41 52.538 0.061 6.77 11.23 10.81
5/14/2021 10:45:00 PM 11.33 52.394 0.061 6.74 12.74 10.82
5/14/2021 11:00:00 PM 11.25 52.25 0.061 6.75 11.86 10.85
5/14/2021 11:15:00 PM 11.17 52.106 0.061 6.74 10.38 10.86
5/14/2021 11:30:00 PM 11.08 51.944 0.061 6.75 12.75 10.88
5/14/2021 11:45:00 PM 10.98 51.764 0.061 6.75 11.66 10.91
5/15/2021 12:00:00 AM 10.88 51.584 0.061 6.75 12.06 10.94
5/15/2021 12:15:00 AM 10.77 51.386 0.061 6.75 11.58 10.97
5/15/2021 12:30:00 AM 10.66 51.188 0.061 6.74 12.3 10.99
5/15/2021 12:45:00 AM 10.55 50.99 0.061 6.74 11.31 11.02
5/15/2021 1:00:00 AM 10.44 50.792 0.061 6.74 11.06 11.05
5/15/2021 1:15:00 AM 10.33 50.594 0.062 6.74 11.81 11.08
5/15/2021 1:30:00 AM 10.22 50.396 0.062 6.74 11.74 11.11
5/15/2021 1:45:00 AM 10.12 50.216 0.062 6.72 11.74 11.14
5/15/2021 2:00:00 AM 10.03 50.054 0.062 6.72 12.04 11.16
5/15/2021 2:15:00 AM 9.93 49.874 0.062 6.72 11.92 11.19
5/15/2021 2:30:00 AM 9.84 49.712 0.062 6.71 11.47 11.22
5/15/2021 2:45:00 AM 9.75 49.55 0.062 6.72 11.24 11.24
5/15/2021 3:00:00 AM 9.66 49.388 0.062 6.72 11.31 11.26
5/15/2021 3:15:00 AM 9.57 49.226 0.062 6.72 10.7 11.29
5/15/2021 3:30:00 AM 9.48 49.064 0.062 6.73 10.65 11.31
5/15/2021 3:45:00 AM 9.39 48.902 0.062 6.72 11.19 11.34
5/15/2021 4:00:00 AM 9.31 48.758 0.062 6.72 10.73 11.36
5/15/2021 4:15:00 AM 9.22 48.596 0.062 6.72 11.21 11.39
5/15/2021 4:30:00 AM 9.14 48.452 0.062 6.74 11.39 11.41
5/15/2021 4:45:00 AM 9.06 48.308 0.062 6.74 10.56 11.43
5/15/2021 5:00:00 AM 8.98 48.164 0.062 6.74 11 11.46
5/15/2021 5:15:00 AM 8.9 48.02 0.062 6.74 11.33 11.48
5/15/2021 5:30:00 AM 8.83 47.894 0.062 6.74 11.34 11.5
5/15/2021 5:45:00 AM 8.75 47.75 0.062 6.74 10.94 11.52
5/15/2021 6:00:00 AM 8.67 47.606 0.062 6.74 11.14 11.55
5/15/2021 6:15:00 AM 8.6 47.48 0.062 6.74 10.81 11.58
5/15/2021 6:30:00 AM 8.54 47.372 0.062 6.75 12.07 11.61
5/15/2021 6:45:00 AM 8.48 47.264 0.062 6.75 11.38 11.65
5/15/2021 7:00:00 AM 8.43 47.174 0.062 6.76 11.3 11.68
5/15/2021 7:15:00 AM 8.39 47.102 0.062 6.76 13.07 11.72
5/15/2021 7:30:00 AM 8.36 47.048 0.062 6.77 11.09 11.75
5/15/2021 7:45:00 AM 8.35 47.03 0.062 6.77 11.35 11.79
5/15/2021 8:00:00 AM 8.36 47.048 0.062 6.78 12.21 11.81
5/15/2021 8:15:00 AM 8.38 47.084 0.062 6.79 12.55 11.84
5/15/2021 8:30:00 AM 8.41 47.138 0.062 6.79 13 11.86
5/15/2021 8:45:00 AM 8.46 47.228 0.062 6.8 10.78 11.88
5/15/2021 9:00:00 AM 8.52 47.336 0.062 6.81 11.18 11.89
5/15/2021 9:15:00 AM 8.6 47.48 0.062 6.81 12.89 11.89
5/15/2021 9:30:00 AM 8.7 47.66 0.063 6.81 10.9 11.9
5/15/2021 9:45:00 AM 8.82 47.876 0.063 6.82 11.88 11.9
5/15/2021 10:00:00 AM 8.94 48.092 0.063 6.82 13.37 11.89
5/15/2021 10:15:00 AM 9.08 48.344 0.063 6.84 11.78 11.88
5/15/2021 10:30:00 AM 9.24 48.632 0.063 6.84 11.43 11.86
5/15/2021 10:45:00 AM 9.4 48.92 0.063 6.85 12.23 11.84
5/15/2021 11:00:00 AM 9.56 49.208 0.063 6.85 12.41 11.82
5/15/2021 11:15:00 AM 9.74 49.532 0.063 6.85 10.46 11.79
5/15/2021 11:30:00 AM 9.94 49.892 0.063 6.86 10.51 11.76
5/15/2021 11:45:00 AM 10.11 50.198 0.063 6.87 9.81 11.72
5/15/2021 12:00:00 PM 10.36 50.648 0.063 6.87 8.96 11.69
5/15/2021 12:15:00 PM 10.36 50.648 0.063 6.89 10.53 11.64
5/15/2021 12:30:00 PM 10.54 50.972 0.063 6.89 10.32 11.61
5/15/2021 12:45:00 PM 10.75 51.35 0.063 6.9 9.69 11.56
5/15/2021 1:00:00 PM 10.95 51.71 0.063 6.9 10.09 11.52
5/15/2021 1:15:00 PM 11.07 51.926 0.063 6.89 10.11 11.47
5/15/2021 1:30:00 PM 11.3 52.34 0.063 6.9 11.02 11.42
5/15/2021 1:45:00 PM 11.31 52.358 0.063 6.89 9.96 11.39
5/15/2021 2:00:00 PM 11.48 52.664 0.063 6.9 9.79 11.36
5/15/2021 2:15:00 PM 11.49 52.682 0.063 6.91 10.5 11.31
5/15/2021 2:30:00 PM 11.43 52.574 0.063 6.9 11.27 11.29
5/15/2021 2:45:00 PM 11.42 52.556 0.063 6.9 10.07 11.28
5/15/2021 3:00:00 PM 11.44 52.592 0.063 6.9 11.22 11.25
5/15/2021 3:15:00 PM 11.55 52.79 0.063 6.91 10 11.25
5/15/2021 3:30:00 PM 11.71 53.078 0.063 6.91 10.97 11.23
5/15/2021 3:45:00 PM 11.81 53.258 0.063 6.91 10.07 11.21
5/15/2021 4:00:00 PM 11.9 53.42 0.063 6.92 11.66 11.18
5/15/2021 4:15:00 PM 11.95 53.51 0.063 6.91 11.59 11.15
5/15/2021 4:30:00 PM 11.99 53.582 0.063 6.92 10.54 11.12
5/15/2021 4:45:00 PM 12.02 53.636 0.063 6.91 11.39 11.09
5/15/2021 5:00:00 PM 12.09 53.762 0.063 6.91 10.71 11.08
5/15/2021 5:15:00 PM 12.2 53.96 0.063 6.89 11 11.06
5/15/2021 5:30:00 PM 12.23 54.014 0.063 6.9 10.82 11.02
5/15/2021 5:45:00 PM 12.22 53.996 0.063 6.89 12.03 10.98
5/15/2021 6:00:00 PM 12.26 54.068 0.063 6.89 10.2 10.95
5/15/2021 6:15:00 PM 12.31 54.158 0.063 6.88 11.63 10.92
5/15/2021 6:30:00 PM 12.33 54.194 0.063 6.88 12.17 10.91
5/15/2021 6:45:00 PM 12.34 54.212 0.063 6.87 11.81 10.88
5/15/2021 7:00:00 PM 12.31 54.158 0.064 6.87 10.44 10.86
5/15/2021 7:15:00 PM 12.32 54.176 0.064 6.87 10.02 10.85
5/15/2021 7:30:00 PM 12.31 54.158 0.064 6.88 11.79 10.82
5/15/2021 7:45:00 PM 12.28 54.104 0.064 6.86 10.78 10.8
5/15/2021 8:00:00 PM 12.25 54.05 0.064 6.85 10.92 10.77
5/15/2021 8:15:00 PM 12.21 53.978 0.064 6.83 11.07 10.74
5/15/2021 8:30:00 PM 12.17 53.906 0.064 6.83 10.84 10.72
5/15/2021 8:45:00 PM 12.11 53.798 0.064 6.82 10.89 10.7
5/15/2021 9:00:00 PM 12.06 53.708 0.064 6.81 11.59 10.69
5/15/2021 9:15:00 PM 12 53.6 0.064 6.8 11.02 10.69
5/15/2021 9:30:00 PM 11.95 53.51 0.064 6.8 11.28 10.69
5/15/2021 9:45:00 PM 11.9 53.42 0.064 6.8 11.5 10.69
5/15/2021 10:00:00 PM 11.85 53.33 0.064 6.79 12.27 10.69
5/15/2021 10:15:00 PM 11.8 53.24 0.065 6.79 11.86 10.7
5/15/2021 10:30:00 PM 11.74 53.132 0.065 6.79 11.8 10.7
5/15/2021 10:45:00 PM 11.69 53.042 0.065 6.79 11.94 10.71
5/15/2021 11:00:00 PM 11.63 52.934 0.065 6.79 13.71 10.72
5/15/2021 11:15:00 PM 11.56 52.808 0.065 6.79 11.51 10.73
5/15/2021 11:30:00 PM 11.5 52.7 0.065 6.79 12.2 10.75
5/15/2021 11:45:00 PM 11.45 52.61 0.065 6.78 10.71 10.76
5/16/2021 12:00:00 AM 11.4 52.52 0.065 6.79 10.62 10.77
5/16/2021 12:15:00 AM 11.34 52.412 0.065 6.79 13.44 10.78
5/16/2021 12:30:00 AM 11.28 52.304 0.065 6.79 11.96 10.8
5/16/2021 12:45:00 AM 11.21 52.178 0.065 6.79 10.86 10.81
5/16/2021 1:00:00 AM 11.13 52.034 0.065 6.8 10.77 10.85
5/16/2021 1:15:00 AM 11.05 51.89 0.065 6.8 11.54 10.87
5/16/2021 1:30:00 AM 10.97 51.746 0.065 6.79 11.3 10.88
5/16/2021 1:45:00 AM 10.89 51.602 0.065 6.8 11.41 10.9
5/16/2021 2:00:00 AM 10.81 51.458 0.065 6.8 11.48 10.93
5/16/2021 2:15:00 AM 10.72 51.296 0.065 6.8 12 10.95
5/16/2021 2:30:00 AM 10.64 51.152 0.065 6.8 11.1 10.97
5/16/2021 2:45:00 AM 10.56 51.008 0.065 6.8 11.02 10.99
5/16/2021 3:00:00 AM 10.49 50.882 0.065 6.8 11.81 11.01
5/16/2021 3:15:00 AM 10.42 50.756 0.065 6.8 10.87 11.03
5/16/2021 3:30:00 AM 10.34 50.612 0.065 6.8 11.9 11.05
5/16/2021 3:45:00 AM 10.28 50.504 0.066 6.8 11.68 11.07
5/16/2021 4:00:00 AM 10.22 50.396 0.066 6.81 12.45 11.09
5/16/2021 4:15:00 AM 10.17 50.306 0.066 6.8 11.78 11.1
5/16/2021 4:30:00 AM 10.11 50.198 0.066 6.81 11.52 11.11
5/16/2021 4:45:00 AM 10.06 50.108 0.066 6.81 13.09 11.14
5/16/2021 5:00:00 AM 10 50 0.065 6.81 12.49 11.16
5/16/2021 5:15:00 AM 9.95 49.91 0.065 6.8 13.18 11.17
5/16/2021 5:30:00 AM 9.89 49.802 0.065 6.81 12.33 11.19
5/16/2021 5:45:00 AM 9.84 49.712 0.065 6.81 12.75 11.2
5/16/2021 6:00:00 AM 9.79 49.622 0.065 6.81 11.76 11.22
5/16/2021 6:15:00 AM 9.75 49.55 0.066 6.81 11.8 11.24
5/16/2021 6:30:00 AM 9.7 49.46 0.066 6.81 12.2 11.26
5/16/2021 6:45:00 AM 9.66 49.388 0.065 6.81 13.12 11.28
5/16/2021 7:00:00 AM 9.62 49.316 0.065 6.82 11.5 11.3
5/16/2021 7:15:00 AM 9.59 49.262 0.065 6.82 11.46 11.34
5/16/2021 7:30:00 AM 9.57 49.226 0.065 6.82 11.72 11.37
5/16/2021 7:45:00 AM 9.55 49.19 0.065 6.83 13.5 11.4
5/16/2021 8:00:00 AM 9.55 49.19 0.065 6.84 11.39 11.44
5/16/2021 8:15:00 AM 9.55 49.19 0.065 6.84 13.2 11.48
5/16/2021 8:30:00 AM 9.55 49.19 0.065 6.85 13.56 11.51
5/16/2021 8:45:00 AM 9.57 49.226 0.065 6.86 11.32 11.54
5/16/2021 9:00:00 AM 9.6 49.28 0.065 6.87 11.37 11.56
5/16/2021 9:15:00 AM 9.64 49.352 0.065 6.87 10.73 11.58
5/16/2021 9:30:00 AM 9.68 49.424 0.065 6.88 11.76 11.6
5/16/2021 9:45:00 AM 9.73 49.514 0.065 6.89 10.85 11.61
5/16/2021 10:00:00 AM 9.79 49.622 0.065 6.89 11.38 11.62
5/16/2021 10:15:00 AM 9.86 49.748 0.065 6.89 11.74 11.63
5/16/2021 10:30:00 AM 9.93 49.874 0.065 6.9 12.19 11.62
5/16/2021 10:45:00 AM 10 50 0.065 6.9 9.97 11.62
5/16/2021 11:00:00 AM 10.1 50.18 0.065 6.92 11.22 11.61
5/16/2021 11:15:00 AM 10.21 50.378 0.065 6.92 10.57 11.61
5/16/2021 11:30:00 AM 10.34 50.612 0.065 6.93 10.9 11.59
5/16/2021 11:45:00 AM 10.46 50.828 0.065 6.93 11.03 11.57
5/16/2021 12:00:00 PM 10.51 50.918 0.065 6.95 10.17 11.55
5/16/2021 12:15:00 PM 10.56 51.008 0.065 6.95 10.76 11.54
5/16/2021 12:30:00 PM 10.63 51.134 0.065 6.96 11.61 11.51
5/16/2021 12:45:00 PM 10.66 51.188 0.065 6.96 10.64 11.49
5/16/2021 1:00:00 PM 10.67 51.206 0.065 6.95 10.35 11.46
5/16/2021 1:15:00 PM 10.72 51.296 0.064 6.96 10.44 11.45
5/16/2021 1:30:00 PM 10.81 51.458 0.065 6.97 12.89 11.44
5/16/2021 1:45:00 PM 10.98 51.764 0.065 6.97 10.64 11.43
5/16/2021 2:00:00 PM 11.01 51.818 0.065 6.96 10.19 11.41
5/16/2021 2:15:00 PM 11.05 51.89 0.065 6.96 10.92 11.38
5/16/2021 2:30:00 PM 11.15 52.07 0.065 6.96 10.05 11.39
5/16/2021 2:45:00 PM 11.2 52.16 0.065 6.97 10.14 11.36
5/16/2021 3:00:00 PM 11.22 52.196 0.065 6.98 9.92 11.33
5/16/2021 3:15:00 PM 11.34 52.412 0.065 6.98 10.28 11.32
5/16/2021 3:30:00 PM 11.42 52.556 0.065 6.98 11.06 11.3
5/16/2021 3:45:00 PM 11.5 52.7 0.065 6.98 11.13 11.27
5/16/2021 4:00:00 PM 11.53 52.754 0.065 6.97 9.87 11.24
5/16/2021 4:15:00 PM 11.65 52.97 0.065 6.97 10.87 11.23
5/16/2021 4:30:00 PM 11.7 53.06 0.065 6.98 10.74 11.21
5/16/2021 4:45:00 PM 11.72 53.096 0.065 6.97 10.73 11.18
5/16/2021 5:00:00 PM 11.8 53.24 0.065 6.97 10.93 11.15
5/16/2021 5:15:00 PM 11.93 53.474 0.065 6.97 11.26 11.13
5/16/2021 5:30:00 PM 11.95 53.51 0.065 6.97 11.28 11.1
5/16/2021 5:45:00 PM 11.95 53.51 0.065 6.97 10.55 11.07
5/16/2021 6:00:00 PM 12 53.6 0.065 6.97 11.6 11.06
5/16/2021 6:15:00 PM 12.05 53.69 0.065 6.95 10.9 11.05
5/16/2021 6:30:00 PM 12.04 53.672 0.065 6.95 11.01 11.03
5/16/2021 6:45:00 PM 12.01 53.618 0.065 6.94 10.72 11.02
5/16/2021 7:00:00 PM 11.99 53.582 0.065 6.95 13.33 11
5/16/2021 7:15:00 PM 11.97 53.546 0.065 6.95 11.76 10.97
5/16/2021 7:30:00 PM 11.94 53.492 0.065 6.93 10.71 10.94
5/16/2021 7:45:00 PM 11.91 53.438 0.066 6.92 11.27 10.92
5/16/2021 8:00:00 PM 11.87 53.366 0.066 6.91 10.89 10.89
5/16/2021 8:15:00 PM 11.82 53.276 0.066 6.89 11.21 10.86
5/16/2021 8:30:00 PM 11.77 53.186 0.066 6.89 12.77 10.85
5/16/2021 8:45:00 PM 11.71 53.078 0.066 6.88 10.27 10.83
5/16/2021 9:00:00 PM 11.66 52.988 0.066 6.87 12.08 10.81
5/16/2021 9:15:00 PM 11.59 52.862 0.066 6.86 11.25 10.81
5/16/2021 9:30:00 PM 11.52 52.736 0.066 6.85 12.02 10.81
5/16/2021 9:45:00 PM 11.45 52.61 0.066 6.85 10.67 10.82
5/16/2021 10:00:00 PM 11.37 52.466 0.066 6.84 11.97 10.82
5/16/2021 10:15:00 PM 11.29 52.322 0.066 6.84 14.34 10.83
5/16/2021 10:30:00 PM 11.22 52.196 0.066 6.85 11.82 10.85
5/16/2021 10:45:00 PM 11.14 52.052 0.066 6.85 12.98 10.86
5/16/2021 11:00:00 PM 11.07 51.926 0.066 6.85 13.01 10.88
5/16/2021 11:15:00 PM 10.99 51.782 0.066 6.85 14.04 10.89
5/16/2021 11:30:00 PM 10.93 51.674 0.066 6.85 14.1 10.91
5/16/2021 11:45:00 PM 10.86 51.548 0.066 6.84 13.56 10.93
5/17/2021 12:00:00 AM 10.8 51.44 0.067 6.84 11.59 10.94
5/17/2021 12:15:00 AM 10.73 51.314 0.067 6.83 10.29 10.96
5/17/2021 12:30:00 AM 10.66 51.188 0.067 6.83 10.71 10.98
5/17/2021 12:45:00 AM 10.59 51.062 0.067 6.83 11.81 11
5/17/2021 1:00:00 AM 10.52 50.936 0.067 6.83 11.62 11.02
5/17/2021 1:15:00 AM 10.44 50.792 0.067 6.82 11.35 11.03
5/17/2021 1:30:00 AM 10.37 50.666 0.067 6.83 13.45 11.06
5/17/2021 1:45:00 AM 10.3 50.54 0.067 6.83 12.37 11.08
5/17/2021 2:00:00 AM 10.22 50.396 0.067 6.83 11.7 11.1
5/17/2021 2:15:00 AM 10.15 50.27 0.067 6.82 13.23 11.12
5/17/2021 2:30:00 AM 10.07 50.126 0.067 6.83 11.4 11.14
5/17/2021 2:45:00 AM 10 50 0.067 6.83 11.81 11.16
5/17/2021 3:00:00 AM 9.92 49.856 0.067 6.83 11.67 11.19
5/17/2021 3:15:00 AM 9.84 49.712 0.067 6.83 12.36 11.21
5/17/2021 3:30:00 AM 9.76 49.568 0.067 6.83 11.36 11.23
5/17/2021 3:45:00 AM 9.68 49.424 0.067 6.83 10.59 11.26
5/17/2021 4:00:00 AM 9.61 49.298 0.067 6.83 13.36 11.28
5/17/2021 4:15:00 AM 9.53 49.154 0.067 6.82 10.24 11.29
5/17/2021 4:30:00 AM 9.46 49.028 0.067 6.82 13.34 11.3
5/17/2021 4:45:00 AM 9.38 48.884 0.067 6.82 10.57 11.34
5/17/2021 5:00:00 AM 9.31 48.758 0.067 6.81 12.2 11.36
5/17/2021 5:15:00 AM 9.24 48.632 0.067 6.82 12.51 11.37
5/17/2021 5:30:00 AM 9.17 48.506 0.067 6.81 11.91 11.4
5/17/2021 5:45:00 AM 9.11 48.398 0.067 6.81 11.11 11.42
5/17/2021 6:00:00 AM 9.05 48.29 0.068 6.81 10.86 11.44
5/17/2021 6:15:00 AM 9.01 48.218 0.067 6.81 12.29 11.47
5/17/2021 6:30:00 AM 8.98 48.164 0.068 6.82 10.74 11.5
5/17/2021 6:45:00 AM 8.96 48.128 0.068 6.83 13.57 11.53
5/17/2021 7:00:00 AM 8.94 48.092 0.068 6.84 18.13 11.57
5/17/2021 7:15:00 AM 8.92 48.056 0.068 6.84 16.21 11.61
5/17/2021 7:30:00 AM 8.93 48.074 0.068 6.85 16.4 11.65
5/17/2021 7:45:00 AM 8.92 48.056 0.068 6.86 16.65 11.69
5/17/2021 8:00:00 AM 8.94 48.092 0.067 6.87 16.13 11.72
5/17/2021 8:15:00 AM 8.98 48.164 0.067 6.87 16.03 11.74
5/17/2021 8:30:00 AM 9.03 48.254 0.067 6.88 16.85 11.75
5/17/2021 8:45:00 AM 9.07 48.326 0.068 6.88 15.35 11.77
5/17/2021 9:00:00 AM 9.13 48.434 0.067 6.89 15.55 11.77
5/17/2021 9:15:00 AM 9.23 48.614 0.067 6.9 15.58 11.78
5/17/2021 9:30:00 AM 9.38 48.884 0.067 6.9 15.91 11.78
5/17/2021 9:45:00 AM 9.52 49.136 0.067 6.91 15.24 11.76
5/17/2021 10:00:00 AM 9.66 49.388 0.067 6.91 16.32 11.76
5/17/2021 10:15:00 AM 9.82 49.676 0.067 6.92 12.37 11.74
5/17/2021 10:30:00 AM 10.02 50.036 0.067 6.91 10.17 11.72
5/17/2021 10:45:00 AM 10.23 50.414 0.067 6.92 11.44 11.68
5/17/2021 11:00:00 AM 10.43 50.774 0.067 6.96 13.35 11.64
5/17/2021 11:15:00 AM 10.66 51.188 0.067 6.95 12.46 11.61
5/17/2021 11:30:00 AM 10.89 51.602 0.067 6.95 13.15 11.57
5/17/2021 11:45:00 AM 11.13 52.034 0.067 6.95 13.49 11.51
5/17/2021 12:00:00 PM 11.37 52.466 0.067 6.96 12.84 11.47
5/17/2021 12:15:00 PM 11.64 52.952 0.067 6.96 11.85 11.42
5/17/2021 12:30:00 PM 11.92 53.456 0.067 6.97 10.06 11.36
5/17/2021 12:45:00 PM 12.2 53.96 0.067 6.97 12.82 11.31
5/17/2021 1:00:00 PM 12.49 54.482 0.067 6.94 9.96 11.25
5/17/2021 1:15:00 PM 12.69 54.842 0.067 7 10.18 11.18
5/17/2021 1:30:00 PM 12.65 54.77 0.067 6.99 9.15 11.12
5/17/2021 1:45:00 PM 12.94 55.292 0.067 6.99 14.81 11.08
5/17/2021 2:00:00 PM 13.36 56.048 0.067 6.97 13.61 11.03
5/17/2021 2:15:00 PM 13.66 56.588 0.067 6.98 13.31 10.96
5/17/2021 2:30:00 PM 13.94 57.092 0.067 6.98 11.59 10.88
5/17/2021 2:45:00 PM 14.35 57.83 0.067 6.99 12.96 10.83
5/17/2021 3:00:00 PM 14.51 58.118 0.067 6.99 12.37 10.76
5/17/2021 3:15:00 PM 14.33 57.794 0.067 6.99 12.54 10.73
5/17/2021 3:30:00 PM 14.39 57.902 0.067 6.99 10.7 10.7
5/17/2021 3:45:00 PM 14.46 58.028 0.067 6.99 14.94 10.67
5/17/2021 4:00:00 PM 14.59 58.262 0.068 6.99 13.59 10.63
5/17/2021 4:15:00 PM 14.44 57.992 0.068 7 13.02 10.62
5/17/2021 4:30:00 PM 14.28 57.704 0.068 6.99 12.06 10.62
5/17/2021 4:45:00 PM 14.19 57.542 0.068 6.99 10.7 10.62
5/17/2021 5:00:00 PM 14.14 57.452 0.068 6.99 10.73 10.61
5/17/2021 5:15:00 PM 14.11 57.398 0.068 6.98 11.9 10.6
5/17/2021 5:30:00 PM 14.07 57.326 0.068 6.98 11.26 10.6
5/17/2021 5:45:00 PM 14.1 57.38 0.068 6.98 17.32 10.6
5/17/2021 6:00:00 PM 14.13 57.434 0.068 6.97 115.86 10.58
5/17/2021 6:15:00 PM 14.2 57.56 0.068 6.97 13.86 10.55
5/17/2021 6:30:00 PM 14.28 57.704 0.068 6.97 14.84 10.51
5/17/2021 6:45:00 PM 14.33 57.794 0.068 6.96 14.71 10.47
5/17/2021 7:00:00 PM 14.33 57.794 0.068 6.96 12.84 10.44
5/17/2021 7:15:00 PM 14.29 57.722 0.068 6.95 13.32 10.4
5/17/2021 7:30:00 PM 14.23 57.614 0.068 6.95 13.06 10.38
5/17/2021 7:45:00 PM 14.18 57.524 0.068 6.93 10.19 10.34
5/17/2021 8:00:00 PM 14.14 57.452 0.068 6.92 9.98 10.31
5/17/2021 8:15:00 PM 14.08 57.344 0.068 6.91 14.77 10.28
5/17/2021 8:30:00 PM 14.02 57.236 0.068 6.9 10.25 10.26
5/17/2021 8:45:00 PM 13.97 57.146 0.068 6.88 12.6 10.25
5/17/2021 9:00:00 PM 13.91 57.038 0.068 6.87 10.36 10.23
5/17/2021 9:15:00 PM 13.85 56.93 0.068 6.87 21.49 10.23
5/17/2021 9:30:00 PM 13.77 56.786 0.068 6.85 14.18 10.23
5/17/2021 9:45:00 PM 13.69 56.642 0.069 6.85 11.84 10.24
5/17/2021 10:00:00 PM 13.6 56.48 0.069 6.85 12.08 10.25
5/17/2021 10:15:00 PM 13.51 56.318 0.069 6.85 12.57 10.27
5/17/2021 10:30:00 PM 13.42 56.156 0.069 6.85 17.2 10.29
5/17/2021 10:45:00 PM 13.33 55.994 0.069 6.85 13.82 10.31
5/17/2021 11:00:00 PM 13.24 55.832 0.069 6.84 9.84 10.33
5/17/2021 11:15:00 PM 13.16 55.688 0.069 6.84 15.34 10.34
5/17/2021 11:30:00 PM 13.07 55.526 0.069 6.82 14.06 10.36
5/17/2021 11:45:00 PM 12.98 55.364 0.069 6.82 12.93 10.39
5/18/2021 12:00:00 AM 12.9 55.22 0.069 6.81 13.89 10.41
5/18/2021 12:15:00 AM 12.81 55.058 0.069 6.81 15.25 10.43
5/18/2021 12:30:00 AM 12.73 54.914 0.069 6.81 16.26 10.45
5/18/2021 12:45:00 AM 12.64 54.752 0.069 6.81 16.18 10.47
5/18/2021 1:00:00 AM 12.56 54.608 0.069 6.81 14.6 10.49
5/18/2021 1:15:00 AM 12.48 54.464 0.069 6.8 21.29 10.5
5/18/2021 1:30:00 AM 12.4 54.32 0.07 6.81 18.24 10.52
5/18/2021 1:45:00 AM 12.32 54.176 0.069 6.82 13.95 10.54
5/18/2021 2:00:00 AM 12.23 54.014 0.069 6.82 10.31 10.57
5/18/2021 2:15:00 AM 12.15 53.87 0.07 6.83 11.34 10.59
5/18/2021 2:30:00 AM 12.06 53.708 0.07 6.82 10.75 10.61
5/18/2021 2:45:00 AM 11.97 53.546 0.07 6.83 10.32 10.64
5/18/2021 3:00:00 AM 11.87 53.366 0.07 6.86 10.56 10.67
5/18/2021 3:15:00 AM 11.77 53.186 0.07 6.85 13.65 10.69
5/18/2021 3:30:00 AM 11.67 53.006 0.07 6.85 11.37 10.72
5/18/2021 3:45:00 AM 11.57 52.826 0.07 6.84 12.05 10.74
5/18/2021 4:00:00 AM 11.46 52.628 0.07 6.84 11.15 10.78
5/18/2021 4:15:00 AM 11.36 52.448 0.07 6.84 11.99 10.8
5/18/2021 4:30:00 AM 11.25 52.25 0.07 6.84 11.28 10.84
5/18/2021 4:45:00 AM 11.15 52.07 0.07 6.83 12.63 10.87
5/18/2021 5:00:00 AM 11.05 51.89 0.07 6.84 10.61 10.89
5/18/2021 5:15:00 AM 10.95 51.71 0.07 6.84 29.29 10.91
5/18/2021 5:30:00 AM 10.85 51.53 0.07 6.83 9.75 10.92
5/18/2021 5:45:00 AM 10.75 51.35 0.07 6.83 45.49 10.97
5/18/2021 6:00:00 AM 10.66 51.188 0.07 6.84 15.51 11
5/18/2021 6:15:00 AM 10.57 51.026 0.07 6.84 14.61 11.03
5/18/2021 6:30:00 AM 10.5 50.9 0.07 6.84 10.09 11.08
5/18/2021 6:45:00 AM 10.43 50.774 0.07 6.85 12.78 11.13
5/18/2021 7:00:00 AM 10.37 50.666 0.07 6.86 14.46 11.18
5/18/2021 7:15:00 AM 10.32 50.576 0.07 6.87 11.11 11.22
5/18/2021 7:30:00 AM 10.3 50.54 0.07 6.88 13.24 11.26
5/18/2021 7:45:00 AM 10.3 50.54 0.07 6.89 13.9 11.3
5/18/2021 8:00:00 AM 10.31 50.558 0.07 6.89 15.34 11.34
5/18/2021 8:15:00 AM 10.35 50.63 0.07 6.9 15.57 11.37
5/18/2021 8:30:00 AM 10.4 50.72 0.07 6.91 14.13 11.39
5/18/2021 8:45:00 AM 10.47 50.846 0.07 6.92 19.04 11.41
5/18/2021 9:00:00 AM 10.56 51.008 0.07 6.92 11.26 11.42
5/18/2021 9:15:00 AM 10.67 51.206 0.07 6.93 11.24 11.42
5/18/2021 9:30:00 AM 10.79 51.422 0.07 6.94 14.01 11.42
5/18/2021 9:45:00 AM 10.94 51.692 0.07 6.95 14.98 11.42
5/18/2021 10:00:00 AM 11.09 51.962 0.07 6.95 15 11.41
5/18/2021 10:15:00 AM 11.27 52.286 0.07 6.97 12.15 11.39
5/18/2021 10:30:00 AM 11.46 52.628 0.07 6.97 14.38 11.37
5/18/2021 10:45:00 AM 11.66 52.988 0.07 6.98 14.51 11.34
5/18/2021 11:00:00 AM 11.87 53.366 0.07 6.99 9.65 11.31
5/18/2021 11:15:00 AM 12.1 53.78 0.07 6.99 33.39 11.27
5/18/2021 11:30:00 AM 12.33 54.194 0.07 7 21.39 11.23
5/18/2021 11:45:00 AM 12.59 54.662 0.07 7 13.82 11.19
5/18/2021 12:00:00 PM 12.87 55.166 0.07 7.02 11.01 11.15
5/18/2021 12:15:00 PM 13.14 55.652 0.07 7.02 15.71 11.09
5/18/2021 12:30:00 PM 13.42 56.156 0.07 7.02 15.97 11.04
5/18/2021 12:45:00 PM 13.46 56.228 0.07 7.02 13.21 10.98
5/18/2021 1:00:00 PM 13.72 56.696 0.069 7.02 10.01 10.93
5/18/2021 1:15:00 PM 13.93 57.074 0.069 7.03 10.77 10.88
5/18/2021 1:30:00 PM 14.28 57.704 0.069 7.03 19.38 10.83
5/18/2021 1:45:00 PM 14.63 58.334 0.069 7.04 7.98 10.76
5/18/2021 2:00:00 PM 14.95 58.91 0.069 7.04 11.55 10.7
5/18/2021 2:15:00 PM 15.13 59.234 0.069 7.05 12.34 10.64
5/18/2021 2:30:00 PM 15.42 59.756 0.069 7.05 13.89 10.58
5/18/2021 2:45:00 PM 15.7 60.26 0.069 7.05 11.6 10.5
5/18/2021 3:00:00 PM 16.03 60.854 0.069 7.05 17.65 10.44
5/18/2021 3:15:00 PM 16.27 61.286 0.069 7.05 13.16 10.37
5/18/2021 3:30:00 PM 16.26 61.268 0.069 7.04 13.6 10.31
5/18/2021 3:45:00 PM 16.31 61.358 0.069 7.04 11.19 10.24
5/18/2021 4:00:00 PM 16.67 62.006 0.069 7.04 12.75 10.18
5/18/2021 4:15:00 PM 16.88 62.384 0.069 7.05 11.76 10.16
5/18/2021 4:30:00 PM 17.11 62.798 0.069 7.04 11.85 10.1
5/18/2021 4:45:00 PM 17.34 63.212 0.07 7.05 10.13 10.05
5/18/2021 5:00:00 PM 17.46 63.428 0.069 7.05 11.94 10
5/18/2021 5:15:00 PM 17.52 63.536 0.07 7.05 10.86 9.96
5/18/2021 5:30:00 PM 17.57 63.626 0.07 7.07 18.87 9.92
5/18/2021 5:45:00 PM 17.56 63.608 0.07 7.06 9.39 9.89
5/18/2021 6:00:00 PM 17.53 63.554 0.07 7.06 12.92 9.86
5/18/2021 6:15:00 PM 17.5 63.5 0.07 7.05 12.09 9.84
5/18/2021 6:30:00 PM 17.48 63.464 0.07 7.05 9.85 9.81
5/18/2021 6:45:00 PM 17.44 63.392 0.07 7.05 14.75 9.77
5/18/2021 7:00:00 PM 17.37 63.266 0.07 7.04 9.73 9.74
5/18/2021 7:15:00 PM 17.27 63.086 0.07 7.02 13.34 9.72
5/18/2021 7:30:00 PM 17.18 62.924 0.07 7.01 16.52 9.7
5/18/2021 7:45:00 PM 17.08 62.744 0.07 6.99 10.94 9.68
5/18/2021 8:00:00 PM 16.96 62.528 0.07 6.98 14.8 9.66
5/18/2021 8:15:00 PM 16.83 62.294 0.07 6.96 21.5 9.64
5/18/2021 8:30:00 PM 16.7 62.06 0.07 6.94 13.73 9.63
5/18/2021 8:45:00 PM 16.56 61.808 0.07 6.93 14.97 9.62
5/18/2021 9:00:00 PM 16.43 61.574 0.071 6.93 12.99 9.62
5/18/2021 9:15:00 PM 16.3 61.34 0.071 6.91 15.23 9.63
5/18/2021 9:30:00 PM 16.17 61.106 0.071 6.91 10.03 9.64
5/18/2021 9:45:00 PM 16.04 60.872 0.071 6.9 13.18 9.66
5/18/2021 10:00:00 PM 15.91 60.638 0.071 6.89 62.81 9.68
5/18/2021 10:15:00 PM 15.79 60.422 0.071 6.89 14.81 9.7
5/18/2021 10:30:00 PM 15.67 60.206 0.071 6.9 17.32 9.72
5/18/2021 10:45:00 PM 15.55 59.99 0.071 6.9 15.99 9.74
5/18/2021 11:00:00 PM 15.43 59.774 0.071 6.89 25.6 9.76
5/18/2021 11:15:00 PM 15.32 59.576 0.071 6.89 41.56 9.78
5/18/2021 11:30:00 PM 15.21 59.378 0.071 6.89 11.44 9.8
5/18/2021 11:45:00 PM 15.1 59.18 0.071 6.89 11.69 9.84
5/19/2021 12:00:00 AM 15 59 0.071 6.89 27.67 9.86
5/19/2021 12:15:00 AM 14.9 58.82 0.071 6.88 27.02 9.88
5/19/2021 12:30:00 AM 14.8 58.64 0.072 6.88 10.83 9.9
5/19/2021 12:45:00 AM 14.7 58.46 0.072 6.88 11.22 9.93
5/19/2021 1:00:00 AM 14.6 58.28 0.072 6.88 18.09 9.95
5/19/2021 1:15:00 AM 14.51 58.118 0.072 6.88 28.22 9.98
5/19/2021 1:30:00 AM 14.41 57.938 0.072 6.88 44.71 10
5/19/2021 1:45:00 AM 14.32 57.776 0.072 6.87 17.17 10.02
5/19/2021 2:00:00 AM 14.22 57.596 0.072 6.87 23.3 10.04
5/19/2021 2:15:00 AM 14.13 57.434 0.072 6.87 18.39 10.06
5/19/2021 2:30:00 AM 14.03 57.254 0.072 6.85 57.83 10.08
5/19/2021 2:45:00 AM 13.93 57.074 0.072 6.86 12.11 10.11
5/19/2021 3:00:00 AM 13.83 56.894 0.073 6.86 12.8 10.14
5/19/2021 3:15:00 AM 13.74 56.732 0.072 6.88 13.62 10.15
5/19/2021 3:30:00 AM 13.64 56.552 0.072 6.88 25.94 10.17
5/19/2021 3:45:00 AM 13.54 56.372 0.072 6.88 38.96 10.21
5/19/2021 4:00:00 AM 13.44 56.192 0.072 6.88 23.32 10.23
5/19/2021 4:15:00 AM 13.33 55.994 0.073 6.88 12.54 10.27
5/19/2021 4:30:00 AM 13.23 55.814 0.073 6.87 12.29 10.29
5/19/2021 4:45:00 AM 13.13 55.634 0.073 6.87 13.31 10.32
5/19/2021 5:00:00 AM 13.03 55.454 0.073 6.88 34.77 10.34
5/19/2021 5:15:00 AM 12.93 55.274 0.073 6.88 57.44 10.37
5/19/2021 5:30:00 AM 12.84 55.112 0.073 6.88 173.18 10.39
5/19/2021 5:45:00 AM 12.74 54.932 0.073 6.88 15.27 10.42
5/19/2021 6:00:00 AM 12.64 54.752 0.073 6.88 11.72 10.45
5/19/2021 6:15:00 AM 12.56 54.608 0.073 6.88 40.6 10.49
5/19/2021 6:30:00 AM 12.48 54.464 0.073 6.88 19.18 10.54
5/19/2021 6:45:00 AM 12.41 54.338 0.073 6.89 30.4 10.58
5/19/2021 7:00:00 AM 12.35 54.23 0.073 6.9 32.11 10.63
5/19/2021 7:15:00 AM 12.3 54.14 0.073 6.9 13.72 10.68
5/19/2021 7:30:00 AM 12.27 54.086 0.073 6.91 15.36 10.73
5/19/2021 7:45:00 AM 12.26 54.068 0.073 6.93 15.27 10.77
5/19/2021 8:00:00 AM 12.27 54.086 0.073 6.93 18.76 10.81
5/19/2021 8:15:00 AM 12.29 54.122 0.072 6.94 17.62 10.85
5/19/2021 8:30:00 AM 12.33 54.194 0.073 6.94 36.8 10.88
5/19/2021 8:45:00 AM 12.39 54.302 0.073 6.96 20.79 10.91
5/19/2021 9:00:00 AM 12.48 54.464 0.073 6.97 28.94 10.92
5/19/2021 9:15:00 AM 12.58 54.644 0.073 6.98 19.05 10.93
5/19/2021 9:30:00 AM 12.7 54.86 0.073 6.99 33.28 10.94
5/19/2021 9:45:00 AM 12.84 55.112 0.073 6.99 24.27 10.94
5/19/2021 10:00:00 AM 12.99 55.382 0.073 7 16.65 10.94
5/19/2021 10:15:00 AM 13.16 55.688 0.073 7 29.72 10.92
5/19/2021 10:30:00 AM 13.34 56.012 0.073 7.01 26.16 10.91
5/19/2021 10:45:00 AM 13.54 56.372 0.072 7.01 21.38 10.88
5/19/2021 11:00:00 AM 13.75 56.75 0.073 7.02 4.97 10.86
5/19/2021 11:15:00 AM 13.98 57.164 0.073 7.03 4.72 10.81
5/19/2021 11:30:00 AM 14.19 57.542 0.072 7.04 4.66 10.81
5/19/2021 11:45:00 AM 14.45 58.01 0.073 7.04 4.8 10.77
5/19/2021 12:00:00 PM 14.69 58.442 0.072 7.05 4.79 10.73
5/19/2021 12:15:00 PM 14.92 58.856 0.072 7.05 4.57 10.68
5/19/2021 12:30:00 PM 15.16 59.288 0.072 7.06 4.79 10.63
5/19/2021 12:45:00 PM 15.42 59.756 0.072 7.06 4.71 10.59
5/19/2021 1:00:00 PM 15.7 60.26 0.072 7.06 5.01 10.54
5/19/2021 1:15:00 PM 15.98 60.764 0.072 7.07 5.01 10.48
5/19/2021 1:30:00 PM 16.21 61.178 0.072 7.07 4.9 10.44
5/19/2021 1:45:00 PM 16.49 61.682 0.072 7.08 4.86 10.38
5/19/2021 2:00:00 PM 16.74 62.132 0.072 7.08 4.86 10.33
5/19/2021 2:15:00 PM 16.98 62.564 0.072 7.09 4.99 10.27
5/19/2021 2:30:00 PM 17.2 62.96 0.072 7.09 4.88 10.22
5/19/2021 2:45:00 PM 17.4 63.32 0.072 7.09 4.99 10.16
5/19/2021 3:00:00 PM 17.6 63.68 0.072 7.1 5.34 10.11
5/19/2021 3:15:00 PM 17.87 64.166 0.072 7.1 5.17 10.07
5/19/2021 3:30:00 PM 18.07 64.526 0.072 7.1 5.37 10.02
5/19/2021 3:45:00 PM 18.28 64.904 0.072 7.1 5.2 9.96
5/19/2021 4:00:00 PM 18.43 65.174 0.072 7.11 5.18 9.91
5/19/2021 4:15:00 PM 18.59 65.462 0.072 7.11 5.41 9.87
5/19/2021 4:30:00 PM 18.71 65.67799 0.072 7.11 5.34 9.82
5/19/2021 4:45:00 PM 18.78 65.804 0.072 7.1 5.31 9.78
5/19/2021 5:00:00 PM 18.86 65.948 0.072 7.11 5.67 9.75
5/19/2021 5:15:00 PM 18.93 66.074 0.072 7.12 5.51 9.69
5/19/2021 5:30:00 PM 18.99 66.182 0.072 7.11 5.63 9.69
5/19/2021 5:45:00 PM 19.04 66.272 0.072 7.1 5.53 9.64
5/19/2021 6:00:00 PM 19.05 66.29 0.072 7.09 5.3 9.61
5/19/2021 6:15:00 PM 19.05 66.29 0.072 7.08 5.51 9.59
5/19/2021 6:30:00 PM 19.04 66.272 0.072 7.09 5.82 9.56
5/19/2021 6:45:00 PM 19.01 66.218 0.072 7.08 5.59 9.52
5/19/2021 7:00:00 PM 18.95 66.11 0.072 7.07 5.75 9.49
5/19/2021 7:15:00 PM 18.87 65.966 0.072 7.06 6.1 9.46
5/19/2021 7:30:00 PM 18.76 65.768 0.073 7.03 5.8 9.42
5/19/2021 7:45:00 PM 18.65 65.57 0.073 7.02 5.99 9.38
5/19/2021 8:00:00 PM 18.53 65.354 0.073 7.01 6.15 9.36
5/19/2021 8:15:00 PM 18.39 65.102 0.073 6.99 6.16 9.33
5/19/2021 8:30:00 PM 18.25 64.85 0.073 6.97 6.52 9.31
5/19/2021 8:45:00 PM 18.11 64.598 0.073 6.95 5.84 9.3
5/19/2021 9:00:00 PM 17.98 64.364 0.073 6.94 6.72 9.3
5/19/2021 9:15:00 PM 17.85 64.13 0.073 6.93 6.68 9.29
5/19/2021 9:30:00 PM 17.73 63.914 0.073 6.93 6.96 9.29
5/19/2021 9:45:00 PM 17.6 63.68 0.074 6.92 6.36 9.32
5/19/2021 10:00:00 PM 17.47 63.446 0.073 6.92 7.05 9.34
5/19/2021 10:15:00 PM 17.35 63.23 0.073 6.91 6.85 9.35
5/19/2021 10:30:00 PM 17.23 63.014 0.074 6.91 6.88 9.38
5/19/2021 10:45:00 PM 17.11 62.798 0.074 6.91 6.83 9.4
5/19/2021 11:00:00 PM 16.99 62.582 0.074 6.9 6.74 9.42
5/19/2021 11:15:00 PM 16.88 62.384 0.074 6.91 7.11 9.44
5/19/2021 11:30:00 PM 16.77 62.186 0.074 6.91 6.92 9.46
5/19/2021 11:45:00 PM 16.66 61.988 0.074 6.9 6.91 9.48
5/20/2021 12:00:00 AM 16.55 61.79 0.074 6.9 7.32 9.5
5/20/2021 12:15:00 AM 16.45 61.61 0.074 6.89 7.25 9.51
5/20/2021 12:30:00 AM 16.35 61.43 0.074 6.89 7.44 9.54
5/20/2021 12:45:00 AM 16.25 61.25 0.074 6.89 7.06 9.56
5/20/2021 1:00:00 AM 16.15 61.07 0.074 6.89 7.39 9.59
5/20/2021 1:15:00 AM 16.05 60.89 0.074 6.86 6.09 9.62
5/20/2021 1:30:00 AM 15.95 60.71 0.074 6.87 7.11 9.64
5/20/2021 1:45:00 AM 15.86 60.548 0.075 6.87 7.01 9.67
5/20/2021 2:00:00 AM 15.76 60.368 0.075 6.88 7.11 9.69
5/20/2021 2:15:00 AM 15.67 60.206 0.075 6.88 6.44 9.71
5/20/2021 2:30:00 AM 15.58 60.044 0.075 6.89 7.5 9.72
5/20/2021 2:45:00 AM 15.49 59.882 0.075 6.89 7.13 9.75
5/20/2021 3:00:00 AM 15.4 59.72 0.075 6.89 7.39 9.78
5/20/2021 3:15:00 AM 15.31 59.558 0.075 6.88 7.87 9.79
5/20/2021 3:30:00 AM 15.21 59.378 0.075 6.89 7.77 9.81
5/20/2021 3:45:00 AM 15.12 59.216 0.075 6.9 8.74 9.84
5/20/2021 4:00:00 AM 15.02 59.036 0.075 6.9 8.03 9.86
5/20/2021 4:15:00 AM 14.93 58.874 0.075 6.88 7.9 9.89
5/20/2021 4:30:00 AM 14.85 58.73 0.075 6.89 7.95 9.91
5/20/2021 4:45:00 AM 14.76 58.568 0.075 6.87 7.78 9.93
5/20/2021 5:00:00 AM 14.67 58.406 0.075 6.88 7.54 9.95
5/20/2021 5:15:00 AM 14.58 58.244 0.075 6.88 7.3 9.98
5/20/2021 5:30:00 AM 14.49 58.082 0.075 6.89 8.34 10.01
5/20/2021 5:45:00 AM 14.39 57.902 0.075 6.9 8.07 10.03
5/20/2021 6:00:00 AM 14.3 57.74 0.075 6.89 8.28 10.06
5/20/2021 6:15:00 AM 14.21 57.578 0.075 6.9 8.4 10.1
5/20/2021 6:30:00 AM 14.14 57.452 0.075 6.9 7.95 10.16
5/20/2021 6:45:00 AM 14.06 57.308 0.075 6.91 8.53 10.2
5/20/2021 7:00:00 AM 13.99 57.182 0.076 6.91 8.03 10.24
5/20/2021 7:15:00 AM 13.94 57.092 0.075 6.92 8.47 10.31
5/20/2021 7:30:00 AM 13.91 57.038 0.075 6.93 8.14 10.36
5/20/2021 7:45:00 AM 13.9 57.02 0.075 6.94 8.32 10.41
5/20/2021 8:00:00 AM 13.9 57.02 0.075 6.94 7.56 10.47
5/20/2021 8:15:00 AM 13.9 57.02 0.075 6.96 7.78 10.5
5/20/2021 8:30:00 AM 13.95 57.11 0.075 6.98 7.47 10.54
5/20/2021 8:45:00 AM 14.02 57.236 0.075 6.99 7.9 10.57
5/20/2021 9:00:00 AM 14.09 57.362 0.075 6.98 8.18 10.59
5/20/2021 9:15:00 AM 14.19 57.542 0.075 6.99 8.21 10.6
5/20/2021 9:30:00 AM 14.3 57.74 0.075 7.01 7.46 10.61
5/20/2021 9:45:00 AM 14.45 58.01 0.075 7.01 8.16 10.61
5/20/2021 10:00:00 AM 14.6 58.28 0.075 7.01 7.3 10.6
5/20/2021 10:15:00 AM 14.76 58.568 0.075 7.03 7.19 10.59
5/20/2021 10:30:00 AM 14.97 58.946 0.075 7.04 7.85 10.57
5/20/2021 10:45:00 AM 15.16 59.288 0.075 7.04 7.4 10.55
5/20/2021 11:00:00 AM 15.38 59.684 0.075 7.06 7.83 10.52
5/20/2021 11:15:00 AM 15.62 60.116 0.075 7.06 7.83 10.48
5/20/2021 11:30:00 AM 15.86 60.548 0.075 7.07 7.93 10.44
5/20/2021 11:45:00 AM 16.11 60.998 0.075 7.07 8.3 10.41
5/20/2021 12:00:00 PM 16.38 61.484 0.075 7.08 8.97 10.37
5/20/2021 12:15:00 PM 16.65 61.97 0.075 7.09 8.1 10.32
5/20/2021 12:30:00 PM 16.93 62.474 0.075 7.1 8.46 10.28
5/20/2021 12:45:00 PM 17.2 62.96 0.075 7.11 7.6 10.22
5/20/2021 1:00:00 PM 17.48 63.464 0.075 7.11 8.07 10.17
5/20/2021 1:15:00 PM 17.77 63.986 0.075 7.12 8.42 10.12
5/20/2021 1:30:00 PM 18.07 64.526 0.075 7.12 7.03 10.07
5/20/2021 1:45:00 PM 18.35 65.03 0.075 7.1 7.06 10.01
5/20/2021 2:00:00 PM 18.61 65.498 0.075 7.13 6.49 9.97
5/20/2021 2:15:00 PM 18.87 65.966 0.075 7.12 8.03 9.92
5/20/2021 2:30:00 PM 19.12 66.416 0.075 7.13 9.24 9.86
5/20/2021 2:45:00 PM 19.37 66.866 0.075 7.14 9.24 9.82
5/20/2021 3:00:00 PM 19.61 67.298 0.075 7.14 9.21 9.75
5/20/2021 3:15:00 PM 19.87 67.766 0.075 7.15 9.07 9.69
5/20/2021 3:30:00 PM 20.1 68.18 0.075 7.16 8.37 9.65
5/20/2021 3:45:00 PM 20.29 68.522 0.075 7.16 8.95 9.6
5/20/2021 4:00:00 PM 20.47 68.846 0.074 7.16 8.4 9.55
5/20/2021 4:15:00 PM 20.63 69.134 0.074 7.15 8.66 9.51
5/20/2021 4:30:00 PM 20.76 69.368 0.074 7.15 8.32 9.45
5/20/2021 4:45:00 PM 20.86 69.548 0.074 7.15 8.28 9.41
5/20/2021 5:00:00 PM 20.95 69.71 0.074 7.14 8.01 9.37
5/20/2021 5:15:00 PM 21.01 69.818 0.074 7.14 7.53 9.33
5/20/2021 5:30:00 PM 21.05 69.89 0.074 7.12 7.45 9.3
5/20/2021 5:45:00 PM 21.08 69.944 0.074 7.13 6.9 9.28
5/20/2021 6:00:00 PM 21.08 69.944 0.074 7.13 8.13 9.24
5/20/2021 6:15:00 PM 21.06 69.908 0.074 7.12 8.04 9.2
5/20/2021 6:30:00 PM 20.96 69.728 0.074 7.11 9.04 9.15
5/20/2021 6:45:00 PM 20.88 69.584 0.074 7.1 9.77 9.11
5/20/2021 7:00:00 PM 20.81 69.458 0.074 7.09 9.72 9.09
5/20/2021 7:15:00 PM 20.7 69.26 0.075 7.08 8.86 9.05
5/20/2021 7:30:00 PM 20.58 69.044 0.075 7.07 8.54 9.03
5/20/2021 7:45:00 PM 20.46 68.828 0.075 7.05 8.41 9.01
5/20/2021 8:00:00 PM 20.33 68.594 0.075 7.04 8.47 8.98
5/20/2021 8:15:00 PM 20.19 68.342 0.075 7.02 8.4 8.96
5/20/2021 8:30:00 PM 20.03 68.054 0.075 7 9.05 8.95
5/20/2021 8:45:00 PM 19.86 67.748 0.075 6.99 8.66 8.94
5/20/2021 9:00:00 PM 19.7 67.46 0.076 6.98 9.12 8.94
5/20/2021 9:15:00 PM 19.54 67.172 0.076 6.96 9.02 8.94
5/20/2021 9:30:00 PM 19.39 66.902 0.076 6.96 8.78 8.96
5/20/2021 9:45:00 PM 19.24 66.632 0.076 6.96 9.7 8.97
5/20/2021 10:00:00 PM 19.1 66.38 0.076 6.95 8.86 9
5/20/2021 10:15:00 PM 18.95 66.11 0.076 6.95 9.8 9.03
5/20/2021 10:30:00 PM 18.81 65.858 0.076 6.94 10.69 9.05
5/20/2021 10:45:00 PM 18.66 65.588 0.076 6.93 10.13 9.07
5/20/2021 11:00:00 PM 18.52 65.336 0.077 6.94 9.54 9.1
5/20/2021 11:15:00 PM 18.39 65.102 0.076 6.94 10.31 9.12
5/20/2021 11:30:00 PM 18.25 64.85 0.077 6.93 8.89 9.15
5/20/2021 11:45:00 PM 18.12 64.616 0.077 6.93 9.66 9.17
5/21/2021 12:00:00 AM 17.99 64.382 0.077 6.93 9.45 9.2
5/21/2021 12:15:00 AM 17.86 64.148 0.077 6.93 9.82 9.19
5/21/2021 12:30:00 AM 17.74 63.932 0.077 6.93 9.92 9.26
5/21/2021 12:45:00 AM 17.61 63.698 0.077 6.92 10.24 9.28
5/21/2021 1:00:00 AM 17.49 63.482 0.077 6.91 10.93 9.32
5/21/2021 1:15:00 AM 17.38 63.284 0.077 6.9 11.23 9.34
5/21/2021 1:30:00 AM 17.26 63.068 0.078 6.91 11.03 9.37
5/21/2021 1:45:00 AM 17.15 62.87 0.077 6.91 12.06 9.39
5/21/2021 2:00:00 AM 17.05 62.69 0.077 6.91 10.91 9.41
5/21/2021 2:15:00 AM 16.94 62.492 0.077 6.92 10.8 9.44
5/21/2021 2:30:00 AM 16.83 62.294 0.077 6.92 10.14 9.46
5/21/2021 2:45:00 AM 16.73 62.114 0.078 6.92 10.69 9.49
5/21/2021 3:00:00 AM 16.63 61.934 0.077 6.92 11.06 9.51
5/21/2021 3:15:00 AM 16.53 61.754 0.077 6.92 10.71 9.54
5/21/2021 3:30:00 AM 16.43 61.574 0.077 6.91 10.94 9.56
5/21/2021 3:45:00 AM 16.32 61.376 0.077 6.91 11.1 9.59
5/21/2021 4:00:00 AM 16.22 61.196 0.078 6.91 11.26 9.61
5/21/2021 4:15:00 AM 16.12 61.016 0.077 6.91 10.86 9.64
5/21/2021 4:30:00 AM 16.02 60.836 0.077 6.91 10.83 9.66
5/21/2021 4:45:00 AM 15.92 60.656 0.078 6.91 13.15 9.69
5/21/2021 5:00:00 AM 15.82 60.476 0.078 6.91 11.47 9.71
5/21/2021 5:15:00 AM 15.72 60.296 0.078 6.91 12.25 9.74
5/21/2021 5:30:00 AM 15.61 60.098 0.078 6.9 8.69 9.76
5/21/2021 5:45:00 AM 15.51 59.918 0.078 6.9 8.81 9.79
5/21/2021 6:00:00 AM 15.41 59.738 0.078 6.92 8.51 9.83
5/21/2021 6:15:00 AM 15.31 59.558 0.078 6.92 10.68 9.88
5/21/2021 6:30:00 AM 15.22 59.396 0.078 6.92 8.07 9.93
5/21/2021 6:45:00 AM 15.14 59.252 0.078 6.93 8.75 9.98
5/21/2021 7:00:00 AM 15.07 59.126 0.078 6.93 7.95 10.05
5/21/2021 7:15:00 AM 15.01 59.018 0.078 6.94 8 10.09
5/21/2021 7:30:00 AM 14.98 58.964 0.078 6.96 8.2 10.15
5/21/2021 7:45:00 AM 14.96 58.928 0.078 6.97 8.18 10.22
5/21/2021 8:00:00 AM 14.97 58.946 0.078 6.98 7.87 10.26
5/21/2021 8:15:00 AM 15 59 0.078 6.99 7.83 10.31
5/21/2021 8:30:00 AM 15.04 59.072 0.078 7 8.33 10.35
5/21/2021 8:45:00 AM 15.1 59.18 0.077 7.01 8.23 10.38
5/21/2021 9:00:00 AM 15.18 59.324 0.077 7.02 8.37 10.39
5/21/2021 9:15:00 AM 15.3 59.54 0.077 7.03 8.19 10.41
5/21/2021 9:30:00 AM 15.44 59.792 0.077 7.04 7.64 10.41
5/21/2021 9:45:00 AM 15.59 60.062 0.077 7.05 7.91 10.41
5/21/2021 10:00:00 AM 15.76 60.368 0.077 7.06 8.05 10.39
5/21/2021 10:15:00 AM 15.97 60.746 0.077 7.06 7.72 10.37
5/21/2021 10:30:00 AM 16.16 61.088 0.077 7.07 8.22 10.35
5/21/2021 10:45:00 AM 16.4 61.52 0.077 7.08 8.53 10.32
5/21/2021 11:00:00 AM 16.64 61.952 0.077 7.09 7.99 10.3
5/21/2021 11:15:00 AM 16.88 62.384 0.077 7.09 8.58 10.26
5/21/2021 11:30:00 AM 17.15 62.87 0.077 7.11 8.01 10.22
5/21/2021 11:45:00 AM 17.4 63.32 0.077 7.11 8.53 10.18
5/21/2021 12:00:00 PM 17.67 63.806 0.077 7.12 8.19 10.14
5/21/2021 12:15:00 PM 17.94 64.292 0.077 7.13 8.66 10.1
5/21/2021 12:30:00 PM 18.23 64.814 0.077 7.14 8.48 10.06
5/21/2021 12:45:00 PM 18.49 65.282 0.077 7.14 8.47 10.01
5/21/2021 1:00:00 PM 18.75 65.75 0.077 7.16 8.54 9.97
5/21/2021 1:15:00 PM 19.02 66.236 0.077 7.17 8.09 9.93
5/21/2021 1:30:00 PM 19.32 66.776 0.077 7.17 8.83 9.88
5/21/2021 1:45:00 PM 19.62 67.316 0.077 7.17 8.35 9.82
5/21/2021 2:00:00 PM 19.87 67.766 0.077 7.17 8.62 9.77
5/21/2021 2:15:00 PM 20.16 68.288 0.077 7.18 8.59 9.72
5/21/2021 2:30:00 PM 20.24 68.432 0.077 7.18 8.23 9.64
5/21/2021 2:45:00 PM 20.37 68.666 0.077 7.18 7.47 9.62
5/21/2021 3:00:00 PM 20.76 69.368 0.076 7.18 9.24 9.58
5/21/2021 3:15:00 PM 21.09 69.962 0.076 7.19 8.59 9.53
5/21/2021 3:30:00 PM 21.18 70.124 0.076 7.19 8.8 9.44
5/21/2021 3:45:00 PM 20.98 69.764 0.076 7.17 7.76 9.36
5/21/2021 4:00:00 PM 21.17 70.106 0.076 7.17 8.47 9.37
5/21/2021 4:15:00 PM 21.46 70.628 0.077 7.18 8.26 9.34
5/21/2021 4:30:00 PM 21.52 70.736 0.077 7.18 8.35 9.3
5/21/2021 4:45:00 PM 21.66 70.988 0.076 7.18 8.64 9.28
5/21/2021 5:00:00 PM 21.75 71.15 0.077 7.19 8.47 9.23
5/21/2021 5:15:00 PM 21.78 71.204 0.077 7.18 8.6 9.21
5/21/2021 5:30:00 PM 21.85 71.33 0.077 7.18 8.31 9.18
5/21/2021 5:45:00 PM 21.88 71.384 0.077 7.17 8.49 9.14
5/21/2021 6:00:00 PM 21.88 71.384 0.077 7.15 8.11 9.1
5/21/2021 6:15:00 PM 21.83 71.294 0.077 7.14 9.02 9.06
5/21/2021 6:30:00 PM 21.8 71.24 0.077 7.13 8.74 9.02
5/21/2021 6:45:00 PM 21.74 71.132 0.077 7.12 8.56 8.96
5/21/2021 7:00:00 PM 21.65 70.97 0.077 7.1 9.06 8.94
5/21/2021 7:15:00 PM 21.53 70.754 0.077 7.09 8.63 8.92
5/21/2021 7:30:00 PM 21.4 70.52 0.077 7.07 8.82 8.88
5/21/2021 7:45:00 PM 21.27 70.286 0.077 7.05 9.18 8.85
5/21/2021 8:00:00 PM 21.15 70.07 0.077 7.04 9.02 8.83
5/21/2021 8:15:00 PM 21.02 69.836 0.078 7.02 9.46 8.8
5/21/2021 8:30:00 PM 20.88 69.584 0.078 7 8.18 8.77
5/21/2021 8:45:00 PM 20.75 69.35 0.078 6.99 8.06 8.76
5/21/2021 9:00:00 PM 20.62 69.116 0.078 6.97 8.75 8.75
5/21/2021 9:15:00 PM 20.49 68.882 0.078 6.96 9.1 8.75
5/21/2021 9:30:00 PM 20.36 68.648 0.078 6.95 8.43 8.77
5/21/2021 9:45:00 PM 20.22 68.396 0.078 6.97 8.25 8.77
5/21/2021 10:00:00 PM 20.09 68.162 0.078 6.95 9.27 8.79
5/21/2021 10:15:00 PM 19.96 67.92799 0.078 6.94 8.91 8.81
5/21/2021 10:30:00 PM 19.83 67.694 0.079 6.93 9.01 8.83
5/21/2021 10:45:00 PM 19.71 67.478 0.079 6.94 8.72 8.85
5/21/2021 11:00:00 PM 19.58 67.244 0.079 6.93 9.56 8.87
5/21/2021 11:15:00 PM 19.47 67.046 0.079 6.92 8.87 8.89
5/21/2021 11:30:00 PM 19.36 66.848 0.079 6.92 9.14 8.91
5/21/2021 11:45:00 PM 19.26 66.668 0.079 6.92 9.41 8.93
5/22/2021 12:00:00 AM 19.14 66.452 0.079 6.92 9.02 8.95
5/22/2021 12:15:00 AM 19.02 66.236 0.079 6.92 8.79 8.98
5/22/2021 12:30:00 AM 18.89 66.002 0.079 6.92 8.38 9
5/22/2021 12:45:00 AM 18.77 65.786 0.079 6.92 8.93 9.02
5/22/2021 1:00:00 AM 18.64 65.552 0.079 6.92 8.48 9.06
5/22/2021 1:15:00 AM 18.51 65.318 0.079 6.91 8.87 9.08
5/22/2021 1:30:00 AM 18.39 65.102 0.079 6.92 9.13 9.11
5/22/2021 1:45:00 AM 18.27 64.886 0.079 6.92 8.92 9.12
5/22/2021 2:00:00 AM 18.15 64.67 0.079 6.92 9.56 9.15
5/22/2021 2:15:00 AM 18.03 64.454 0.08 6.93 8.02 9.18
5/22/2021 2:30:00 AM 17.92 64.256 0.08 6.91 8.73 9.19
5/22/2021 2:45:00 AM 17.8 64.04 0.079 6.91 9.4 9.23
5/22/2021 3:00:00 AM 17.69 63.842 0.079 6.92 8.72 9.25
5/22/2021 3:15:00 AM 17.58 63.644 0.08 6.92 8.43 9.28
5/22/2021 3:30:00 AM 17.47 63.446 0.079 6.92 8.78 9.29
5/22/2021 3:45:00 AM 17.36 63.248 0.079 6.92 9.24 9.33
5/22/2021 4:00:00 AM 17.25 63.05 0.079 6.92 10.13 9.35
5/22/2021 4:15:00 AM 17.15 62.87 0.08 6.91 8.1 9.38
5/22/2021 4:30:00 AM 17.05 62.69 0.08 6.91 8.75 9.4
5/22/2021 4:45:00 AM 16.94 62.492 0.08 6.91 8.93 9.42
5/22/2021 5:00:00 AM 16.84 62.312 0.08 6.91 8.84 9.45
5/22/2021 5:15:00 AM 16.74 62.132 0.08 6.9 9.05 9.47
5/22/2021 5:30:00 AM 16.64 61.952 0.08 6.91 9.72 9.49
5/22/2021 5:45:00 AM 16.55 61.79 0.08 6.91 8.55 9.52
5/22/2021 6:00:00 AM 16.45 61.61 0.08 6.91 8.35 9.54
5/22/2021 6:15:00 AM 16.36 61.448 0.08 6.91 9.2 9.58
5/22/2021 6:30:00 AM 16.28 61.304 0.08 6.92 8.63 9.66
5/22/2021 6:45:00 AM 16.22 61.196 0.08 6.93 8.69 9.73
5/22/2021 7:00:00 AM 16.17 61.106 0.08 6.94 9.32 9.79
5/22/2021 7:15:00 AM 16.1 60.98 0.08 6.95 8.28 9.83
5/22/2021 7:30:00 AM 16.03 60.854 0.08 6.95 8.9 9.87
5/22/2021 7:45:00 AM 16.01 60.818 0.08 6.97 7.97 9.95
5/22/2021 8:00:00 AM 15.99 60.782 0.08 6.98 10.42 10.01
5/22/2021 8:15:00 AM 16.06 60.908 0.08 7 9.8 10.09
5/22/2021 8:30:00 AM 16.04 60.872 0.08 7.01 10.39 10.12
5/22/2021 8:45:00 AM 16.06 60.908 0.08 7.02 10.36 10.14
5/22/2021 9:00:00 AM 16.09 60.962 0.08 7.04 11.22 10.19
5/22/2021 9:15:00 AM 16.13 61.034 0.08 7.05 10.43 10.21
5/22/2021 9:30:00 AM 16.29 61.322 0.079 7.07 10.11 10.24
5/22/2021 9:45:00 AM 16.41 61.538 0.079 7.08 10.21 10.26
5/22/2021 10:00:00 AM 16.52 61.736 0.079 7.09 10.24 10.26
5/22/2021 10:15:00 AM 16.65 61.97 0.079 7.1 10.25 10.26
5/22/2021 10:30:00 AM 16.79 62.222 0.079 7.12 10.01 10.26
5/22/2021 10:45:00 AM 16.95 62.51 0.079 7.13 8.21 10.25
5/22/2021 11:00:00 AM 17.19 62.942 0.079 7.14 8.75 10.22
5/22/2021 11:15:00 AM 17.39 63.302 0.079 7.15 9.83 10.19
5/22/2021 11:30:00 AM 17.64 63.752 0.079 7.16 8.7 10.16
5/22/2021 11:45:00 AM 17.94 64.292 0.079 7.17 8.81 10.12
5/22/2021 12:00:00 PM 18.06 64.508 0.079 7.18 8.87 10.1
5/22/2021 12:15:00 PM 18.15 64.67 0.079 7.19 9.19 10.06
5/22/2021 12:30:00 PM 18.3 64.94 0.079 7.2 8.08 10.03
5/22/2021 12:45:00 PM 18.53 65.354 0.078 7.21 9.12 10
5/22/2021 1:00:00 PM 18.66 65.588 0.078 7.21 7.97 9.95
5/22/2021 1:15:00 PM 19.02 66.236 0.078 7.22 9.05 9.94
5/22/2021 1:30:00 PM 19.16 66.488 0.078 7.24 8.46 9.89
5/22/2021 1:45:00 PM 19.27 66.686 0.078 7.24 8.68 9.87
5/22/2021 2:00:00 PM 19.36 66.848 0.078 7.25 8.94 9.83
5/22/2021 2:15:00 PM 19.43 66.974 0.078 7.25 9.35 9.81
5/22/2021 2:30:00 PM 19.52 67.136 0.078 7.26 8.92 9.78
5/22/2021 2:45:00 PM 19.53 67.154 0.078 7.27 8.98 9.72
5/22/2021 3:00:00 PM 19.53 67.154 0.078 7.23 10.16 9.67
5/22/2021 3:15:00 PM 19.6 67.28 0.078 7.23 9.79 9.66
5/22/2021 3:30:00 PM 19.74 67.532 0.078 7.24 7.62 9.66
5/22/2021 3:45:00 PM 19.86 67.748 0.078 7.25 8.03 9.65
5/22/2021 4:00:00 PM 20.12 68.216 0.078 7.25 7.27 9.63
5/22/2021 4:15:00 PM 20.37 68.666 0.078 7.25 8.68 9.59
5/22/2021 4:30:00 PM 20.46 68.828 0.078 7.25 7.48 9.54
5/22/2021 4:45:00 PM 20.42 68.756 0.078 7.23 7.99 9.47
5/22/2021 5:00:00 PM 20.35 68.63 0.078 7.22 7.88 9.44
5/22/2021 5:15:00 PM 20.37 68.666 0.078 7.21 7.91 9.4
5/22/2021 5:30:00 PM 20.32 68.576 0.078 7.19 7.88 9.33
5/22/2021 5:45:00 PM 20.34 68.612 0.078 7.18 7.58 9.31
5/22/2021 6:00:00 PM 20.34 68.612 0.078 7.17 7.14 9.27
5/22/2021 6:15:00 PM 20.31 68.558 0.078 7.16 7.16 9.25
5/22/2021 6:30:00 PM 20.26 68.468 0.079 7.15 7.89 9.2
5/22/2021 6:45:00 PM 20.18 68.324 0.079 7.12 8.23 9.14
5/22/2021 7:00:00 PM 20.11 68.198 0.079 7.1 7.14 9.08
5/22/2021 7:15:00 PM 20.03 68.054 0.079 7.09 7.48 9.08
5/22/2021 7:30:00 PM 19.96 67.92799 0.079 7.08 8.05 9.09
5/22/2021 7:45:00 PM 19.89 67.802 0.079 7.07 7.51 9.05
5/22/2021 8:00:00 PM 19.82 67.676 0.079 7.05 7.19 9.01
5/22/2021 8:15:00 PM 19.75 67.55 0.08 7.03 8.38 8.98
5/22/2021 8:30:00 PM 19.68 67.424 0.08 7.02 7.75 8.96
5/22/2021 8:45:00 PM 19.61 67.298 0.08 7 7.42 8.93
5/22/2021 9:00:00 PM 19.53 67.154 0.08 6.99 7.19 8.92
5/22/2021 9:15:00 PM 19.46 67.028 0.08 6.98 8.7 8.91
5/22/2021 9:30:00 PM 19.39 66.902 0.08 6.98 8.32 8.9
5/22/2021 9:45:00 PM 19.32 66.776 0.08 6.97 8.01 8.9
5/22/2021 10:00:00 PM 19.24 66.632 0.08 6.96 8.29 8.91
5/22/2021 10:15:00 PM 19.17 66.506 0.08 6.95 8.52 8.92
5/22/2021 10:30:00 PM 19.1 66.38 0.081 6.95 8.56 8.92
5/22/2021 10:45:00 PM 19.04 66.272 0.081 6.94 8.84 8.93
5/22/2021 11:00:00 PM 18.97 66.146 0.081 6.94 8.76 8.94
5/22/2021 11:15:00 PM 18.89 66.002 0.081 6.93 9.12 8.95
5/22/2021 11:30:00 PM 18.81 65.858 0.081 6.92 8.64 8.96
5/22/2021 11:45:00 PM 18.75 65.75 0.081 6.92 8.89 8.97
5/23/2021 12:00:00 AM 18.68 65.624 0.081 6.91 9.16 8.99
5/23/2021 12:15:00 AM 18.62 65.516 0.081 6.9 7.84 8.99
5/23/2021 12:30:00 AM 18.55 65.39 0.081 6.9 7.69 9
5/23/2021 12:45:00 AM 18.49 65.282 0.081 6.91 10.13 9.02
5/23/2021 1:00:00 AM 18.4 65.12 0.081 6.91 9.62 9.04
5/23/2021 1:15:00 AM 18.33 64.994 0.081 6.92 9.51 9.05
5/23/2021 1:30:00 AM 18.24 64.832 0.081 6.91 13.22 9.07
5/23/2021 1:45:00 AM 18.16 64.688 0.082 6.91 9.64 9.08
5/23/2021 2:00:00 AM 18.09 64.562 0.082 6.91 10.93 9.09
5/23/2021 2:15:00 AM 18.02 64.436 0.082 6.91 9.83 9.12
5/23/2021 2:30:00 AM 17.96 64.328 0.082 6.91 11.53 9.12
5/23/2021 2:45:00 AM 17.89 64.202 0.082 6.91 11.21 9.14
5/23/2021 3:00:00 AM 17.83 64.094 0.082 6.9 11.48 9.15
5/23/2021 3:15:00 AM 17.75 63.95 0.082 6.9 12.06 9.17
5/23/2021 3:30:00 AM 17.68 63.824 0.082 6.91 10.25 9.18
5/23/2021 3:45:00 AM 17.6 63.68 0.082 6.9 10.2 9.2
5/23/2021 4:00:00 AM 17.52 63.536 0.082 6.9 12.09 9.21
5/23/2021 4:15:00 AM 17.44 63.392 0.082 6.91 10.71 9.22
5/23/2021 4:30:00 AM 17.36 63.248 0.082 6.9 10.11 9.24
5/23/2021 4:45:00 AM 17.28 63.104 0.082 6.9 11.9 9.26
5/23/2021 5:00:00 AM 17.2 62.96 0.082 6.9 10.12 9.28
5/23/2021 5:15:00 AM 17.12 62.816 0.082 6.9 11.3 9.29
5/23/2021 5:30:00 AM 17.04 62.672 0.082 6.91 10.41 9.3
5/23/2021 5:45:00 AM 16.97 62.546 0.082 6.91 10.52 9.33
5/23/2021 6:00:00 AM 16.89 62.402 0.082 6.91 11.1 9.36
5/23/2021 6:15:00 AM 16.82 62.276 0.082 6.92 10.37 9.4
5/23/2021 6:30:00 AM 16.76 62.168 0.082 6.92 11.6 9.45
5/23/2021 6:45:00 AM 16.7 62.06 0.082 6.93 11.18 9.51
5/23/2021 7:00:00 AM 16.66 61.988 0.082 6.94 11.74 9.56
5/23/2021 7:15:00 AM 16.62 61.916 0.082 6.96 11.09 9.61
5/23/2021 7:30:00 AM 16.61 61.898 0.082 6.97 10.92 9.67
5/23/2021 7:45:00 AM 16.62 61.916 0.082 6.98 12.18 9.72
5/23/2021 8:00:00 AM 16.66 61.988 0.082 7.01 12.12 9.77
5/23/2021 8:15:00 AM 16.71 62.078 0.082 7.02 12.46 9.81
5/23/2021 8:30:00 AM 16.78 62.204 0.081 7.03 13.32 9.84
5/23/2021 8:45:00 AM 16.86 62.348 0.081 7.05 13.03 9.87
5/23/2021 9:00:00 AM 16.98 62.564 0.081 7.07 12.61 9.89
5/23/2021 9:15:00 AM 17.12 62.816 0.081 7.09 12.48 9.9
5/23/2021 9:30:00 AM 17.24 63.032 0.081 7.11 12.05 9.91
5/23/2021 9:45:00 AM 17.34 63.212 0.081 7.13 13.84 9.92
5/23/2021 10:00:00 AM 17.47 63.446 0.081 7.15 11.59 9.93
5/23/2021 10:15:00 AM 17.71 63.878 0.081 7.16 12.94 9.92
5/23/2021 10:30:00 AM 17.98 64.364 0.081 7.18 14.02 9.93
5/23/2021 10:45:00 AM 18.18 64.724 0.081 7.18 12.7 9.9
5/23/2021 11:00:00 AM 18.28 64.904 0.081 7.2 12 9.87
5/23/2021 11:15:00 AM 18.51 65.318 0.081 7.2 12.19 9.86
5/23/2021 11:30:00 AM 18.66 65.588 0.081 7.21 12.79 9.83
5/23/2021 11:45:00 AM 18.79 65.82201 0.081 7.22 12.16 9.82
5/23/2021 12:00:00 PM 18.99 66.182 0.081 7.23 11.14 9.8
5/23/2021 12:15:00 PM 19.06 66.308 0.08 7.24 12.29 9.78
5/23/2021 12:30:00 PM 19.13 66.434 0.08 7.24 11.36 9.75
5/23/2021 12:45:00 PM 19.43 66.974 0.08 7.25 11.27 9.73
5/23/2021 1:00:00 PM 19.62 67.316 0.08 7.25 11.06 9.71
5/23/2021 1:15:00 PM 19.85 67.73 0.08 7.26 9.67 9.67
5/23/2021 1:30:00 PM 20.1 68.18 0.08 7.26 10.91 9.64
5/23/2021 1:45:00 PM 20.48 68.864 0.08 7.28 10.48 9.61
5/23/2021 2:00:00 PM 20.73 69.314 0.08 7.28 10.54 9.57
5/23/2021 2:15:00 PM 20.81 69.458 0.08 7.28 11.64 9.5
5/23/2021 2:30:00 PM 20.82 69.476 0.08 7.28 11.27 9.46
5/23/2021 2:45:00 PM 21.03 69.854 0.08 7.28 11.87 9.45
5/23/2021 3:00:00 PM 21.24 70.232 0.08 7.28 12.23 9.4
5/23/2021 3:15:00 PM 21.44 70.592 0.08 7.27 12.94 9.36
5/23/2021 3:30:00 PM 21.59 70.862 0.08 7.28 11.34 9.33
5/23/2021 3:45:00 PM 21.61 70.898 0.08 7.29 10.75 9.3
5/23/2021 4:00:00 PM 21.84 71.312 0.08 7.29 12.85 9.28
5/23/2021 4:15:00 PM 21.98 71.564 0.08 7.29 12.65 9.23
5/23/2021 4:30:00 PM 21.82 71.276 0.08 7.27 12.97 9.15
5/23/2021 4:45:00 PM 21.75 71.15 0.08 7.25 10.82 9.11
5/23/2021 5:00:00 PM 21.72 71.096 0.08 7.25 12.83 9.11
5/23/2021 5:15:00 PM 21.7 71.06 0.08 7.24 12.72 9.08
5/23/2021 5:30:00 PM 21.7 71.06 0.08 7.25 10.97 9.07
5/23/2021 5:45:00 PM 21.66 70.988 0.08 7.23 9.2 9.03
5/23/2021 6:00:00 PM 21.67 71.006 0.08 7.22 10.13 9.02
5/23/2021 6:15:00 PM 21.64 70.952 0.08 7.21 11.23 8.97
5/23/2021 6:30:00 PM 21.58 70.844 0.081 7.2 13.31 8.93
5/23/2021 6:45:00 PM 21.55 70.79 0.081 7.19 11.04 8.93
5/23/2021 7:00:00 PM 21.49 70.682 0.081 7.17 11.41 8.89
5/23/2021 7:15:00 PM 21.4 70.52 0.081 7.14 11.73 8.82
5/23/2021 7:30:00 PM 21.32 70.376 0.081 7.09 6.77 8.77
5/23/2021 7:45:00 PM 21.24 70.232 0.081 7.07 6.69 8.72
5/23/2021 8:00:00 PM 21.16 70.088 0.081 7.06 6.82 8.72
5/23/2021 8:15:00 PM 21.08 69.944 0.081 7.05 6.67 8.7
5/23/2021 8:30:00 PM 20.99 69.782 0.082 7.04 6.81 8.64
5/23/2021 8:45:00 PM 20.9 69.62 0.082 7.04 6.66 8.59
5/23/2021 9:00:00 PM 20.83 69.494 0.082 7.03 6.77 8.59
5/23/2021 9:15:00 PM 20.74 69.332 0.082 7.02 6.87 8.59
5/23/2021 9:30:00 PM 20.65 69.17 0.082 7.02 7.37 8.6
5/23/2021 9:45:00 PM 20.57 69.026 0.083 7.01 7.96 8.6
5/23/2021 10:00:00 PM 20.49 68.882 0.083 7 7.58 8.57
5/23/2021 10:15:00 PM 20.4 68.72 0.083 7 7.92 8.58
5/23/2021 10:30:00 PM 20.33 68.594 0.083 7 8.08 8.6
5/23/2021 10:45:00 PM 20.25 68.45 0.083 6.99 8.2 8.63
5/23/2021 11:00:00 PM 20.18 68.324 0.083 6.99 8.15 8.62
5/23/2021 11:15:00 PM 20.12 68.216 0.083 6.99 8.29 8.65
5/23/2021 11:30:00 PM 20.05 68.09 0.083 6.99 8.51 8.67
5/23/2021 11:45:00 PM 19.98 67.964 0.083 6.99 8.65 8.68
5/24/2021 12:00:00 AM 19.91 67.838 0.084 6.99 8.79 8.69
5/24/2021 12:15:00 AM 19.82 67.676 0.084 6.99 8.52 8.72
5/24/2021 12:30:00 AM 19.73 67.514 0.084 6.99 9.04 8.74
5/24/2021 12:45:00 AM 19.64 67.352 0.084 6.99 9.2 8.75
5/24/2021 1:00:00 AM 19.56 67.208 0.084 6.97 8.8 8.77
5/24/2021 1:15:00 AM 19.47 67.046 0.084 6.99 8.83 8.78
5/24/2021 1:30:00 AM 19.39 66.902 0.084 6.98 9.08 8.8
5/24/2021 1:45:00 AM 19.32 66.776 0.084 6.98 8.98 8.82
5/24/2021 2:00:00 AM 19.23 66.614 0.084 6.98 9.35 8.84
5/24/2021 2:15:00 AM 19.13 66.434 0.084 6.98 9.43 8.85
5/24/2021 2:30:00 AM 19.02 66.236 0.084 6.98 9.54 8.88
5/24/2021 2:45:00 AM 18.9 66.02 0.084 6.99 9.62 8.9
5/24/2021 3:00:00 AM 18.8 65.84 0.084 6.99 9.63 8.92
5/24/2021 3:15:00 AM 18.71 65.67799 0.084 6.98 9.5 8.94
5/24/2021 3:30:00 AM 18.63 65.534 0.084 6.98 9.48 8.97
5/24/2021 3:45:00 AM 18.53 65.354 0.084 6.98 9.31 8.98
5/24/2021 4:00:00 AM 18.44 65.192 0.084 6.98 9.03 9
5/24/2021 4:15:00 AM 18.34 65.012 0.084 6.98 10.04 9.02
5/24/2021 4:30:00 AM 18.25 64.85 0.084 6.98 10.11 9.05
5/24/2021 4:45:00 AM 18.16 64.688 0.084 6.98 10.11 9.06
5/24/2021 5:00:00 AM 18.07 64.526 0.084 6.99 10.12 9.08
5/24/2021 5:15:00 AM 17.98 64.364 0.084 6.98 9.81 9.11
5/24/2021 5:30:00 AM 17.87 64.166 0.084 6.98 9.99 9.13
5/24/2021 5:45:00 AM 17.78 64.004 0.084 6.98 9.92 9.15
5/24/2021 6:00:00 AM 17.68 63.824 0.084 6.99 10.25 9.19
5/24/2021 6:15:00 AM 17.61 63.698 0.084 6.99 9.32 9.22
5/24/2021 6:30:00 AM 17.54 63.572 0.084 6.99 10.03 9.27
5/24/2021 6:45:00 AM 17.48 63.464 0.084 7 9.67 9.33
5/24/2021 7:00:00 AM 17.43 63.374 0.084 7.01 10.21 9.39
5/24/2021 7:15:00 AM 17.39 63.302 0.084 7.03 10.49 9.48
5/24/2021 7:30:00 AM 17.37 63.266 0.084 7.05 10.32 9.57
5/24/2021 7:45:00 AM 17.34 63.212 0.084 7.07 10.01 9.65
5/24/2021 8:00:00 AM 17.33 63.194 0.084 7.09 10.74 9.72
5/24/2021 8:15:00 AM 17.32 63.176 0.084 7.1 10.1 9.77
5/24/2021 8:30:00 AM 17.36 63.248 0.084 7.12 10.47 9.84
5/24/2021 8:45:00 AM 17.34 63.212 0.084 7.13 10.14 9.87
5/24/2021 9:00:00 AM 17.39 63.302 0.083 7.15 10.18 9.92
5/24/2021 9:15:00 AM 17.41 63.338 0.083 7.17 9.38 9.95
5/24/2021 9:30:00 AM 17.48 63.464 0.083 7.19 8.5 9.98
5/24/2021 9:45:00 AM 17.56 63.608 0.083 7.2 9.34 10.01
5/24/2021 10:00:00 AM 17.7 63.86 0.083 7.22 9.97 10.03
5/24/2021 10:15:00 AM 17.76 63.968 0.083 7.23 10.2 10.04
5/24/2021 10:30:00 AM 17.87 64.166 0.083 7.25 10.07 10.05
5/24/2021 10:45:00 AM 17.97 64.346 0.082 7.25 9.67 10.06
5/24/2021 11:00:00 AM 18.04 64.472 0.083 7.26 9.92 10.05
5/24/2021 11:15:00 AM 18.13 64.634 0.082 7.28 10.77 10.05
5/24/2021 11:30:00 AM 18.21 64.778 0.082 7.28 11.14 10.02
5/24/2021 11:45:00 AM 18.22 64.796 0.082 7.28 10.17 10
5/24/2021 12:00:00 PM 18.34 65.012 0.082 7.28 10.38 10
5/24/2021 12:15:00 PM 18.51 65.318 0.082 7.3 10.53 10
5/24/2021 12:30:00 PM 18.64 65.552 0.082 7.29 10.93 9.97
5/24/2021 12:45:00 PM 18.81 65.858 0.082 7.31 10.78 9.97
5/24/2021 1:00:00 PM 19.01 66.218 0.082 7.32 11.75 9.94
5/24/2021 1:15:00 PM 19.12 66.416 0.082 7.33 13.55 9.91
5/24/2021 1:30:00 PM 19.15 66.47 0.081 7.33 12.78 9.9
5/24/2021 1:45:00 PM 19.27 66.686 0.081 7.36 12.34 9.89
5/24/2021 2:00:00 PM 19.37 66.866 0.082 7.37 13.54 9.87
5/24/2021 2:15:00 PM 19.57 67.226 0.081 7.37 12.21 9.84
5/24/2021 2:30:00 PM 19.72 67.496 0.082 7.37 11.73 9.81
5/24/2021 2:45:00 PM 19.73 67.514 0.081 7.37 11.42 9.79
5/24/2021 3:00:00 PM 19.68 67.424 0.081 7.36 10.96 9.74
5/24/2021 3:15:00 PM 19.6 67.28 0.081 7.34 11.26 9.69
5/24/2021 3:30:00 PM 19.53 67.154 0.081 7.32 10.8 9.64
5/24/2021 3:45:00 PM 19.52 67.136 0.081 7.3 11.22 9.62
5/24/2021 4:00:00 PM 19.6 67.28 0.081 7.31 11.2 9.64
5/24/2021 4:15:00 PM 19.67 67.406 0.081 7.32 10.92 9.58
5/24/2021 4:30:00 PM 19.69 67.442 0.081 7.33 11.09 9.62
5/24/2021 4:45:00 PM 19.69 67.442 0.082 7.32 10.68 9.59
5/24/2021 5:00:00 PM 19.65 67.37 0.081 7.31 10.61 9.57
5/24/2021 5:15:00 PM 19.6 67.28 0.081 7.3 12.23 9.54
5/24/2021 5:30:00 PM 19.6 67.28 0.081 7.29 10.98 9.55
5/24/2021 5:45:00 PM 19.59 67.262 0.081 7.29 11.64 9.53
5/24/2021 6:00:00 PM 19.55 67.19 0.081 7.28 10.94 9.51
5/24/2021 6:15:00 PM 19.52 67.136 0.081 7.26 10.42 9.48
5/24/2021 6:30:00 PM 19.44 66.992 0.081 7.24 11.46 9.41
5/24/2021 6:45:00 PM 19.37 66.866 0.082 7.21 12.02 9.35
5/24/2021 7:00:00 PM 19.33 66.794 0.082 7.19 12.03 9.31
5/24/2021 7:15:00 PM 19.26 66.668 0.082 7.17 11.2 9.27
5/24/2021 7:30:00 PM 19.19 66.542 0.082 7.15 11.54 9.21
5/24/2021 7:45:00 PM 19.13 66.434 0.082 7.13 11.06 9.18
5/24/2021 8:00:00 PM 19.04 66.272 0.082 7.11 10.4 9.15
5/24/2021 8:15:00 PM 18.97 66.146 0.083 7.1 11.93 9.12
5/24/2021 8:30:00 PM 18.89 66.002 0.083 7.08 10.72 9.08
5/24/2021 8:45:00 PM 18.8 65.84 0.083 7.07 11.34 9.06
5/24/2021 9:00:00 PM 18.72 65.696 0.083 7.06 10.85 9.05
5/24/2021 9:15:00 PM 18.64 65.552 0.083 7.05 10.71 9.04
5/24/2021 9:30:00 PM 18.58 65.444 0.083 7.05 11.86 9.04
5/24/2021 9:45:00 PM 18.51 65.318 0.084 7.04 11.09 9.05
5/24/2021 10:00:00 PM 18.43 65.174 0.084 7.04 12.3 9.05
5/24/2021 10:15:00 PM 18.36 65.048 0.084 7.03 12.15 9.06
5/24/2021 10:30:00 PM 18.3 64.94 0.084 7.03 12.12 9.07
5/24/2021 10:45:00 PM 18.24 64.832 0.084 7.02 14.77 9.07
5/24/2021 11:00:00 PM 18.18 64.724 0.084 7.02 11.62 9.08
5/24/2021 11:15:00 PM 18.13 64.634 0.084 7.02 12.37 9.08
5/24/2021 11:30:00 PM 18.08 64.544 0.085 7.02 12.24 9.09
5/24/2021 11:45:00 PM 18.04 64.472 0.085 7.01 11.88 9.1
5/25/2021 12:00:00 AM 17.99 64.382 0.085 7.01 12.51 9.11
5/25/2021 12:15:00 AM 17.94 64.292 0.085 7.01 12.43 9.12
5/25/2021 12:30:00 AM 17.9 64.22 0.085 7.01 13.08 9.13
5/25/2021 12:45:00 AM 17.85 64.13 0.085 7.01 12.03 9.14
5/25/2021 1:00:00 AM 17.81 64.058 0.085 7.01 13.25 9.15
5/25/2021 1:15:00 AM 17.76 63.968 0.085 7.01 13.58 9.16
5/25/2021 1:30:00 AM 17.73 63.914 0.085 7.01 13.09 9.17
5/25/2021 1:45:00 AM 17.68 63.824 0.085 7.01 13.11 9.17
5/25/2021 2:00:00 AM 17.65 63.77 0.085 7 12.8 9.18
5/25/2021 2:15:00 AM 17.6 63.68 0.086 7 13.24 9.19
5/25/2021 2:30:00 AM 17.56 63.608 0.086 7 12.46 9.2
5/25/2021 2:45:00 AM 17.51 63.518 0.086 7 13.1 9.22
5/25/2021 3:00:00 AM 17.47 63.446 0.086 7 14.84 9.22
5/25/2021 3:15:00 AM 17.43 63.374 0.086 7.01 14.33 9.23
5/25/2021 3:30:00 AM 17.38 63.284 0.086 7.01 14.48 9.24
5/25/2021 3:45:00 AM 17.34 63.212 0.086 7.01 14.98 9.25
5/25/2021 4:00:00 AM 17.29 63.122 0.086 7.01 14.09 9.26
5/25/2021 4:15:00 AM 17.25 63.05 0.086 7.01 15.03 9.27
5/25/2021 4:30:00 AM 17.21 62.978 0.086 7.01 16.35 9.28
5/25/2021 4:45:00 AM 17.16 62.888 0.086 7.01 15.87 9.3
5/25/2021 5:00:00 AM 17.12 62.816 0.086 7.01 16.74 9.31
5/25/2021 5:15:00 AM 17.07 62.726 0.086 7.01 15.11 9.31
5/25/2021 5:30:00 AM 17.02 62.636 0.086 7.01 16.32 9.33
5/25/2021 5:45:00 AM 16.98 62.564 0.087 7.01 16.64 9.34
5/25/2021 6:00:00 AM 16.94 62.492 0.087 7.02 15.73 9.35
5/25/2021 6:15:00 AM 16.9 62.42 0.086 7.02 16.98 9.38
5/25/2021 6:30:00 AM 16.87 62.366 0.086 7.02 18.98 9.4
5/25/2021 6:45:00 AM 16.84 62.312 0.086 7.02 16.35 9.44
5/25/2021 7:00:00 AM 16.8 62.24 0.086 7.02 15.34 9.47
5/25/2021 7:15:00 AM 16.77 62.186 0.087 7.03 17.65 9.5
5/25/2021 7:30:00 AM 16.75 62.15 0.086 7.04 15.97 9.56
5/25/2021 7:45:00 AM 16.73 62.114 0.086 7.05 18.56 9.62
5/25/2021 8:00:00 AM 16.71 62.078 0.086 7.06 17.01 9.67
5/25/2021 8:15:00 AM 16.71 62.078 0.086 7.08 17.38 9.73
5/25/2021 8:30:00 AM 16.71 62.078 0.086 7.09 17.5 9.79
5/25/2021 8:45:00 AM 16.72 62.096 0.086 7.11 31.37 9.85
5/25/2021 9:00:00 AM 16.74 62.132 0.086 7.12 22.8 9.9
5/25/2021 9:15:00 AM 16.77 62.186 0.085 7.14 31.5 9.96
5/25/2021 9:30:00 AM 16.8 62.24 0.085 7.15 18.3 10.01
5/25/2021 9:45:00 AM 16.85 62.33 0.085 7.17 17.95 10.05
5/25/2021 10:00:00 AM 16.9 62.42 0.085 7.18 11.26 10.08
5/25/2021 10:15:00 AM 16.95 62.51 0.085 7.19 18 10.09
5/25/2021 10:30:00 AM 17.04 62.672 0.085 7.21 14.05 10.13
5/25/2021 10:45:00 AM 17.14 62.852 0.085 7.22 13.41 10.15
5/25/2021 11:00:00 AM 17.23 63.014 0.084 7.24 18.74 10.14
5/25/2021 11:15:00 AM 17.37 63.266 0.085 7.25 11.49 10.16
5/25/2021 11:30:00 AM 17.56 63.608 0.084 7.27 10.92 10.16
5/25/2021 11:45:00 AM 17.74 63.932 0.084 7.28 17.48 10.16
5/25/2021 12:00:00 PM 18.14 64.652 0.084 7.3 20.41 10.14
5/25/2021 12:15:00 PM 18.45 65.21 0.084 7.31 17.16 10.1
5/25/2021 12:30:00 PM 18.77 65.786 0.084 7.32 18.05 10.04
5/25/2021 12:45:00 PM 19.13 66.434 0.083 7.32 19.94 9.49
5/25/2021 1:00:00 PM 19.4 66.92 0.084 7.34 15.46 9.94
5/25/2021 1:15:00 PM 19.68 67.424 0.083 7.35 16.3 9.9
5/25/2021 1:30:00 PM 19.95 67.91 0.083 7.36 17.62 9.86
5/25/2021 1:45:00 PM 20.19 68.342 0.084 7.37 16.87 9.81
5/25/2021 2:00:00 PM 20.45 68.81 0.083 7.37 17.45 9.76
5/25/2021 2:15:00 PM 20.7 69.26 0.083 7.38 15.92 9.71
5/25/2021 2:30:00 PM 20.82 69.476 0.083 7.37 18.18 9.63
5/25/2021 2:45:00 PM 21.01 69.818 0.083 7.38 15.77 9.59
5/25/2021 3:00:00 PM 21.21 70.17799 0.083 7.39 17.16 9.53
5/25/2021 3:15:00 PM 21.46 70.628 0.083 7.39 16.13 9.51
5/25/2021 3:30:00 PM 21.59 70.862 0.083 7.39 20.04 9.43
5/25/2021 3:45:00 PM 21.87 71.366 0.083 7.4 15.22 9.41
5/25/2021 4:00:00 PM 21.95 71.51 0.083 7.39 14.2 9.32
5/25/2021 4:15:00 PM 21.94 71.492 0.083 7.38 12.71 9.29
5/25/2021 4:30:00 PM 22.11 71.798 0.083 7.39 18.08 9.27
5/25/2021 4:45:00 PM 22.07 71.726 0.083 7.36 16.6 9.14
5/25/2021 5:00:00 PM 22.01 71.618 0.083 7.32 17.83 9.11
5/25/2021 5:15:00 PM 22 71.6 0.083 7.3 13.16 9.1
5/25/2021 5:30:00 PM 21.98 71.564 0.083 7.29 19.84 9.05
5/25/2021 5:45:00 PM 21.98 71.564 0.083 7.27 14.12 9.05
5/25/2021 6:00:00 PM 22 71.6 0.083 7.27 15.17 9.06
5/25/2021 6:15:00 PM 21.97 71.546 0.083 7.26 16.39 9.02
5/25/2021 6:30:00 PM 21.9 71.42 0.083 7.23 15.55 8.97
5/25/2021 6:45:00 PM 21.86 71.348 0.083 7.22 15.34 8.95
5/25/2021 7:00:00 PM 21.86 71.348 0.083 7.22 14.11 8.97
5/25/2021 7:15:00 PM 21.81 71.258 0.083 7.2 17.41 8.9
5/25/2021 7:30:00 PM 21.72 71.096 0.083 7.17 11.08 8.81
5/25/2021 7:45:00 PM 21.65 70.97 0.083 7.15 16.9 8.76
5/25/2021 8:00:00 PM 21.57 70.826 0.084 7.12 16.63 8.71
5/25/2021 8:15:00 PM 21.49 70.682 0.084 7.1 15.42 8.66
5/25/2021 8:30:00 PM 21.39 70.502 0.084 7.07 17.05 8.6
5/25/2021 8:45:00 PM 21.29 70.32201 0.084 7.06 17.7 8.55
5/25/2021 9:00:00 PM 21.19 70.142 0.084 7.05 10.93 8.53
5/25/2021 9:15:00 PM 21.1 69.98 0.085 7.04 16.7 8.52
5/25/2021 9:30:00 PM 21 69.8 0.085 7.03 11.33 8.5
5/25/2021 9:45:00 PM 20.9 69.62 0.085 7.03 17.46 8.51
5/25/2021 10:00:00 PM 20.79 69.422 0.085 7.02 17.25 8.52
5/25/2021 10:15:00 PM 20.68 69.224 0.085 7.01 14.02 8.52
5/25/2021 10:30:00 PM 20.57 69.026 0.085 7.01 15.88 8.54
5/25/2021 10:45:00 PM 20.46 68.828 0.086 7 14.42 8.55
5/25/2021 11:00:00 PM 20.35 68.63 0.086 7 15.68 8.57
5/25/2021 11:15:00 PM 20.24 68.432 0.086 7 15.75 8.59
5/25/2021 11:30:00 PM 20.13 68.234 0.086 6.99 16.54 8.61
5/25/2021 11:45:00 PM 20.03 68.054 0.086 6.98 19.04 8.63
5/26/2021 12:00:00 AM 19.93 67.874 0.086 6.98 12.63 8.65
5/26/2021 12:15:00 AM 19.84 67.712 0.087 6.98 12.66 8.66
5/26/2021 12:30:00 AM 19.75 67.55 0.086 6.98 27.23 8.68
5/26/2021 12:45:00 AM 19.66 67.388 0.086 6.98 22.78 8.7
5/26/2021 1:00:00 AM 19.56 67.208 0.087 6.98 18.72 8.72
5/26/2021 1:15:00 AM 19.48 67.064 0.087 6.98 15.25 8.73
5/26/2021 1:30:00 AM 19.4 66.92 0.087 6.98 19.17 8.75
5/26/2021 1:45:00 AM 19.32 66.776 0.087 6.98 14.01 8.77
5/26/2021 2:00:00 AM 19.24 66.632 0.087 6.99 25.04 8.78
5/26/2021 2:15:00 AM 19.17 66.506 0.087 6.98 13.86 8.8
5/26/2021 2:30:00 AM 19.12 66.416 0.087 6.99 19.67 8.81
5/26/2021 2:45:00 AM 19.06 66.308 0.087 6.98 14.61 8.82
5/26/2021 3:00:00 AM 19.01 66.218 0.088 6.99 15.2 8.83
5/26/2021 3:15:00 AM 18.95 66.11 0.087 6.99 21.29 8.85
5/26/2021 3:30:00 AM 18.89 66.002 0.087 7 21.68 8.86
5/26/2021 3:45:00 AM 18.82 65.876 0.088 7 26.92 8.87
5/26/2021 4:00:00 AM 18.76 65.768 0.088 7 21.26 8.88
5/26/2021 4:15:00 AM 18.69 65.642 0.088 7.01 22.72 8.9
5/26/2021 4:30:00 AM 18.62 65.516 0.088 7.01 18.87 8.92
5/26/2021 4:45:00 AM 18.56 65.408 0.088 7.01 21.88 8.93
5/26/2021 5:00:00 AM 18.5 65.3 0.088 7.01 15.43 8.94
5/26/2021 5:15:00 AM 18.43 65.174 0.088 7.01 17.85 8.96
5/26/2021 5:30:00 AM 18.37 65.066 0.088 7.01 21.82 8.97
5/26/2021 5:45:00 AM 18.31 64.958 0.088 7.01 21.63 8.99
5/26/2021 6:00:00 AM 18.25 64.85 0.088 7.02 17.6 9.01
5/26/2021 6:15:00 AM 18.19 64.742 0.088 7.02 22.47 9.05
5/26/2021 6:30:00 AM 18.13 64.634 0.088 7.02 22.5 9.1
5/26/2021 6:45:00 AM 18.08 64.544 0.088 7.03 13.77 9.13
5/26/2021 7:00:00 AM 18.04 64.472 0.088 7.04 21.89 9.2
5/26/2021 7:15:00 AM 18.02 64.436 0.088 7.05 19.99 9.3
5/26/2021 7:30:00 AM 17.99 64.382 0.088 7.06 18.96 9.34
5/26/2021 7:45:00 AM 17.95 64.31 0.088 7.07 13.92 9.36
5/26/2021 8:00:00 AM 17.93 64.274 0.088 7.08 33.87 9.43
5/26/2021 8:15:00 AM 17.93 64.274 0.088 7.1 17.8 9.52
5/26/2021 8:30:00 AM 17.96 64.328 0.087 7.12 14.98 9.63
5/26/2021 8:45:00 AM 18.05 64.49 0.087 7.15 26.34 9.71
5/26/2021 9:00:00 AM 18.14 64.652 0.087 7.17 31.35 9.76
5/26/2021 9:15:00 AM 18.24 64.832 0.087 7.19 18.47 9.78
5/26/2021 9:30:00 AM 18.36 65.048 0.087 7.21 15.14 9.81
5/26/2021 9:45:00 AM 18.49 65.282 0.087 7.22 15.2 9.82
5/26/2021 10:00:00 AM 18.64 65.552 0.086 7.24 19.43 9.84
5/26/2021 10:15:00 AM 18.81 65.858 0.086 7.26 22.01 9.83
5/26/2021 10:30:00 AM 18.97 66.146 0.086 7.28 21.1 9.83
5/26/2021 10:45:00 AM 19.19 66.542 0.086 7.29 14.74 9.82
5/26/2021 11:00:00 AM 19.43 66.974 0.086 7.32 20.99 9.81
5/26/2021 11:15:00 AM 19.58 67.244 0.086 7.33 15.95 9.78
5/26/2021 11:30:00 AM 19.79 67.622 0.086 7.34 18.72 9.75
5/26/2021 11:45:00 AM 20.01 68.018 0.086 7.35 19.28 9.71
5/26/2021 12:00:00 PM 20.32 68.576 0.086 7.37 22.72 9.69
5/26/2021 12:15:00 PM 20.55 68.99 0.086 7.38 14.96 9.65
5/26/2021 12:30:00 PM 20.53 68.954 0.086 7.38 19.69 9.58
5/26/2021 12:45:00 PM 20.59 69.062 0.086 7.38 22.73 9.56
5/26/2021 1:00:00 PM 20.58 69.044 0.085 7.37 20.19 9.5
5/26/2021 1:15:00 PM 20.77 69.386 0.085 7.38 21.18 9.51
5/26/2021 1:30:00 PM 20.95 69.71 0.085 7.4 30.38 9.5
5/26/2021 1:45:00 PM 21.02 69.836 0.085 7.42 21.85 9.49
5/26/2021 2:00:00 PM 21.01 69.818 0.085 7.41 21.91 9.4
5/26/2021 2:15:00 PM 20.96 69.728 0.085 7.38 21.19 9.34
5/26/2021 2:30:00 PM 21.28 70.304 0.085 7.38 21.11 9.39
5/26/2021 2:45:00 PM 21.73 71.114 0.085 7.41 18.76 9.38
5/26/2021 3:00:00 PM 22.08 71.744 0.085 7.43 21.64 9.35
5/26/2021 3:15:00 PM 22.32 72.176 0.085 7.44 16.52 9.32
5/26/2021 3:30:00 PM 22.53 72.554 0.085 7.44 17.51 9.27
5/26/2021 3:45:00 PM 22.72 72.896 0.085 7.45 14.5 9.24
5/26/2021 4:00:00 PM 22.62 72.716 0.085 7.43 14.96 9.13
5/26/2021 4:15:00 PM 22.5 72.5 0.085 7.41 15.58 9.11
5/26/2021 4:30:00 PM 22.57 72.626 0.085 7.41 15.13 9.12
5/26/2021 4:45:00 PM 22.65 72.77 0.085 7.41 14.82 9.09
5/26/2021 5:00:00 PM 22.63 72.734 0.085 7.41 14.86 9.06
5/26/2021 5:15:00 PM 22.67 72.806 0.084 7.41 14.97 9.05
5/26/2021 5:30:00 PM 22.72 72.896 0.084 7.41 14.97 9
5/26/2021 5:45:00 PM 22.68 72.824 0.085 7.38 14.46 8.93
5/26/2021 6:00:00 PM 22.57 72.626 0.084 7.34 14.09 8.84
5/26/2021 6:15:00 PM 22.47 72.446 0.085 7.31 13.5 8.77
5/26/2021 6:30:00 PM 22.43 72.374 0.085 7.29 14.19 8.77
5/26/2021 6:45:00 PM 22.35 72.23 0.085 7.27 13.83 8.69
5/26/2021 7:00:00 PM 22.27 72.086 0.085 7.23 14.21 8.59
5/26/2021 7:15:00 PM 22.18 71.924 0.085 7.2 14.5 8.55
5/26/2021 7:30:00 PM 22.1 71.78 0.085 7.18 15.32 8.53
5/26/2021 7:45:00 PM 22.01 71.618 0.085 7.17 15.49 8.5
5/26/2021 8:00:00 PM 21.92 71.456 0.085 7.15 15.44 8.46
5/26/2021 8:15:00 PM 21.82 71.276 0.086 7.13 15.23 8.43
5/26/2021 8:30:00 PM 21.71 71.078 0.086 7.12 15.13 8.39
5/26/2021 8:45:00 PM 21.6 70.88 0.086 7.1 15.34 8.36
5/26/2021 9:00:00 PM 21.49 70.682 0.086 7.08 12.09 8.35
5/26/2021 9:15:00 PM 21.38 70.484 0.086 7.07 17.32 8.35
5/26/2021 9:30:00 PM 21.26 70.268 0.086 7.06 34 8.35
5/26/2021 9:45:00 PM 21.15 70.07 0.087 7.05 11.63 8.37
5/26/2021 10:00:00 PM 21.04 69.872 0.087 7.05 8.51 8.38
5/26/2021 10:15:00 PM 20.92 69.656 0.087 7.04 11.39 8.39
5/26/2021 10:30:00 PM 20.81 69.458 0.087 7.04 12.09 8.41
5/26/2021 10:45:00 PM 20.68 69.224 0.087 7.03 11.39 8.42
5/26/2021 11:00:00 PM 20.57 69.026 0.087 7.02 11.87 8.44
5/26/2021 11:15:00 PM 20.45 68.81 0.087 7.02 12.89 8.47
5/26/2021 11:30:00 PM 20.33 68.594 0.087 7.01 12.29 8.49
5/26/2021 11:45:00 PM 20.22 68.396 0.088 7.01 11.55 8.51
5/27/2021 12:00:00 AM 20.12 68.216 0.087 7.01 10.77 8.53
5/27/2021 12:15:00 AM 20.02 68.036 0.088 7 10.2 8.55
5/27/2021 12:30:00 AM 19.92 67.856 0.088 6.99 10.07 8.58
5/27/2021 12:45:00 AM 19.82 67.676 0.088 7 10.55 8.6
5/27/2021 1:00:00 AM 19.71 67.478 0.088 7 7.85 8.62
5/27/2021 1:15:00 AM 19.63 67.334 0.088 7.01 11.02 8.65
5/27/2021 1:30:00 AM 19.53 67.154 0.088 7.01 11.06 8.67
5/27/2021 1:45:00 AM 19.43 66.974 0.088 7 10.95 8.69
5/27/2021 2:00:00 AM 19.34 66.812 0.088 7 9.7 8.71
5/27/2021 2:15:00 AM 19.24 66.632 0.089 7.01 10.83 8.73
5/27/2021 2:30:00 AM 19.13 66.434 0.088 7.01 9.35 8.75
5/27/2021 2:45:00 AM 19.03 66.254 0.089 7 8.16 8.78
5/27/2021 3:00:00 AM 18.94 66.092 0.089 7.01 9.24 8.79
5/27/2021 3:15:00 AM 18.85 65.93 0.089 7.01 8.56 8.81
5/27/2021 3:30:00 AM 18.77 65.786 0.089 7 8.4 8.85
5/27/2021 3:45:00 AM 18.68 65.624 0.089 7 8.02 8.87
5/27/2021 4:00:00 AM 18.58 65.444 0.089 7.02 8.92 8.89
5/27/2021 4:15:00 AM 18.48 65.264 0.089 7.03 7.95 8.91
5/27/2021 4:30:00 AM 18.37 65.066 0.089 7.03 8.16 8.93
5/27/2021 4:45:00 AM 18.27 64.886 0.089 7.02 8.15 8.95
5/27/2021 5:00:00 AM 18.17 64.706 0.089 7.02 8.36 8.97
5/27/2021 5:15:00 AM 18.06 64.508 0.089 7.03 8.33 8.99
5/27/2021 5:30:00 AM 17.96 64.328 0.089 7.03 8.46 9.02
5/27/2021 5:45:00 AM 17.86 64.148 0.089 7.02 8.55 9.04
5/27/2021 6:00:00 AM 17.77 63.986 0.089 7.03 8.87 9.08
5/27/2021 6:15:00 AM 17.68 63.824 0.089 7.03 8.28 9.15
5/27/2021 6:30:00 AM 17.59 63.662 0.089 7.05 8.02 9.21
5/27/2021 6:45:00 AM 17.49 63.482 0.089 7.05 8.26 9.28
5/27/2021 7:00:00 AM 17.41 63.338 0.089 7.06 8.24 9.33
5/27/2021 7:15:00 AM 17.34 63.212 0.089 7.08 8.07 9.39
5/27/2021 7:30:00 AM 17.29 63.122 0.089 7.08 8.95 9.46
5/27/2021 7:45:00 AM 17.28 63.104 0.089 7.09 8 9.52
5/27/2021 8:00:00 AM 17.3 63.14 0.088 7.1 7.83 9.6
5/27/2021 8:15:00 AM 17.32 63.176 0.088 7.12 7.68 9.65
5/27/2021 8:30:00 AM 17.34 63.212 0.088 7.14 8.22 9.7
5/27/2021 8:45:00 AM 17.37 63.266 0.088 7.16 7.79 9.75
5/27/2021 9:00:00 AM 17.42 63.356 0.088 7.18 7.93 9.78
5/27/2021 9:15:00 AM 17.49 63.482 0.088 7.2 7.84 9.82
5/27/2021 9:30:00 AM 17.59 63.662 0.088 7.21 7.89 9.84
5/27/2021 9:45:00 AM 17.7 63.86 0.087 7.23 7.84 9.86
5/27/2021 10:00:00 AM 17.81 64.058 0.088 7.24 7.78 9.87
5/27/2021 10:15:00 AM 17.92 64.256 0.087 7.25 7.82 9.88
5/27/2021 10:30:00 AM 18.07 64.526 0.087 7.26 7.88 9.88
5/27/2021 10:45:00 AM 18.24 64.832 0.087 7.28 9.99 9.87
5/27/2021 11:00:00 AM 18.43 65.174 0.087 7.31 8.78 9.86
5/27/2021 11:15:00 AM 18.64 65.552 0.087 7.3 8.85 9.84
5/27/2021 11:30:00 AM 18.86 65.948 0.087 7.29 10.68 9.82
5/27/2021 11:45:00 AM 19.06 66.308 0.087 7.28 8.52 9.81
5/27/2021 12:00:00 PM 19.28 66.704 0.087 7.28 8.09 9.78
5/27/2021 12:15:00 PM 19.5 67.1 0.087 7.29 7.87 9.76
5/27/2021 12:30:00 PM 19.73 67.514 0.087 7.3 7.45 9.73
5/27/2021 12:45:00 PM 19.95 67.91 0.086 7.31 7.8 9.71
5/27/2021 1:00:00 PM 20.18 68.324 0.087 7.32 7.38 9.69
5/27/2021 1:15:00 PM 20.37 68.666 0.087 7.34 7.49 9.67
5/27/2021 1:30:00 PM 20.58 69.044 0.087 7.37 7.6 9.67
5/27/2021 1:45:00 PM 20.74 69.332 0.087 7.39 7.29 9.65
5/27/2021 2:00:00 PM 20.95 69.71 0.086 7.41 8.72 9.64
5/27/2021 2:15:00 PM 21.05 69.89 0.086 7.44 8.58 9.61
5/27/2021 2:30:00 PM 21.05 69.89 0.086 7.45 7.78 9.6
5/27/2021 2:45:00 PM 21.03 69.854 0.086 7.45 7.56 9.58
5/27/2021 3:00:00 PM 21.12 70.016 0.086 7.46 7.73 9.58
5/27/2021 3:15:00 PM 21.36 70.448 0.086 7.46 7.54 9.54
5/27/2021 3:30:00 PM 21.65 70.97 0.086 7.46 7.77 9.49
5/27/2021 3:45:00 PM 21.86 71.348 0.086 7.47 7.7 9.43
5/27/2021 4:00:00 PM 21.97 71.546 0.086 7.45 7.52 9.37
5/27/2021 4:15:00 PM 21.82 71.276 0.086 7.44 7.81 9.34
5/27/2021 4:30:00 PM 21.74 71.132 0.086 7.46 8.08 9.34
5/27/2021 4:45:00 PM 21.73 71.114 0.086 7.45 7.98 9.34
5/27/2021 5:00:00 PM 21.75 71.15 0.086 7.45 8.39 9.33
5/27/2021 5:15:00 PM 21.74 71.132 0.086 7.43 11 9.25
5/27/2021 5:30:00 PM 21.63 70.934 0.085 7.4 7.39 9.2
5/27/2021 5:45:00 PM 21.53 70.754 0.085 7.39 8.24 9.18
5/27/2021 6:00:00 PM 21.47 70.646 0.085 7.39 8.02 9.19
5/27/2021 6:15:00 PM 21.41 70.538 0.086 7.37 8 9.15
5/27/2021 6:30:00 PM 21.3 70.34 0.085 7.34 8.03 9.06
5/27/2021 6:45:00 PM 21.14 70.052 0.086 7.31 7.94 9.03
5/27/2021 7:00:00 PM 21.07 69.926 0.085 7.29 8.54 9.03
5/27/2021 7:15:00 PM 21.01 69.818 0.085 7.28 7.86 8.99
5/27/2021 7:30:00 PM 20.92 69.656 0.086 7.27 8.02 8.96
5/27/2021 7:45:00 PM 20.78 69.404 0.086 7.24 7.99 8.9
5/27/2021 8:00:00 PM 20.63 69.134 0.086 7.21 8.09 8.84
5/27/2021 8:15:00 PM 20.46 68.828 0.086 7.19 7.92 8.79
5/27/2021 8:30:00 PM 20.3 68.54 0.087 7.17 8.3 8.76
5/27/2021 8:45:00 PM 20.13 68.234 0.087 7.14 8.66 8.73
5/27/2021 9:00:00 PM 19.96 67.92799 0.087 7.12 8.4 8.71
5/27/2021 9:15:00 PM 19.79 67.622 0.087 7.11 8.45 8.7
5/27/2021 9:30:00 PM 19.63 67.334 0.087 7.1 8.81 8.72
5/27/2021 9:45:00 PM 19.47 67.046 0.087 7.08 9.16 8.73
5/27/2021 10:00:00 PM 19.31 66.758 0.088 7.08 10.07 8.74
5/27/2021 10:15:00 PM 19.16 66.488 0.088 7.07 9.26 8.76
5/27/2021 10:30:00 PM 19.01 66.218 0.088 7.06 9.16 8.78
5/27/2021 10:45:00 PM 18.88 65.984 0.088 7.06 9.34 8.81
5/27/2021 11:00:00 PM 18.73 65.714 0.088 7.05 9.72 8.82
5/27/2021 11:15:00 PM 18.6 65.48 0.088 7.04 9.75 8.85
5/27/2021 11:30:00 PM 18.46 65.228 0.088 7.04 10.09 8.88
5/27/2021 11:45:00 PM 18.33 64.994 0.088 7.03 10.04 8.9
5/28/2021 12:00:00 AM 18.2 64.76 0.088 7.04 13.05 8.93
5/28/2021 12:15:00 AM 18.08 64.544 0.088 7.03 9.98 8.96
5/28/2021 12:30:00 AM 17.97 64.346 0.088 7.03 10.46 8.98
5/28/2021 12:45:00 AM 17.86 64.148 0.089 7.03 10.16 9.01
5/28/2021 1:00:00 AM 17.76 63.968 0.088 7.03 11.02 9.03
5/28/2021 1:15:00 AM 17.65 63.77 0.088 7.03 10.41 9.05
5/28/2021 1:30:00 AM 17.54 63.572 0.088 7.03 11.92 9.08
5/28/2021 1:45:00 AM 17.43 63.374 0.088 7.03 12.6 9.1
5/28/2021 2:00:00 AM 17.33 63.194 0.088 7.03 10.67 9.12
5/28/2021 2:15:00 AM 17.22 62.996 0.088 7.03 10.25 9.14
5/28/2021 2:30:00 AM 17.11 62.798 0.088 7.03 10.51 9.17
5/28/2021 2:45:00 AM 17 62.6 0.088 7.03 11 9.19
5/28/2021 3:00:00 AM 16.88 62.384 0.089 7.03 10.84 9.22
5/28/2021 3:15:00 AM 16.77 62.186 0.088 7.03 11.34 9.24
5/28/2021 3:30:00 AM 16.65 61.97 0.089 7.04 11.36 9.27
5/28/2021 3:45:00 AM 16.52 61.736 0.089 7.04 10.73 9.3
5/28/2021 4:00:00 AM 16.4 61.52 0.089 7.05 11.17 9.33
5/28/2021 4:15:00 AM 16.28 61.304 0.089 7.06 11.13 9.36
5/28/2021 4:30:00 AM 16.16 61.088 0.089 7.06 11.53 9.39
5/28/2021 4:45:00 AM 16.04 60.872 0.089 7.06 11.55 9.42
5/28/2021 5:00:00 AM 15.92 60.656 0.089 7.06 11.32 9.45
5/28/2021 5:15:00 AM 15.79 60.422 0.089 7.06 11.38 9.47
5/28/2021 5:30:00 AM 15.69 60.242 0.089 7.05 11.41 9.51
5/28/2021 5:45:00 AM 15.6 60.08 0.089 7.05 11.44 9.53
5/28/2021 6:00:00 AM 15.51 59.918 0.089 7.05 11.59 9.57
5/28/2021 6:15:00 AM 15.43 59.774 0.089 7.06 11.46 9.61
5/28/2021 6:30:00 AM 15.36 59.648 0.089 7.06 11.57 9.66
5/28/2021 6:45:00 AM 15.28 59.504 0.089 7.07 11.43 9.72
5/28/2021 7:00:00 AM 15.22 59.396 0.089 7.08 11.15 9.79
5/28/2021 7:15:00 AM 15.17 59.306 0.089 7.1 11.55 9.87
5/28/2021 7:30:00 AM 15.11 59.198 0.089 7.1 11.34 9.88
5/28/2021 7:45:00 AM 15.06 59.108 0.089 7.1 11.26 9.87
5/28/2021 8:00:00 AM 15 59 0.089 7.1 11.53 9.9
5/28/2021 8:15:00 AM 14.95 58.91 0.089 7.11 11.43 9.95
5/28/2021 8:30:00 AM 14.91 58.838 0.089 7.12 11.52 10.01
5/28/2021 8:45:00 AM 14.87 58.766 0.089 7.13 11.7 10.06
5/28/2021 9:00:00 AM 14.84 58.712 0.089 7.14 11.52 10.12
5/28/2021 9:15:00 AM 14.82 58.676 0.089 7.15 11.29 1